Darstellungsparameter: Aktuell verwendete Einstellungen:
Skalierung der Graphiken ... ?
xyx+y,   Skalierungsfaktor:      Skalierung: Modus: x, Faktor: 1
Darstellungszeitraum ... ?
Vom - - bis: - -   Zeitraum: 27.08.2020 - 26.09.2020
Min/Max/Avg-Anzeige ... ?
Zeige MMA aktuell
Zeige MMA Monat
Zeige MMA alles
Zeige --A aktuell
Zeige --A Monat
Zeige --A alles
Keine MMA-Anzeige
MMA:
Minimum Maximum Average (ber die Originaldaten)
MMA-Basis: 27.08.2020 - 26.09.2020
Quicknavigation für Darstellung... ?
Tage:      1T, 2T, 3T, 5T -1T -2T -3T -5T +1T +2T +3T +5T
Wochen: 1W, 2W, 3W -1W -2W -3W +1W +2W +3W
Monate: 1M, 3M, 6M -1M -3M -6M +1M +3M +6M
Jahre:    1J, 3J, 5J, 10J -1J -3J -5J -10J +1J +3J +5J +10J
Nutze für die Darstellung ... ?
Originaldaten oder Mittelwerte auf ...
Stundenbasis Tagesbasis Wochenbasis
Monatsbasis Jahresbasis      Datenbasis: Original-Daten
Darstellen als:
Statistik (Auto) Statistik J:M      Darstellung:
Zur Graphik,    zurück zur Übersicht aller Sensoren.
 
Tabellarische Datenbersicht: ?
 
Sensor: Nr:Datum:Temp:Abs-Feuchte:Windchill:Wind:
Aussen-T/F 1 27-08-2020 00:00:00 18.3 C 10.63 g/m*3 18.3 C 6.4 km/h
2 27-08-2020 00:05:00 18.3 C 10.79 g/m*3 18.3 C 4.8 km/h
3 27-08-2020 00:10:00 18.3 C 10.79 g/m*3 18.3 C 4.8 km/h
4 27-08-2020 00:15:00 18.2 C 10.57 g/m*3 18.2 C 6.4 km/h
5 27-08-2020 00:20:00 18.2 C 10.72 g/m*3 18.2 C 3.2 km/h
6 27-08-2020 00:25:00 18.1 C 10.66 g/m*3 18.1 C 9.7 km/h
7 27-08-2020 00:30:00 18.1 C 10.66 g/m*3 18.1 C 9.7 km/h
8 27-08-2020 00:35:00 18 C 10.75 g/m*3 18 C 1.6 km/h
9 27-08-2020 00:40:00 17.9 C 10.69 g/m*3 17.9 C 1.6 km/h
10 27-08-2020 00:45:00 17.8 C 10.62 g/m*3 17.8 C 3.2 km/h
11 27-08-2020 00:50:00 17.8 C 10.78 g/m*3 17.8 C 0 km/h
12 27-08-2020 00:55:00 17.7 C 10.71 g/m*3 17.7 C 4.8 km/h
13 27-08-2020 01:00:00 17.7 C 10.71 g/m*3 17.7 C 4.8 km/h
14 27-08-2020 01:05:00 17.7 C 10.71 g/m*3 17.7 C 4.8 km/h
15 27-08-2020 01:10:00 17.7 C 10.86 g/m*3 17.7 C 4.8 km/h
16 27-08-2020 01:15:00 17.6 C 10.8 g/m*3 17.6 C 1.6 km/h
17 27-08-2020 01:20:00 17.6 C 10.8 g/m*3 17.6 C 1.6 km/h
18 27-08-2020 01:25:00 17.5 C 10.73 g/m*3 17.5 C 0 km/h
19 27-08-2020 01:30:00 17.4 C 10.82 g/m*3 17.4 C 1.6 km/h
20 27-08-2020 01:35:00 17.2 C 10.69 g/m*3 17.2 C 1.6 km/h
21 27-08-2020 01:40:00 17.1 C 10.63 g/m*3 17.1 C 0 km/h
22 27-08-2020 01:45:00 16.9 C 10.64 g/m*3 16.9 C 1.6 km/h
23 27-08-2020 01:50:00 16.8 C 10.72 g/m*3 16.8 C 3.2 km/h
24 27-08-2020 01:55:00 16.6 C 10.74 g/m*3 16.6 C 3.2 km/h
25 27-08-2020 02:00:00 16.4 C 10.61 g/m*3 16.4 C 0 km/h
Sensor: Nr:Datum:Temp:Abs-Feuchte:Windchill:Wind:
Aussen-T/F 26 27-08-2020 02:05:00 16.3 C 10.68 g/m*3 16.3 C 1.6 km/h
27 27-08-2020 02:10:00 16.2 C 10.76 g/m*3 16.2 C 0 km/h
28 27-08-2020 02:15:00 16.1 C 10.69 g/m*3 16.1 C 0 km/h
29 27-08-2020 02:20:00 16.1 C 10.83 g/m*3 16.1 C 0 km/h
30 27-08-2020 02:25:00 16.1 C 10.83 g/m*3 16.1 C 1.6 km/h
31 27-08-2020 02:30:00 16.1 C 10.83 g/m*3 16.1 C 3.2 km/h
32 27-08-2020 02:35:00 16.1 C 10.83 g/m*3 16.1 C 4.8 km/h
33 27-08-2020 02:40:00 16.1 C 10.83 g/m*3 16.1 C 4.8 km/h
34 27-08-2020 02:45:00 16.2 C 10.89 g/m*3 16.2 C 6.4 km/h
35 27-08-2020 02:50:00 16.2 C 10.89 g/m*3 16.2 C 3.2 km/h
36 27-08-2020 02:55:00 16.2 C 10.89 g/m*3 16.2 C 3.2 km/h
37 27-08-2020 03:00:00 16.2 C 10.76 g/m*3 16.2 C 1.6 km/h
38 27-08-2020 03:05:00 16.1 C 10.83 g/m*3 16.1 C 4.8 km/h
39 27-08-2020 03:10:00 16 C 10.76 g/m*3 16 C 1.6 km/h
40 27-08-2020 03:15:00 15.9 C 10.7 g/m*3 15.9 C 1.6 km/h
41 27-08-2020 03:20:00 15.7 C 10.57 g/m*3 15.7 C 4.8 km/h
42 27-08-2020 03:25:00 15.6 C 10.64 g/m*3 15.6 C 0 km/h
43 27-08-2020 03:30:00 15.4 C 10.51 g/m*3 15.4 C 3.2 km/h
44 27-08-2020 03:35:00 15.3 C 10.58 g/m*3 15.3 C 1.6 km/h
45 27-08-2020 03:40:00 15.2 C 10.51 g/m*3 15.2 C 0 km/h
46 27-08-2020 03:45:00 15 C 10.51 g/m*3 15 C 0 km/h
47 27-08-2020 03:50:00 14.8 C 10.39 g/m*3 14.8 C 0 km/h
48 27-08-2020 03:55:00 14.7 C 10.32 g/m*3 14.7 C 0 km/h
49 27-08-2020 04:00:00 14.6 C 10.39 g/m*3 14.6 C 1.6 km/h
50 27-08-2020 04:05:00 14.4 C 10.38 g/m*3 14.4 C 3.2 km/h
Sensor: Nr:Datum:Temp:Abs-Feuchte:Windchill:Wind:
Aussen-T/F 51 27-08-2020 04:10:00 14.3 C 10.32 g/m*3 14.3 C 1.6 km/h
52 27-08-2020 04:15:00 14.3 C 10.32 g/m*3 14.3 C 0 km/h
53 27-08-2020 04:20:00 14.2 C 10.38 g/m*3 14.2 C 1.6 km/h
54 27-08-2020 04:25:00 14.1 C 10.32 g/m*3 14.1 C 3.2 km/h
55 27-08-2020 04:30:00 13.9 C 10.31 g/m*3 13.9 C 1.6 km/h
56 27-08-2020 04:35:00 13.9 C 10.31 g/m*3 13.9 C 0 km/h
57 27-08-2020 04:40:00 13.8 C 10.37 g/m*3 13.8 C 1.6 km/h
58 27-08-2020 04:45:00 13.8 C 10.37 g/m*3 13.8 C 0 km/h
59 27-08-2020 04:50:00 13.7 C 10.3 g/m*3 13.7 C 1.6 km/h
60 27-08-2020 04:55:00 13.7 C 10.3 g/m*3 13.7 C 0 km/h
61 27-08-2020 05:00:00 13.6 C 10.24 g/m*3 13.6 C 0 km/h
62 27-08-2020 05:05:00 13.6 C 10.24 g/m*3 13.6 C 0 km/h
63 27-08-2020 05:10:00 13.4 C 10.11 g/m*3 13.4 C 0 km/h
64 27-08-2020 05:15:00 13.3 C 10.17 g/m*3 13.3 C 0 km/h
65 27-08-2020 05:20:00 13.2 C 10.1 g/m*3 13.2 C 0 km/h
66 27-08-2020 05:25:00 13.2 C 10.1 g/m*3 13.2 C 0 km/h
67 27-08-2020 05:30:00 13.1 C 10.16 g/m*3 13.1 C 0 km/h
68 27-08-2020 05:35:00 13.1 C 10.16 g/m*3 13.1 C 0 km/h
69 27-08-2020 05:40:00 13.1 C 10.16 g/m*3 13.1 C 0 km/h
70 27-08-2020 05:45:00 13.1 C 10.27 g/m*3 13.1 C 0 km/h
71 27-08-2020 05:50:00 13.1 C 10.16 g/m*3 13.1 C 0 km/h
72 27-08-2020 05:55:00 13 C 10.09 g/m*3 13 C 0 km/h
73 27-08-2020 06:00:00 12.9 C 10.03 g/m*3 12.9 C 0 km/h
74 27-08-2020 06:05:00 12.9 C 10.14 g/m*3 12.9 C 0 km/h
75 27-08-2020 06:10:00 12.8 C 10.08 g/m*3 12.8 C 0 km/h
Sensor: Nr:Datum:Temp:Abs-Feuchte:Windchill:Wind:
Aussen-T/F 76 27-08-2020 06:15:00 12.8 C 10.08 g/m*3 12.8 C 0 km/h
77 27-08-2020 06:20:00 12.8 C 10.08 g/m*3 12.8 C 0 km/h
78 27-08-2020 06:25:00 12.8 C 10.08 g/m*3 12.8 C 0 km/h
79 27-08-2020 06:30:00 12.8 C 10.08 g/m*3 12.8 C 1.6 km/h
80 27-08-2020 06:35:00 12.8 C 10.19 g/m*3 12.8 C 1.6 km/h
81 27-08-2020 06:40:00 12.8 C 10.19 g/m*3 12.8 C 4.8 km/h
82 27-08-2020 06:45:00 12.8 C 10.19 g/m*3 12.8 C 1.6 km/h
83 27-08-2020 06:50:00 12.8 C 10.19 g/m*3 12.8 C 1.6 km/h
84 27-08-2020 06:55:00 12.7 C 10.02 g/m*3 12.7 C 0 km/h
85 27-08-2020 07:00:00 12.7 C 10.02 g/m*3 12.7 C 1.6 km/h
86 27-08-2020 07:05:00 12.6 C 10.07 g/m*3 12.6 C 3.2 km/h
87 27-08-2020 07:10:00 12.6 C 10.07 g/m*3 12.6 C 3.2 km/h
88 27-08-2020 07:15:00 12.6 C 10.07 g/m*3 12.6 C 1.6 km/h
89 27-08-2020 07:20:00 12.7 C 10.24 g/m*3 12.7 C 4.8 km/h
90 27-08-2020 07:25:00 12.7 C 10.24 g/m*3 12.7 C 9.7 km/h
91 27-08-2020 07:30:00 12.8 C 10.19 g/m*3 12.8 C 4.8 km/h
92 27-08-2020 07:35:00 12.8 C 10.19 g/m*3 12.8 C 4.8 km/h
93 27-08-2020 07:40:00 12.9 C 10.26 g/m*3 12.9 C 1.6 km/h
94 27-08-2020 07:45:00 12.9 C 10.26 g/m*3 12.9 C 4.8 km/h
95 27-08-2020 07:50:00 12.9 C 10.26 g/m*3 12.9 C 3.2 km/h
96 27-08-2020 07:55:00 13 C 10.32 g/m*3 13 C 1.6 km/h
97 27-08-2020 08:00:00 13 C 10.32 g/m*3 13 C 0 km/h
98 27-08-2020 08:05:00 13.1 C 10.38 g/m*3 13.1 C 0 km/h
99 27-08-2020 08:10:00 13.1 C 10.38 g/m*3 13.1 C 1.6 km/h
100 27-08-2020 08:15:00 13.2 C 10.45 g/m*3 13.2 C 1.6 km/h
Sensor: Nr:Datum:Temp:Abs-Feuchte:Windchill:Wind:
Aussen-T/F 101 27-08-2020 08:20:00 13.2 C 10.45 g/m*3 13.2 C 3.2 km/h
102 27-08-2020 08:25:00 13.4 C 10.58 g/m*3 13.4 C 8.1 km/h
103 27-08-2020 08:30:00 13.7 C 10.66 g/m*3 13.7 C 8.1 km/h
104 27-08-2020 08:35:00 13.9 C 10.55 g/m*3 13.9 C 9.7 km/h
105 27-08-2020 08:40:00 14.1 C 10.68 g/m*3 14.1 C 1.6 km/h
106 27-08-2020 08:45:00 14.3 C 10.81 g/m*3 14.3 C 4.8 km/h
107 27-08-2020 08:50:00 14.5 C 10.82 g/m*3 14.5 C 6.4 km/h
108 27-08-2020 08:55:00 14.8 C 10.89 g/m*3 14.8 C 8.1 km/h
109 27-08-2020 09:00:00 14.9 C 10.83 g/m*3 14.9 C 8.1 km/h
110 27-08-2020 09:05:00 15.2 C 11.03 g/m*3 15.2 C 8.1 km/h
111 27-08-2020 09:10:00 15.4 C 11.04 g/m*3 15.4 C 8.1 km/h
112 27-08-2020 09:15:00 15.6 C 11.04 g/m*3 15.6 C 9.7 km/h
113 27-08-2020 09:20:00 15.8 C 11.04 g/m*3 15.8 C 9.7 km/h
114 27-08-2020 09:25:00 15.9 C 10.97 g/m*3 15.9 C 9.7 km/h
115 27-08-2020 09:30:00 16.1 C 11.1 g/m*3 16.1 C 8.1 km/h
116 27-08-2020 09:35:00 16.3 C 11.24 g/m*3 16.3 C 11.3 km/h
117 27-08-2020 09:40:00 16.4 C 11.17 g/m*3 16.4 C 9.7 km/h
118 27-08-2020 09:45:00 16.6 C 11.16 g/m*3 16.6 C 11.3 km/h
119 27-08-2020 09:50:00 16.7 C 11.23 g/m*3 16.7 C 11.3 km/h
120 27-08-2020 09:55:00 16.8 C 11.15 g/m*3 16.8 C 9.7 km/h
121 27-08-2020 10:00:00 16.8 C 11.15 g/m*3 16.8 C 9.7 km/h
122 27-08-2020 10:05:00 16.8 C 11.15 g/m*3 16.8 C 8.1 km/h
123 27-08-2020 10:10:00 16.7 C 11.23 g/m*3 16.7 C 8.1 km/h
124 27-08-2020 10:15:00 16.8 C 11.29 g/m*3 16.8 C 6.4 km/h
125 27-08-2020 10:20:00 16.8 C 11.29 g/m*3 16.8 C 6.4 km/h
Sensor: Nr:Datum:Temp:Abs-Feuchte:Windchill:Wind:
Aussen-T/F 126 27-08-2020 10:25:00 17 C 11.29 g/m*3 17 C 6.4 km/h
127 27-08-2020 10:30:00 17.2 C 11.28 g/m*3 17.2 C 8.1 km/h
128 27-08-2020 10:35:00 17.3 C 11.34 g/m*3 17.3 C 6.4 km/h
129 27-08-2020 10:40:00 17.4 C 11.41 g/m*3 17.4 C 4.8 km/h
130 27-08-2020 10:45:00 17.7 C 11.47 g/m*3 17.7 C 4.8 km/h
131 27-08-2020 10:50:00 17.9 C 11.45 g/m*3 17.9 C 4.8 km/h
132 27-08-2020 10:55:00 18.1 C 11.74 g/m*3 18.1 C 1.6 km/h
133 27-08-2020 11:00:00 18.3 C 11.57 g/m*3 18.3 C 3.2 km/h
134 27-08-2020 11:05:00 18.6 C 11.78 g/m*3 18.6 C 4.8 km/h
135 27-08-2020 11:10:00 18.7 C 11.37 g/m*3 18.7 C 8.1 km/h
136 27-08-2020 11:15:00 18.8 C 11.6 g/m*3 18.8 C 6.4 km/h
137 27-08-2020 11:20:00 18.9 C 11.5 g/m*3 18.9 C 8.1 km/h
138 27-08-2020 11:25:00 19 C 11.41 g/m*3 19 C 9.7 km/h
139 27-08-2020 11:30:00 19 C 11.41 g/m*3 19 C 9.7 km/h
140 27-08-2020 11:35:00 19 C 11.24 g/m*3 19 C 6.4 km/h
141 27-08-2020 11:40:00 19.1 C 11.47 g/m*3 19.1 C 6.4 km/h
142 27-08-2020 11:45:00 19.1 C 11.31 g/m*3 19.1 C 8.1 km/h
143 27-08-2020 11:50:00 19.1 C 11.31 g/m*3 19.1 C 6.4 km/h
144 27-08-2020 11:55:00 19.2 C 11.21 g/m*3 19.2 C 1.6 km/h
145 27-08-2020 12:00:00 19.3 C 11.28 g/m*3 19.3 C 9.7 km/h
146 27-08-2020 12:05:00 19.3 C 11.44 g/m*3 19.3 C 4.8 km/h
147 27-08-2020 12:10:00 19.4 C 11.18 g/m*3 19.4 C 6.4 km/h
148 27-08-2020 12:15:00 19.4 C 11.01 g/m*3 19.4 C 3.2 km/h
149 27-08-2020 12:20:00 19.4 C 11.01 g/m*3 19.4 C 1.6 km/h
150 27-08-2020 12:25:00 19.5 C 10.91 g/m*3 19.5 C 4.8 km/h
Sensor: Nr:Datum:Temp:Abs-Feuchte:Windchill:Wind:
Aussen-T/F 151 27-08-2020 12:30:00 19.5 C 10.91 g/m*3 19.5 C 6.4 km/h
152 27-08-2020 12:35:00 19.6 C 10.8 g/m*3 19.6 C 11.3 km/h
153 27-08-2020 12:40:00 19.5 C 10.91 g/m*3 19.5 C 4.8 km/h
154 27-08-2020 12:45:00 19.6 C 10.8 g/m*3 19.6 C 0 km/h
155 27-08-2020 12:50:00 19.7 C 11.04 g/m*3 19.7 C 6.4 km/h
156 27-08-2020 12:55:00 19.8 C 10.93 g/m*3 19.8 C 3.2 km/h
157 27-08-2020 13:00:00 19.8 C 11.1 g/m*3 19.8 C 3.2 km/h
158 27-08-2020 13:05:00 19.9 C 10.82 g/m*3 19.9 C 11.3 km/h
159 27-08-2020 13:10:00 20 C 10.89 g/m*3 20 C 8.1 km/h
160 27-08-2020 13:15:00 20.1 C 10.95 g/m*3 20.1 C 12.9 km/h
161 27-08-2020 13:20:00 20 C 10.71 g/m*3 20 C 6.4 km/h
162 27-08-2020 13:25:00 19.9 C 11 g/m*3 19.9 C 8.1 km/h
163 27-08-2020 13:30:00 20.1 C 10.78 g/m*3 20.1 C 16.1 km/h
164 27-08-2020 13:35:00 20.2 C 10.84 g/m*3 20.2 C 11.3 km/h
165 27-08-2020 13:40:00 20.3 C 10.73 g/m*3 20.3 C 11.3 km/h
166 27-08-2020 13:45:00 20.3 C 10.9 g/m*3 20.3 C 8.1 km/h
167 27-08-2020 13:50:00 20.4 C 10.79 g/m*3 20.4 C 8.1 km/h
168 27-08-2020 13:55:00 20.5 C 10.68 g/m*3 20.5 C 6.4 km/h
169 27-08-2020 14:00:00 20.7 C 10.98 g/m*3 20.7 C 12.9 km/h
170 27-08-2020 14:05:00 20.9 C 10.56 g/m*3 20.9 C 9.7 km/h
171 27-08-2020 14:10:00 21.2 C 10.75 g/m*3 21.2 C 8.1 km/h
172 27-08-2020 14:15:00 21.3 C 10.81 g/m*3 21.3 C 12.9 km/h
173 27-08-2020 14:20:00 21.3 C 10.62 g/m*3 21.3 C 4.8 km/h
174 27-08-2020 14:25:00 21.4 C 10.69 g/m*3 21.4 C 9.7 km/h
175 27-08-2020 14:30:00 21.6 C 10.81 g/m*3 21.6 C 8.1 km/h
Sensor: Nr:Datum:Temp:Abs-Feuchte:Windchill:Wind:
Aussen-T/F 176 27-08-2020 14:35:00 21.5 C 10.56 g/m*3 21.5 C 9.7 km/h
177 27-08-2020 14:40:00 21.5 C 10.56 g/m*3 21.5 C 4.8 km/h
178 27-08-2020 14:45:00 21.5 C 10.37 g/m*3 21.5 C 6.4 km/h
179 27-08-2020 14:50:00 21.4 C 10.5 g/m*3 21.4 C 0 km/h
180 27-08-2020 14:55:00 21.4 C 10.5 g/m*3 21.4 C 0 km/h
181 27-08-2020 15:00:00 21.7 C 10.68 g/m*3 21.7 C 9.7 km/h
182 27-08-2020 15:05:00 22.1 C 10.54 g/m*3 22.1 C 6.4 km/h
183 27-08-2020 15:10:00 22.3 C 10.27 g/m*3 22.3 C 11.3 km/h
184 27-08-2020 15:15:00 22.4 C 10.33 g/m*3 22.4 C 22.5 km/h
185 27-08-2020 15:20:00 22.6 C 10.04 g/m*3 22.6 C 11.3 km/h
186 27-08-2020 15:25:00 22.6 C 10.04 g/m*3 22.6 C 11.3 km/h
187 27-08-2020 15:30:00 22.6 C 10.25 g/m*3 22.6 C 8.1 km/h
188 27-08-2020 15:35:00 22.6 C 10.25 g/m*3 22.6 C 9.7 km/h
189 27-08-2020 15:40:00 22.8 C 10.36 g/m*3 22.8 C 9.7 km/h
190 27-08-2020 15:45:00 23 C 10.28 g/m*3 23 C 11.3 km/h
191 27-08-2020 15:50:00 23.1 C 10.13 g/m*3 23.1 C 14.5 km/h
192 27-08-2020 15:55:00 23.3 C 10.25 g/m*3 23.3 C 8.1 km/h
193 27-08-2020 16:00:00 23.5 C 10.15 g/m*3 23.5 C 8.1 km/h
194 27-08-2020 16:05:00 23.7 C 10.27 g/m*3 23.7 C 9.7 km/h
195 27-08-2020 16:10:00 24 C 10.01 g/m*3 24 C 12.9 km/h
196 27-08-2020 16:15:00 24.2 C 10.12 g/m*3 24.2 C 16.1 km/h
197 27-08-2020 16:20:00 24.2 C 10.34 g/m*3 24.2 C 9.7 km/h
198 27-08-2020 16:25:00 24.2 C 10.12 g/m*3 24.2 C 9.7 km/h
199 27-08-2020 16:30:00 24.3 C 10.18 g/m*3 24.3 C 4.8 km/h
200 27-08-2020 16:35:00 24.7 C 10.64 g/m*3 24.7 C 4.8 km/h
Sensor: Nr:Datum:Temp:Abs-Feuchte:Windchill:Wind:
Aussen-T/F 201 27-08-2020 16:40:00 25.1 C 10.19 g/m*3 25.1 C 9.7 km/h
202 27-08-2020 16:45:00 25.2 C 10.24 g/m*3 25.2 C 16.1 km/h
203 27-08-2020 16:50:00 25.3 C 10.3 g/m*3 25.3 C 11.3 km/h
204 27-08-2020 16:55:00 25.3 C 10.3 g/m*3 25.3 C 12.9 km/h
205 27-08-2020 17:00:00 25.4 C 10.12 g/m*3 25.4 C 11.3 km/h
206 27-08-2020 17:05:00 25.4 C 10.12 g/m*3 25.4 C 9.7 km/h
207 27-08-2020 17:10:00 25.4 C 10.12 g/m*3 25.4 C 11.3 km/h
208 27-08-2020 17:15:00 25.3 C 9.83 g/m*3 25.3 C 12.9 km/h
209 27-08-2020 17:20:00 25.4 C 10.12 g/m*3 25.4 C 8.1 km/h
210 27-08-2020 17:25:00 25.6 C 9.76 g/m*3 25.6 C 9.7 km/h
211 27-08-2020 17:30:00 25.5 C 9.94 g/m*3 25.5 C 14.5 km/h
212 27-08-2020 17:35:00 25.4 C 10.12 g/m*3 25.4 C 8.1 km/h
213 27-08-2020 17:40:00 25.7 C 9.82 g/m*3 25.7 C 9.7 km/h
214 27-08-2020 17:45:00 25.8 C 9.87 g/m*3 25.8 C 9.7 km/h
215 27-08-2020 17:50:00 25.7 C 9.82 g/m*3 25.7 C 12.9 km/h
216 27-08-2020 17:55:00 25.6 C 9.76 g/m*3 25.6 C 12.9 km/h
217 27-08-2020 18:00:00 25.7 C 9.82 g/m*3 25.7 C 9.7 km/h
218 27-08-2020 18:05:00 26 C 9.98 g/m*3 26 C 9.7 km/h
219 27-08-2020 18:10:00 26.1 C 9.55 g/m*3 26.1 C 11.3 km/h
220 27-08-2020 18:15:00 25.9 C 9.68 g/m*3 25.9 C 9.7 km/h
221 27-08-2020 18:20:00 26 C 9.49 g/m*3 26 C 9.7 km/h
222 27-08-2020 18:25:00 25.9 C 9.44 g/m*3 25.9 C 9.7 km/h
223 27-08-2020 18:30:00 25.8 C 9.63 g/m*3 25.8 C 6.4 km/h
224 27-08-2020 18:35:00 25.8 C 9.63 g/m*3 25.8 C 16.1 km/h
225 27-08-2020 18:40:00 25.8 C 9.63 g/m*3 25.8 C 4.8 km/h
Sensor: Nr:Datum:Temp:Abs-Feuchte:Windchill:Wind:
Aussen-T/F 226 27-08-2020 18:45:00 25.8 C 9.39 g/m*3 25.8 C 8.1 km/h
227 27-08-2020 18:50:00 25.7 C 9.58 g/m*3 25.7 C 9.7 km/h
228 27-08-2020 18:55:00 25.5 C 9.94 g/m*3 25.5 C 12.9 km/h
229 27-08-2020 19:00:00 25.5 C 9.71 g/m*3 25.5 C 8.1 km/h
230 27-08-2020 19:05:00 25.5 C 10.18 g/m*3 25.5 C 4.8 km/h
231 27-08-2020 19:10:00 25.4 C 9.65 g/m*3 25.4 C 4.8 km/h
232 27-08-2020 19:15:00 25.1 C 9.72 g/m*3 25.1 C 9.7 km/h
233 27-08-2020 19:20:00 24.8 C 9.79 g/m*3 24.8 C 6.4 km/h
234 27-08-2020 19:25:00 24.6 C 10.13 g/m*3 24.6 C 6.4 km/h
235 27-08-2020 19:30:00 24.3 C 11.06 g/m*3 24.3 C 0 km/h
236 27-08-2020 19:35:00 24.1 C 10.5 g/m*3 24.1 C 1.6 km/h
237 27-08-2020 19:40:00 23.8 C 10.97 g/m*3 23.8 C 3.2 km/h
238 27-08-2020 19:45:00 23.7 C 10.69 g/m*3 23.7 C 3.2 km/h
239 27-08-2020 19:50:00 23.4 C 10.72 g/m*3 23.4 C 0 km/h
240 27-08-2020 19:55:00 22.9 C 10.42 g/m*3 22.9 C 1.6 km/h
241 27-08-2020 20:00:00 22.4 C 10.53 g/m*3 22.4 C 0 km/h
242 27-08-2020 20:05:00 21.8 C 10.55 g/m*3 21.8 C 6.4 km/h
243 27-08-2020 20:10:00 21.2 C 10.38 g/m*3 21.2 C 4.8 km/h
244 27-08-2020 20:15:00 20.6 C 10.2 g/m*3 20.6 C 4.8 km/h
245 27-08-2020 20:20:00 20.2 C 10.14 g/m*3 20.2 C 6.4 km/h
246 27-08-2020 20:25:00 19.8 C 10.08 g/m*3 19.8 C 6.4 km/h
247 27-08-2020 20:30:00 19.4 C 10.18 g/m*3 19.4 C 3.2 km/h
248 27-08-2020 20:35:00 19.1 C 10.16 g/m*3 19.1 C 1.6 km/h
249 27-08-2020 20:40:00 18.8 C 9.99 g/m*3 18.8 C 0 km/h
250 27-08-2020 20:45:00 18.6 C 10.03 g/m*3 18.6 C 0 km/h
Sensor: Nr:Datum:Temp:Abs-Feuchte:Windchill:Wind:
Aussen-T/F 251 27-08-2020 20:50:00 18.3 C 9.85 g/m*3 18.3 C 6.4 km/h
252 27-08-2020 20:55:00 18.2 C 9.95 g/m*3 18.2 C 3.2 km/h
253 27-08-2020 21:00:00 18 C 9.98 g/m*3 18 C 4.8 km/h
254 27-08-2020 21:05:00 17.8 C 9.87 g/m*3 17.8 C 4.8 km/h
255 27-08-2020 21:10:00 17.7 C 9.96 g/m*3 17.7 C 0 km/h
256 27-08-2020 21:15:00 17.6 C 9.9 g/m*3 17.6 C 0 km/h
257 27-08-2020 21:20:00 17.5 C 9.84 g/m*3 17.5 C 0 km/h
258 27-08-2020 21:25:00 17.4 C 9.78 g/m*3 17.4 C 0 km/h
259 27-08-2020 21:30:00 17.3 C 9.87 g/m*3 17.3 C 4.8 km/h
260 27-08-2020 21:35:00 17.3 C 10.02 g/m*3 17.3 C 4.8 km/h
261 27-08-2020 21:40:00 17.3 C 9.87 g/m*3 17.3 C 6.4 km/h
262 27-08-2020 21:45:00 17.3 C 9.87 g/m*3 17.3 C 4.8 km/h
263 27-08-2020 21:50:00 17.3 C 9.87 g/m*3 17.3 C 0 km/h
264 27-08-2020 21:55:00 17.3 C 9.87 g/m*3 17.3 C 0 km/h
265 27-08-2020 22:00:00 17.3 C 9.87 g/m*3 17.3 C 0 km/h
266 27-08-2020 22:05:00 17.3 C 10.02 g/m*3 17.3 C 0 km/h
267 27-08-2020 22:10:00 17.3 C 10.16 g/m*3 17.3 C 0 km/h
268 27-08-2020 22:15:00 17.3 C 10.16 g/m*3 17.3 C 0 km/h
269 27-08-2020 22:20:00 17.3 C 10.16 g/m*3 17.3 C 0 km/h
270 27-08-2020 22:25:00 17.2 C 9.96 g/m*3 17.2 C 0 km/h
271 27-08-2020 22:30:00 17.2 C 10.1 g/m*3 17.2 C 0 km/h
272 27-08-2020 22:35:00 17.1 C 10.04 g/m*3 17.1 C 0 km/h
273 27-08-2020 22:40:00 17.1 C 10.04 g/m*3 17.1 C 0 km/h
274 27-08-2020 22:45:00 17.1 C 10.19 g/m*3 17.1 C 0 km/h
275 27-08-2020 22:50:00 17.1 C 10.19 g/m*3 17.1 C 0 km/h
Sensor: Nr:Datum:Temp:Abs-Feuchte:Windchill:Wind:
Aussen-T/F 276 27-08-2020 22:55:00 17.2 C 10.4 g/m*3 17.2 C 0 km/h
277 27-08-2020 23:00:00 17.3 C 10.46 g/m*3 17.3 C 0 km/h
278 27-08-2020 23:05:00 17.3 C 10.46 g/m*3 17.3 C 0 km/h
279 27-08-2020 23:10:00 17.5 C 10.88 g/m*3 17.5 C 0 km/h
280 27-08-2020 23:15:00 17.6 C 11.25 g/m*3 17.6 C 0 km/h
281 27-08-2020 23:20:00 17.6 C 11.4 g/m*3 17.6 C 0 km/h
282 27-08-2020 23:25:00 17.6 C 10.95 g/m*3 17.6 C 0 km/h
283 27-08-2020 23:30:00 17.6 C 11.55 g/m*3 17.6 C 0 km/h
284 27-08-2020 23:35:00 17.6 C 11.85 g/m*3 17.6 C 0 km/h
285 27-08-2020 23:40:00 17.5 C 11.93 g/m*3 17.5 C 0 km/h
286 27-08-2020 23:45:00 17.3 C 11.93 g/m*3 17.3 C 0 km/h
287 27-08-2020 23:50:00 17.1 C 11.94 g/m*3 17.1 C 8.1 km/h
288 27-08-2020 23:55:00 16.9 C 11.94 g/m*3 16.9 C 6.4 km/h
289 28-08-2020 00:00:00 16.7 C 11.8 g/m*3 16.7 C 6.4 km/h
290 28-08-2020 00:05:00 16.6 C 11.72 g/m*3 16.6 C 6.4 km/h
291 28-08-2020 00:10:00 16.5 C 11.8 g/m*3 16.5 C 4.8 km/h
292 28-08-2020 00:15:00 16.4 C 11.58 g/m*3 16.4 C 4.8 km/h
293 28-08-2020 00:20:00 16.4 C 11.72 g/m*3 16.4 C 4.8 km/h
294 28-08-2020 00:25:00 16.4 C 11.72 g/m*3 16.4 C 4.8 km/h
295 28-08-2020 00:30:00 16.4 C 11.72 g/m*3 16.4 C 4.8 km/h
296 28-08-2020 00:35:00 16.4 C 11.72 g/m*3 16.4 C 0 km/h
297 28-08-2020 00:40:00 16.4 C 11.58 g/m*3 16.4 C 3.2 km/h
298 28-08-2020 00:45:00 16.4 C 11.45 g/m*3 16.4 C 3.2 km/h
299 28-08-2020 00:50:00 16.4 C 11.45 g/m*3 16.4 C 1.6 km/h
300 28-08-2020 00:55:00 16.4 C 11.45 g/m*3 16.4 C 0 km/h
Sensor: Nr:Datum:Temp:Abs-Feuchte:Windchill:Wind:
Aussen-T/F 301 28-08-2020 01:00:00 16.4 C 11.45 g/m*3 16.4 C 0 km/h
302 28-08-2020 01:05:00 16.6 C 11.72 g/m*3 16.6 C 0 km/h
303 28-08-2020 01:10:00 16.6 C 11.58 g/m*3 16.6 C 0 km/h
304 28-08-2020 01:15:00 16.6 C 11.72 g/m*3 16.6 C 0 km/h
305 28-08-2020 01:20:00 16.6 C 11.72 g/m*3 16.6 C 0 km/h
306 28-08-2020 01:25:00 16.7 C 11.65 g/m*3 16.7 C 0 km/h
307 28-08-2020 01:30:00 16.7 C 11.65 g/m*3 16.7 C 0 km/h
308 28-08-2020 01:35:00 16.7 C 11.8 g/m*3 16.7 C 0 km/h
309 28-08-2020 01:40:00 16.8 C 12.15 g/m*3 16.8 C 0 km/h
310 28-08-2020 01:45:00 16.8 C 12.3 g/m*3 16.8 C 4.8 km/h
311 28-08-2020 01:50:00 16.7 C 12.36 g/m*3 16.7 C 6.4 km/h
312 28-08-2020 01:55:00 16.7 C 12.51 g/m*3 16.7 C 6.4 km/h
313 28-08-2020 02:00:00 16.6 C 12.57 g/m*3 16.6 C 8.1 km/h
314 28-08-2020 02:05:00 16.6 C 12.57 g/m*3 16.6 C 4.8 km/h
315 28-08-2020 02:10:00 16.5 C 12.64 g/m*3 16.5 C 8.1 km/h
316 28-08-2020 02:15:00 16.5 C 12.64 g/m*3 16.5 C 4.8 km/h
317 28-08-2020 02:20:00 16.4 C 12.56 g/m*3 16.4 C 0 km/h
318 28-08-2020 02:25:00 16.5 C 12.78 g/m*3 16.5 C 4.8 km/h
319 28-08-2020 02:30:00 16.4 C 12.7 g/m*3 16.4 C 4.8 km/h
320 28-08-2020 02:35:00 16.4 C 12.7 g/m*3 16.4 C 3.2 km/h
321 28-08-2020 02:40:00 16.4 C 12.84 g/m*3 16.4 C 4.8 km/h
322 28-08-2020 02:45:00 16.3 C 12.76 g/m*3 16.3 C 1.6 km/h
323 28-08-2020 02:50:00 16.3 C 12.76 g/m*3 16.3 C 0 km/h
324 28-08-2020 02:55:00 16.2 C 12.69 g/m*3 16.2 C 0 km/h
325 28-08-2020 03:00:00 16.2 C 12.69 g/m*3 16.2 C 0 km/h
Sensor: Nr:Datum:Temp:Abs-Feuchte:Windchill:Wind:
Aussen-T/F 326 28-08-2020 03:05:00 16.1 C 12.61 g/m*3 16.1 C 1.6 km/h
327 28-08-2020 03:10:00 16 C 12.53 g/m*3 16 C 1.6 km/h
328 28-08-2020 03:15:00 15.9 C 12.46 g/m*3 15.9 C 3.2 km/h
329 28-08-2020 03:20:00 15.9 C 12.46 g/m*3 15.9 C 0 km/h
330 28-08-2020 03:25:00 15.9 C 12.59 g/m*3 15.9 C 0 km/h
331 28-08-2020 03:30:00 15.8 C 12.52 g/m*3 15.8 C 0 km/h
332 28-08-2020 03:35:00 15.8 C 12.52 g/m*3 15.8 C 0 km/h
333 28-08-2020 03:40:00 15.8 C 12.52 g/m*3 15.8 C 3.2 km/h
334 28-08-2020 03:45:00 15.8 C 12.52 g/m*3 15.8 C 4.8 km/h
335 28-08-2020 03:50:00 15.8 C 12.52 g/m*3 15.8 C 3.2 km/h
336 28-08-2020 03:55:00 15.8 C 12.52 g/m*3 15.8 C 3.2 km/h
337 28-08-2020 04:00:00 15.8 C 12.65 g/m*3 15.8 C 4.8 km/h
338 28-08-2020 04:05:00 15.7 C 12.58 g/m*3 15.7 C 4.8 km/h
339 28-08-2020 04:10:00 15.7 C 12.58 g/m*3 15.7 C 6.4 km/h
340 28-08-2020 04:15:00 15.7 C 12.58 g/m*3 15.7 C 4.8 km/h
341 28-08-2020 04:20:00 15.7 C 12.58 g/m*3 15.7 C 4.8 km/h
342 28-08-2020 04:25:00 15.7 C 12.58 g/m*3 15.7 C 3.2 km/h
343 28-08-2020 04:30:00 15.7 C 12.58 g/m*3 15.7 C 8.1 km/h
344 28-08-2020 04:35:00 15.8 C 12.65 g/m*3 15.8 C 4.8 km/h
345 28-08-2020 04:40:00 15.8 C 12.65 g/m*3 15.8 C 8.1 km/h
346 28-08-2020 04:45:00 15.7 C 12.58 g/m*3 15.7 C 6.4 km/h
347 28-08-2020 04:50:00 15.7 C 12.71 g/m*3 15.7 C 4.8 km/h
348 28-08-2020 04:55:00 15.7 C 12.71 g/m*3 15.7 C 6.4 km/h
349 28-08-2020 05:00:00 15.7 C 12.71 g/m*3 15.7 C 4.8 km/h
350 28-08-2020 05:05:00 15.8 C 12.79 g/m*3 15.8 C 4.8 km/h
Sensor: Nr:Datum:Temp:Abs-Feuchte:Windchill:Wind:
Aussen-T/F 351 28-08-2020 05:10:00 15.8 C 12.79 g/m*3 15.8 C 3.2 km/h
352 28-08-2020 05:15:00 15.8 C 12.79 g/m*3 15.8 C 3.2 km/h
353 28-08-2020 05:20:00 15.7 C 12.71 g/m*3 15.7 C 3.2 km/h
354 28-08-2020 05:25:00 15.7 C 12.71 g/m*3 15.7 C 3.2 km/h
355 28-08-2020 05:30:00 15.7 C 12.71 g/m*3 15.7 C 4.8 km/h
356 28-08-2020 05:35:00 15.6 C 12.63 g/m*3 15.6 C 3.2 km/h
357 28-08-2020 05:40:00 15.6 C 12.63 g/m*3 15.6 C 1.6 km/h
358 28-08-2020 05:45:00 15.5 C 12.56 g/m*3 15.5 C 0 km/h
359 28-08-2020 05:50:00 15.5 C 12.56 g/m*3 15.5 C 1.6 km/h
360 28-08-2020 05:55:00 15.4 C 12.48 g/m*3 15.4 C 3.2 km/h
361 28-08-2020 06:00:00 15.4 C 12.48 g/m*3 15.4 C 3.2 km/h
362 28-08-2020 06:05:00 15.4 C 12.48 g/m*3 15.4 C 3.2 km/h
363 28-08-2020 06:10:00 15.4 C 12.48 g/m*3 15.4 C 4.8 km/h
364 28-08-2020 06:15:00 15.5 C 12.56 g/m*3 15.5 C 1.6 km/h
365 28-08-2020 06:20:00 15.5 C 12.56 g/m*3 15.5 C 4.8 km/h
366 28-08-2020 06:25:00 15.6 C 12.63 g/m*3 15.6 C 9.7 km/h
367 28-08-2020 06:30:00 15.6 C 12.63 g/m*3 15.6 C 4.8 km/h
368 28-08-2020 06:35:00 15.6 C 12.63 g/m*3 15.6 C 3.2 km/h
369 28-08-2020 06:40:00 15.6 C 12.63 g/m*3 15.6 C 3.2 km/h
370 28-08-2020 06:45:00 15.6 C 12.63 g/m*3 15.6 C 3.2 km/h
371 28-08-2020 06:50:00 15.6 C 12.63 g/m*3 15.6 C 3.2 km/h
372 28-08-2020 06:55:00 15.5 C 12.56 g/m*3 15.5 C 4.8 km/h
373 28-08-2020 07:00:00 15.5 C 12.56 g/m*3 15.5 C 6.4 km/h
374 28-08-2020 07:05:00 15.5 C 12.56 g/m*3 15.5 C 1.6 km/h
375 28-08-2020 07:10:00 15.5 C 12.56 g/m*3 15.5 C 4.8 km/h
Sensor: Nr:Datum:Temp:Abs-Feuchte:Windchill:Wind:
Aussen-T/F 376 28-08-2020 07:15:00 15.5 C 12.56 g/m*3 15.5 C 3.2 km/h
377 28-08-2020 07:20:00 15.5 C 12.56 g/m*3 15.5 C 3.2 km/h
378 28-08-2020 07:25:00 15.5 C 12.56 g/m*3 15.5 C 3.2 km/h
379 28-08-2020 07:30:00 15.5 C 12.56 g/m*3 15.5 C 3.2 km/h
380 28-08-2020 07:35:00 15.6 C 12.63 g/m*3 15.6 C 3.2 km/h
381 28-08-2020 07:40:00 15.6 C 12.63 g/m*3 15.6 C 3.2 km/h
382 28-08-2020 07:45:00 15.7 C 12.71 g/m*3 15.7 C 0 km/h
383 28-08-2020 07:50:00 15.7 C 12.71 g/m*3 15.7 C 0 km/h
384 28-08-2020 07:55:00 15.7 C 12.71 g/m*3 15.7 C 0 km/h
385 28-08-2020 08:00:00 15.8 C 12.92 g/m*3 15.8 C 0 km/h
386 28-08-2020 08:05:00 15.8 C 12.92 g/m*3 15.8 C 0 km/h
387 28-08-2020 08:10:00 15.9 C 13 g/m*3 15.9 C 0 km/h
388 28-08-2020 08:15:00 15.9 C 13 g/m*3 15.9 C 0 km/h
389 28-08-2020 08:20:00 15.9 C 13 g/m*3 15.9 C 0 km/h
390 28-08-2020 08:25:00 16.1 C 13.02 g/m*3 16.1 C 0 km/h
391 28-08-2020 08:30:00 16.1 C 13.02 g/m*3 16.1 C 3.2 km/h
392 28-08-2020 08:35:00 16.1 C 13.02 g/m*3 16.1 C 3.2 km/h
393 28-08-2020 08:40:00 16.1 C 13.02 g/m*3 16.1 C 6.4 km/h
394 28-08-2020 08:45:00 16 C 12.81 g/m*3 16 C 1.6 km/h
395 28-08-2020 08:50:00 16.1 C 12.75 g/m*3 16.1 C 4.8 km/h
396 28-08-2020 08:55:00 16.1 C 12.75 g/m*3 16.1 C 1.6 km/h
397 28-08-2020 09:00:00 16.2 C 12.82 g/m*3 16.2 C 3.2 km/h
398 28-08-2020 09:05:00 16.3 C 12.9 g/m*3 16.3 C 1.6 km/h
399 28-08-2020 09:10:00 16.4 C 12.84 g/m*3 16.4 C 4.8 km/h
400 28-08-2020 09:15:00 16.4 C 12.56 g/m*3 16.4 C 3.2 km/h
Sensor: Nr:Datum:Temp:Abs-Feuchte:Windchill:Wind:
Aussen-T/F 401 28-08-2020 09:20:00 16.6 C 12.71 g/m*3 16.6 C 3.2 km/h
402 28-08-2020 09:25:00 16.7 C 12.65 g/m*3 16.7 C 6.4 km/h
403 28-08-2020 09:30:00 16.9 C 12.8 g/m*3 16.9 C 0 km/h
404 28-08-2020 09:35:00 17 C 13.02 g/m*3 17 C 1.6 km/h
405 28-08-2020 09:40:00 17.1 C 12.66 g/m*3 17.1 C 8.1 km/h
406 28-08-2020 09:45:00 17.1 C 12.23 g/m*3 17.1 C 4.8 km/h
407 28-08-2020 09:50:00 17.3 C 12.67 g/m*3 17.3 C 0 km/h
408 28-08-2020 09:55:00 17.4 C 12.89 g/m*3 17.4 C 1.6 km/h
409 28-08-2020 10:00:00 17.6 C 12.9 g/m*3 17.6 C 0 km/h
410 28-08-2020 10:05:00 17.7 C 12.67 g/m*3 17.7 C 6.4 km/h
411 28-08-2020 10:10:00 17.8 C 12.29 g/m*3 17.8 C 9.7 km/h
412 28-08-2020 10:15:00 18 C 12.13 g/m*3 18 C 6.4 km/h
413 28-08-2020 10:20:00 18.3 C 12.35 g/m*3 18.3 C 8.1 km/h
414 28-08-2020 10:25:00 18.5 C 12.18 g/m*3 18.5 C 12.9 km/h
415 28-08-2020 10:30:00 18.7 C 12.01 g/m*3 18.7 C 8.1 km/h
416 28-08-2020 10:35:00 18.8 C 11.92 g/m*3 18.8 C 14.5 km/h
417 28-08-2020 10:40:00 19 C 12.06 g/m*3 19 C 11.3 km/h
418 28-08-2020 10:45:00 19.2 C 12.2 g/m*3 19.2 C 9.7 km/h
419 28-08-2020 10:50:00 19.3 C 11.94 g/m*3 19.3 C 9.7 km/h
420 28-08-2020 10:55:00 19.3 C 11.94 g/m*3 19.3 C 9.7 km/h
421 28-08-2020 11:00:00 19.4 C 12.01 g/m*3 19.4 C 8.1 km/h
422 28-08-2020 11:05:00 19.6 C 11.82 g/m*3 19.6 C 12.9 km/h
423 28-08-2020 11:10:00 19.7 C 11.89 g/m*3 19.7 C 11.3 km/h
424 28-08-2020 11:15:00 19.8 C 11.79 g/m*3 19.8 C 9.7 km/h
425 28-08-2020 11:20:00 19.7 C 11.72 g/m*3 19.7 C 12.9 km/h
Sensor: Nr:Datum:Temp:Abs-Feuchte:Windchill:Wind:
Aussen-T/F 426 28-08-2020 11:25:00 19.7 C 11.89 g/m*3 19.7 C 11.3 km/h
427 28-08-2020 11:30:00 19.8 C 11.96 g/m*3 19.8 C 11.3 km/h
428 28-08-2020 11:35:00 20 C 12.1 g/m*3 20 C 14.5 km/h
429 28-08-2020 11:40:00 20.2 C 11.89 g/m*3 20.2 C 16.1 km/h
430 28-08-2020 11:45:00 20.3 C 11.96 g/m*3 20.3 C 9.7 km/h
431 28-08-2020 11:50:00 20.6 C 11.81 g/m*3 20.6 C 12.9 km/h
432 28-08-2020 11:55:00 20.7 C 12.24 g/m*3 20.7 C 6.4 km/h
433 28-08-2020 12:00:00 20.8 C 12.13 g/m*3 20.8 C 8.1 km/h
434 28-08-2020 12:05:00 20.8 C 12.13 g/m*3 20.8 C 9.7 km/h
435 28-08-2020 12:10:00 20.9 C 11.84 g/m*3 20.9 C 9.7 km/h
436 28-08-2020 12:15:00 20.8 C 11.77 g/m*3 20.8 C 11.3 km/h
437 28-08-2020 12:20:00 20.7 C 11.7 g/m*3 20.7 C 9.7 km/h
438 28-08-2020 12:25:00 20.7 C 11.88 g/m*3 20.7 C 4.8 km/h
439 28-08-2020 12:30:00 20.7 C 12.06 g/m*3 20.7 C 8.1 km/h
440 28-08-2020 12:35:00 20.6 C 11.99 g/m*3 20.6 C 8.1 km/h
441 28-08-2020 12:40:00 20.4 C 11.68 g/m*3 20.4 C 9.7 km/h
442 28-08-2020 12:45:00 20.4 C 11.85 g/m*3 20.4 C 9.7 km/h
443 28-08-2020 12:50:00 20.4 C 11.85 g/m*3 20.4 C 8.1 km/h
444 28-08-2020 12:55:00 20.4 C 11.5 g/m*3 20.4 C 9.7 km/h
445 28-08-2020 13:00:00 20.4 C 11.5 g/m*3 20.4 C 9.7 km/h
446 28-08-2020 13:05:00 20.4 C 11.32 g/m*3 20.4 C 9.7 km/h
447 28-08-2020 13:10:00 20.5 C 11.39 g/m*3 20.5 C 9.7 km/h
448 28-08-2020 13:15:00 20.4 C 11.32 g/m*3 20.4 C 12.9 km/h
449 28-08-2020 13:20:00 20.4 C 11.5 g/m*3 20.4 C 12.9 km/h
450 28-08-2020 13:25:00 20.3 C 11.26 g/m*3 20.3 C 9.7 km/h
Sensor: Nr:Datum:Temp:Abs-Feuchte:Windchill:Wind:
Aussen-T/F 451 28-08-2020 13:30:00 20.3 C 11.43 g/m*3 20.3 C 14.5 km/h
452 28-08-2020 13:35:00 20.3 C 11.61 g/m*3 20.3 C 9.7 km/h
453 28-08-2020 13:40:00 20.4 C 11.68 g/m*3 20.4 C 8.1 km/h
454 28-08-2020 13:45:00 20.5 C 11.74 g/m*3 20.5 C 8.1 km/h
455 28-08-2020 13:50:00 20.5 C 11.92 g/m*3 20.5 C 11.3 km/h
456 28-08-2020 13:55:00 20.5 C 11.57 g/m*3 20.5 C 4.8 km/h
457 28-08-2020 14:00:00 20.6 C 11.63 g/m*3 20.6 C 6.4 km/h
458 28-08-2020 14:05:00 20.7 C 11.7 g/m*3 20.7 C 6.4 km/h
459 28-08-2020 14:10:00 20.7 C 11.52 g/m*3 20.7 C 6.4 km/h
460 28-08-2020 14:15:00 20.8 C 11.59 g/m*3 20.8 C 8.1 km/h
461 28-08-2020 14:20:00 20.8 C 11.59 g/m*3 20.8 C 6.4 km/h
462 28-08-2020 14:25:00 20.8 C 11.59 g/m*3 20.8 C 6.4 km/h
463 28-08-2020 14:30:00 20.9 C 11.84 g/m*3 20.9 C 6.4 km/h
464 28-08-2020 14:35:00 20.9 C 11.66 g/m*3 20.9 C 4.8 km/h
465 28-08-2020 14:40:00 21 C 11.72 g/m*3 21 C 3.2 km/h
466 28-08-2020 14:45:00 21.1 C 11.79 g/m*3 21.1 C 3.2 km/h
467 28-08-2020 14:50:00 21.1 C 11.98 g/m*3 21.1 C 8.1 km/h
468 28-08-2020 14:55:00 21.1 C 11.61 g/m*3 21.1 C 4.8 km/h
469 28-08-2020 15:00:00 21 C 12.09 g/m*3 21 C 4.8 km/h
470 28-08-2020 15:05:00 21.1 C 11.98 g/m*3 21.1 C 11.3 km/h
471 28-08-2020 15:10:00 21.2 C 11.68 g/m*3 21.2 C 1.6 km/h
472 28-08-2020 15:15:00 21.3 C 11.56 g/m*3 21.3 C 6.4 km/h
473 28-08-2020 15:20:00 21.3 C 11.74 g/m*3 21.3 C 3.2 km/h
474 28-08-2020 15:25:00 21.3 C 11.37 g/m*3 21.3 C 8.1 km/h
475 28-08-2020 15:30:00 21.4 C 11.81 g/m*3 21.4 C 4.8 km/h
Sensor: Nr:Datum:Temp:Abs-Feuchte:Windchill:Wind:
Aussen-T/F 476 28-08-2020 15:35:00 21.4 C 11.62 g/m*3 21.4 C 6.4 km/h
477 28-08-2020 15:40:00 21.6 C 11.57 g/m*3 21.6 C 6.4 km/h
478 28-08-2020 15:45:00 21.6 C 11.38 g/m*3 21.6 C 8.1 km/h
479 28-08-2020 15:50:00 21.7 C 11.83 g/m*3 21.7 C 6.4 km/h
480 28-08-2020 15:55:00 21.7 C 11.83 g/m*3 21.7 C 8.1 km/h
481 28-08-2020 16:00:00 21.5 C 11.69 g/m*3 21.5 C 8.1 km/h
482 28-08-2020 16:05:00 21.4 C 11.62 g/m*3 21.4 C 8.1 km/h
483 28-08-2020 16:10:00 21.4 C 11.81 g/m*3 21.4 C 6.4 km/h
484 28-08-2020 16:15:00 21.4 C 11.81 g/m*3 21.4 C 6.4 km/h
485 28-08-2020 16:20:00 21.6 C 11.95 g/m*3 21.6 C 6.4 km/h
486 28-08-2020 16:25:00 21.6 C 11.95 g/m*3 21.6 C 6.4 km/h
487 28-08-2020 16:30:00 21.6 C 12.14 g/m*3 21.6 C 11.3 km/h
488 28-08-2020 16:35:00 21.7 C 12.02 g/m*3 21.7 C 11.3 km/h
489 28-08-2020 16:40:00 21.8 C 11.7 g/m*3 21.8 C 14.5 km/h
490 28-08-2020 16:45:00 21.9 C 12.16 g/m*3 21.9 C 11.3 km/h
491 28-08-2020 16:50:00 22.3 C 12.05 g/m*3 22.3 C 11.3 km/h
492 28-08-2020 16:55:00 22.6 C 12.05 g/m*3 22.6 C 12.9 km/h
493 28-08-2020 17:00:00 22.7 C 11.92 g/m*3 22.7 C 16.1 km/h
494 28-08-2020 17:05:00 22.8 C 11.99 g/m*3 22.8 C 9.7 km/h
495 28-08-2020 17:10:00 22.6 C 11.45 g/m*3 22.6 C 16.1 km/h
496 28-08-2020 17:15:00 22.4 C 11.72 g/m*3 22.4 C 17.7 km/h
497 28-08-2020 17:20:00 22.4 C 11.72 g/m*3 22.4 C 11.3 km/h
498 28-08-2020 17:25:00 22.4 C 11.52 g/m*3 22.4 C 12.9 km/h
499 28-08-2020 17:30:00 22.4 C 11.52 g/m*3 22.4 C 12.9 km/h
500 28-08-2020 17:35:00 22.4 C 10.92 g/m*3 22.4 C 16.1 km/h
Sensor: Nr:Datum:Temp:Abs-Feuchte:Windchill:Wind:
Aussen-T/F 501 28-08-2020 17:40:00 22.3 C 11.06 g/m*3 22.3 C 9.7 km/h
502 28-08-2020 17:45:00 22.2 C 11.19 g/m*3 22.2 C 9.7 km/h
503 28-08-2020 17:50:00 22.2 C 11.19 g/m*3 22.2 C 9.7 km/h
504 28-08-2020 17:55:00 22.3 C 11.26 g/m*3 22.3 C 8.1 km/h
505 28-08-2020 18:00:00 22.6 C 11.25 g/m*3 22.6 C 9.7 km/h
506 28-08-2020 18:05:00 22.6 C 10.65 g/m*3 22.6 C 14.5 km/h
507 28-08-2020 18:10:00 22.3 C 10.47 g/m*3 22.3 C 14.5 km/h
508 28-08-2020 18:15:00 22 C 10.29 g/m*3 22 C 16.1 km/h
509 28-08-2020 18:20:00 21.7 C 10.3 g/m*3 21.7 C 19.3 km/h
510 28-08-2020 18:25:00 21.5 C 10.37 g/m*3 21.5 C 12.9 km/h
511 28-08-2020 18:30:00 21.3 C 10.25 g/m*3 21.3 C 9.7 km/h
512 28-08-2020 18:35:00 21.2 C 10.56 g/m*3 21.2 C 8.1 km/h
513 28-08-2020 18:40:00 21 C 10.26 g/m*3 21 C 4.8 km/h
514 28-08-2020 18:45:00 20.8 C 10.14 g/m*3 20.8 C 12.9 km/h
515 28-08-2020 18:50:00 20.7 C 10.26 g/m*3 20.7 C 6.4 km/h
516 28-08-2020 18:55:00 20.6 C 10.2 g/m*3 20.6 C 4.8 km/h
517 28-08-2020 19:00:00 20.4 C 9.91 g/m*3 20.4 C 6.4 km/h
518 28-08-2020 19:05:00 20.3 C 9.67 g/m*3 20.3 C 6.4 km/h
519 28-08-2020 19:10:00 20.3 C 9.67 g/m*3 20.3 C 8.1 km/h
520 28-08-2020 19:15:00 20.2 C 9.44 g/m*3 20.2 C 9.7 km/h
521 28-08-2020 19:20:00 20.2 C 9.62 g/m*3 20.2 C 3.2 km/h
522 28-08-2020 19:25:00 20.2 C 9.62 g/m*3 20.2 C 6.4 km/h
523 28-08-2020 19:30:00 20.3 C 9.85 g/m*3 20.3 C 9.7 km/h
524 28-08-2020 19:35:00 20.4 C 9.73 g/m*3 20.4 C 3.2 km/h
525 28-08-2020 19:40:00 20.5 C 9.61 g/m*3 20.5 C 4.8 km/h
Sensor: Nr:Datum:Temp:Abs-Feuchte:Windchill:Wind:
Aussen-T/F 526 28-08-2020 19:45:00 20.6 C 9.66 g/m*3 20.6 C 1.6 km/h
527 28-08-2020 19:50:00 20.6 C 10.02 g/m*3 20.6 C 0 km/h
528 28-08-2020 19:55:00 20.4 C 10.26 g/m*3 20.4 C 3.2 km/h
529 28-08-2020 20:00:00 20.2 C 10.14 g/m*3 20.2 C 9.7 km/h
530 28-08-2020 20:05:00 20 C 9.85 g/m*3 20 C 6.4 km/h
531 28-08-2020 20:10:00 19.8 C 10.25 g/m*3 19.8 C 4.8 km/h
532 28-08-2020 20:15:00 19.7 C 10.02 g/m*3 19.7 C 6.4 km/h
533 28-08-2020 20:20:00 19.6 C 10.47 g/m*3 19.6 C 0 km/h
534 28-08-2020 20:25:00 19.3 C 10.28 g/m*3 19.3 C 0 km/h
535 28-08-2020 20:30:00 19.2 C 9.89 g/m*3 19.2 C 19.3 km/h
536 28-08-2020 20:35:00 18.7 C 10.09 g/m*3 18.7 C 17.7 km/h
537 28-08-2020 20:40:00 18.1 C 10.2 g/m*3 18.1 C 14.5 km/h
538 28-08-2020 20:45:00 17.3 C 10.16 g/m*3 17.3 C 16.1 km/h
539 28-08-2020 20:50:00 16.7 C 10.37 g/m*3 16.7 C 9.7 km/h
540 28-08-2020 20:55:00 16.4 C 10.61 g/m*3 16.4 C 8.1 km/h
541 28-08-2020 21:00:00 16.1 C 10.69 g/m*3 16.1 C 11.3 km/h
542 28-08-2020 21:05:00 15.8 C 10.77 g/m*3 15.8 C 9.7 km/h
543 28-08-2020 21:10:00 15.5 C 10.71 g/m*3 15.5 C 8.1 km/h
544 28-08-2020 21:15:00 15.3 C 10.71 g/m*3 15.3 C 8.1 km/h
545 28-08-2020 21:20:00 15.1 C 10.71 g/m*3 15.1 C 9.7 km/h
546 28-08-2020 21:25:00 14.9 C 10.71 g/m*3 14.9 C 8.1 km/h
547 28-08-2020 21:30:00 14.8 C 10.77 g/m*3 14.8 C 3.2 km/h
548 28-08-2020 21:35:00 14.6 C 10.64 g/m*3 14.6 C 1.6 km/h
549 28-08-2020 21:40:00 14.5 C 10.57 g/m*3 14.5 C 3.2 km/h
550 28-08-2020 21:45:00 14.4 C 10.51 g/m*3 14.4 C 3.2 km/h
Sensor: Nr:Datum:Temp:Abs-Feuchte:Windchill:Wind:
Aussen-T/F 551 28-08-2020 21:50:00 14.4 C 10.51 g/m*3 14.4 C 3.2 km/h
552 28-08-2020 21:55:00 14.3 C 10.44 g/m*3 14.3 C 0 km/h
553 28-08-2020 22:00:00 14.1 C 10.44 g/m*3 14.1 C 1.6 km/h
554 28-08-2020 22:05:00 13.9 C 10.31 g/m*3 13.9 C 1.6 km/h
555 28-08-2020 22:10:00 13.8 C 10.37 g/m*3 13.8 C 4.8 km/h
556 28-08-2020 22:15:00 13.7 C 10.3 g/m*3 13.7 C 3.2 km/h
557 28-08-2020 22:20:00 13.6 C 10.36 g/m*3 13.6 C 4.8 km/h
558 28-08-2020 22:25:00 13.6 C 10.36 g/m*3 13.6 C 3.2 km/h
559 28-08-2020 22:30:00 13.6 C 10.36 g/m*3 13.6 C 3.2 km/h
560 28-08-2020 22:35:00 13.5 C 10.29 g/m*3 13.5 C 3.2 km/h
561 28-08-2020 22:40:00 13.5 C 10.29 g/m*3 13.5 C 1.6 km/h
562 28-08-2020 22:45:00 13.4 C 10.23 g/m*3 13.4 C 3.2 km/h
563 28-08-2020 22:50:00 13.4 C 10.23 g/m*3 13.4 C 4.8 km/h
564 28-08-2020 22:55:00 13.4 C 10.35 g/m*3 13.4 C 4.8 km/h
565 28-08-2020 23:00:00 13.4 C 10.35 g/m*3 13.4 C 0 km/h
566 28-08-2020 23:05:00 13.3 C 10.28 g/m*3 13.3 C 1.6 km/h
567 28-08-2020 23:10:00 13.3 C 10.28 g/m*3 13.3 C 1.6 km/h
568 28-08-2020 23:15:00 13.2 C 10.22 g/m*3 13.2 C 1.6 km/h
569 28-08-2020 23:20:00 13.1 C 10.16 g/m*3 13.1 C 3.2 km/h
570 28-08-2020 23:25:00 12.9 C 10.03 g/m*3 12.9 C 1.6 km/h
571 28-08-2020 23:30:00 12.8 C 9.97 g/m*3 12.8 C 0 km/h
572 28-08-2020 23:35:00 12.8 C 9.97 g/m*3 12.8 C 1.6 km/h
573 28-08-2020 23:40:00 12.7 C 10.02 g/m*3 12.7 C 1.6 km/h
574 28-08-2020 23:45:00 12.7 C 10.02 g/m*3 12.7 C 1.6 km/h
575 28-08-2020 23:50:00 12.6 C 9.96 g/m*3 12.6 C 1.6 km/h
Sensor: Nr:Datum:Temp:Abs-Feuchte:Windchill:Wind:
Aussen-T/F 576 28-08-2020 23:55:00 12.6 C 9.96 g/m*3 12.6 C 1.6 km/h
577 29-08-2020 00:00:00 12.6 C 9.96 g/m*3 12.6 C 1.6 km/h
578 29-08-2020 00:05:00 12.5 C 9.89 g/m*3 12.5 C 1.6 km/h
579 29-08-2020 00:10:00 12.4 C 9.83 g/m*3 12.4 C 1.6 km/h
580 29-08-2020 00:15:00 12.4 C 9.94 g/m*3 12.4 C 1.6 km/h
581 29-08-2020 00:20:00 12.4 C 9.94 g/m*3 12.4 C 1.6 km/h
582 29-08-2020 00:25:00 12.4 C 9.94 g/m*3 12.4 C 1.6 km/h
583 29-08-2020 00:30:00 12.4 C 9.94 g/m*3 12.4 C 1.6 km/h
584 29-08-2020 00:35:00 12.4 C 9.94 g/m*3 12.4 C 1.6 km/h
585 29-08-2020 00:40:00 12.4 C 10.05 g/m*3 12.4 C 1.6 km/h
586 29-08-2020 00:45:00 12.6 C 10.18 g/m*3 12.6 C 3.2 km/h
587 29-08-2020 00:50:00 12.6 C 10.18 g/m*3 12.6 C 0 km/h
588 29-08-2020 00:55:00 12.6 C 10.07 g/m*3 12.6 C 0 km/h
589 29-08-2020 01:00:00 12.5 C 10 g/m*3 12.5 C 4.8 km/h
590 29-08-2020 01:05:00 12.5 C 10.11 g/m*3 12.5 C 4.8 km/h
591 29-08-2020 01:10:00 12.5 C 10.11 g/m*3 12.5 C 1.6 km/h
592 29-08-2020 01:15:00 12.6 C 10.18 g/m*3 12.6 C 3.2 km/h
593 29-08-2020 01:20:00 12.6 C 10.07 g/m*3 12.6 C 1.6 km/h
594 29-08-2020 01:25:00 12.5 C 10 g/m*3 12.5 C 1.6 km/h
595 29-08-2020 01:30:00 12.4 C 9.94 g/m*3 12.4 C 6.4 km/h
596 29-08-2020 01:35:00 12.4 C 10.05 g/m*3 12.4 C 6.4 km/h
597 29-08-2020 01:40:00 12.4 C 10.05 g/m*3 12.4 C 1.6 km/h
598 29-08-2020 01:45:00 12.3 C 9.88 g/m*3 12.3 C 1.6 km/h
599 29-08-2020 01:50:00 12.2 C 9.82 g/m*3 12.2 C 1.6 km/h
600 29-08-2020 01:55:00 12.2 C 9.82 g/m*3 12.2 C 0 km/h
Sensor: Nr:Datum:Temp:Abs-Feuchte:Windchill:Wind:
Aussen-T/F 601 29-08-2020 02:00:00 12.1 C 9.76 g/m*3 12.1 C 1.6 km/h
602 29-08-2020 02:05:00 12.1 C 9.87 g/m*3 12.1 C 3.2 km/h
603 29-08-2020 02:10:00 12.1 C 9.87 g/m*3 12.1 C 4.8 km/h
604 29-08-2020 02:15:00 12.1 C 9.87 g/m*3 12.1 C 3.2 km/h
605 29-08-2020 02:20:00 12.1 C 9.87 g/m*3 12.1 C 1.6 km/h
606 29-08-2020 02:25:00 12.1 C 9.87 g/m*3 12.1 C 1.6 km/h
607 29-08-2020 02:30:00 12.1 C 9.87 g/m*3 12.1 C 1.6 km/h
608 29-08-2020 02:35:00 12.1 C 9.87 g/m*3 12.1 C 0 km/h
609 29-08-2020 02:40:00 12 C 9.8 g/m*3 12 C 0 km/h
610 29-08-2020 02:45:00 12 C 9.8 g/m*3 12 C 0 km/h
611 29-08-2020 02:50:00 11.9 C 9.74 g/m*3 11.9 C 0 km/h
612 29-08-2020 02:55:00 11.9 C 9.85 g/m*3 11.9 C 4.8 km/h
613 29-08-2020 03:00:00 11.9 C 9.85 g/m*3 11.9 C 3.2 km/h
614 29-08-2020 03:05:00 11.9 C 9.85 g/m*3 11.9 C 0 km/h
615 29-08-2020 03:10:00 11.9 C 9.85 g/m*3 11.9 C 0 km/h
616 29-08-2020 03:15:00 11.8 C 9.68 g/m*3 11.8 C 0 km/h
617 29-08-2020 03:20:00 11.7 C 9.62 g/m*3 11.7 C 6.4 km/h
618 29-08-2020 03:25:00 11.7 C 9.62 g/m*3 11.7 C 0 km/h
619 29-08-2020 03:30:00 11.6 C 9.56 g/m*3 11.6 C 0 km/h
620 29-08-2020 03:35:00 11.6 C 9.56 g/m*3 11.6 C 0 km/h
621 29-08-2020 03:40:00 11.5 C 9.5 g/m*3 11.5 C 1.6 km/h
622 29-08-2020 03:45:00 11.6 C 9.67 g/m*3 11.6 C 3.2 km/h
623 29-08-2020 03:50:00 11.7 C 9.73 g/m*3 11.7 C 3.2 km/h
624 29-08-2020 03:55:00 11.7 C 9.83 g/m*3 11.7 C 1.6 km/h
625 29-08-2020 04:00:00 11.8 C 9.89 g/m*3 11.8 C 0 km/h
Sensor: Nr:Datum:Temp:Abs-Feuchte:Windchill:Wind:
Aussen-T/F 626 29-08-2020 04:05:00 11.9 C 9.96 g/m*3 11.9 C 1.6 km/h
627 29-08-2020 04:10:00 11.9 C 9.85 g/m*3 11.9 C 0 km/h
628 29-08-2020 04:15:00 11.8 C 9.79 g/m*3 11.8 C 1.6 km/h
629 29-08-2020 04:20:00 11.8 C 9.79 g/m*3 11.8 C 3.2 km/h
630 29-08-2020 04:25:00 11.8 C 9.79 g/m*3 11.8 C 3.2 km/h
631 29-08-2020 04:30:00 11.8 C 9.79 g/m*3 11.8 C 3.2 km/h
632 29-08-2020 04:35:00 11.7 C 9.73 g/m*3 11.7 C 3.2 km/h
633 29-08-2020 04:40:00 11.7 C 9.73 g/m*3 11.7 C 3.2 km/h
634 29-08-2020 04:45:00 11.6 C 9.67 g/m*3 11.6 C 0 km/h
635 29-08-2020 04:50:00 11.5 C 9.61 g/m*3 11.5 C 3.2 km/h
636 29-08-2020 04:55:00 11.4 C 9.55 g/m*3 11.4 C 3.2 km/h
637 29-08-2020 05:00:00 11.3 C 9.49 g/m*3 11.3 C 3.2 km/h
638 29-08-2020 05:05:00 11.2 C 9.43 g/m*3 11.2 C 3.2 km/h
639 29-08-2020 05:10:00 11.2 C 9.43 g/m*3 11.2 C 3.2 km/h
640 29-08-2020 05:15:00 11.2 C 9.43 g/m*3 11.2 C 3.2 km/h
641 29-08-2020 05:20:00 11.2 C 9.43 g/m*3 11.2 C 3.2 km/h
642 29-08-2020 05:25:00 11.2 C 9.53 g/m*3 11.2 C 0 km/h
643 29-08-2020 05:30:00 11.2 C 9.53 g/m*3 11.2 C 0 km/h
644 29-08-2020 05:35:00 11.2 C 9.43 g/m*3 11.2 C 0 km/h
645 29-08-2020 05:40:00 11.1 C 9.37 g/m*3 11.1 C 0 km/h
646 29-08-2020 05:45:00 11.1 C 9.37 g/m*3 11.1 C 0 km/h
647 29-08-2020 05:50:00 11 C 9.31 g/m*3 11 C 0 km/h
648 29-08-2020 05:55:00 11 C 9.31 g/m*3 11 C 0 km/h
649 29-08-2020 06:00:00 10.9 C 9.35 g/m*3 10.9 C 0 km/h
650 29-08-2020 06:05:00 10.9 C 9.35 g/m*3 10.9 C 0 km/h
Sensor: Nr:Datum:Temp:Abs-Feuchte:Windchill:Wind:
Aussen-T/F 651 29-08-2020 06:10:00 10.9 C 9.35 g/m*3 10.9 C 0 km/h
652 29-08-2020 06:15:00 10.9 C 9.35 g/m*3 10.9 C 0 km/h
653 29-08-2020 06:20:00 10.9 C 9.35 g/m*3 10.9 C 0 km/h
654 29-08-2020 06:25:00 10.9 C 9.35 g/m*3 10.9 C 0 km/h
655 29-08-2020 06:30:00 10.9 C 9.35 g/m*3 10.9 C 0 km/h
656 29-08-2020 06:35:00 11 C 9.41 g/m*3 11 C 0 km/h
657 29-08-2020 06:40:00 11 C 9.41 g/m*3 11 C 0 km/h
658 29-08-2020 06:45:00 11.1 C 9.57 g/m*3 11.1 C 0 km/h
659 29-08-2020 06:50:00 11.1 C 9.57 g/m*3 11.1 C 0 km/h
660 29-08-2020 06:55:00 11.1 C 9.57 g/m*3 11.1 C 0 km/h
661 29-08-2020 07:00:00 11.1 C 9.57 g/m*3 11.1 C 3.2 km/h
662 29-08-2020 07:05:00 11.2 C 9.63 g/m*3 11.2 C 1.6 km/h
663 29-08-2020 07:10:00 11.2 C 9.63 g/m*3 11.2 C 0 km/h
664 29-08-2020 07:15:00 11.2 C 9.63 g/m*3 11.2 C 1.6 km/h
665 29-08-2020 07:20:00 11.2 C 9.63 g/m*3 11.2 C 3.2 km/h
666 29-08-2020 07:25:00 11.2 C 9.63 g/m*3 11.2 C 1.6 km/h
667 29-08-2020 07:30:00 11.3 C 9.69 g/m*3 11.3 C 4.8 km/h
668 29-08-2020 07:35:00 11.3 C 9.69 g/m*3 11.3 C 0 km/h
669 29-08-2020 07:40:00 11.3 C 9.69 g/m*3 11.3 C 0 km/h
670 29-08-2020 07:45:00 11.3 C 9.69 g/m*3 11.3 C 0 km/h
671 29-08-2020 07:50:00 11.4 C 9.75 g/m*3 11.4 C 1.6 km/h
672 29-08-2020 07:55:00 11.6 C 9.87 g/m*3 11.6 C 0 km/h
673 29-08-2020 08:00:00 11.7 C 9.94 g/m*3 11.7 C 3.2 km/h
674 29-08-2020 08:05:00 11.8 C 10 g/m*3 11.8 C 3.2 km/h
675 29-08-2020 08:10:00 11.8 C 10.1 g/m*3 11.8 C 0 km/h
Sensor: Nr:Datum:Temp:Abs-Feuchte:Windchill:Wind:
Aussen-T/F 676 29-08-2020 08:15:00 11.9 C 10.17 g/m*3 11.9 C 0 km/h
677 29-08-2020 08:20:00 12.1 C 10.29 g/m*3 12.1 C 0 km/h
678 29-08-2020 08:25:00 12.2 C 10.36 g/m*3 12.2 C 4.8 km/h
679 29-08-2020 08:30:00 12.3 C 10.42 g/m*3 12.3 C 1.6 km/h
680 29-08-2020 08:35:00 12.4 C 10.38 g/m*3 12.4 C 4.8 km/h
681 29-08-2020 08:40:00 12.6 C 10.51 g/m*3 12.6 C 4.8 km/h
682 29-08-2020 08:45:00 12.8 C 10.64 g/m*3 12.8 C 9.7 km/h
683 29-08-2020 08:50:00 12.9 C 10.59 g/m*3 12.9 C 6.4 km/h
684 29-08-2020 08:55:00 13.1 C 10.73 g/m*3 13.1 C 8.1 km/h
685 29-08-2020 09:00:00 13.3 C 10.74 g/m*3 13.3 C 14.5 km/h
686 29-08-2020 09:05:00 13.6 C 10.71 g/m*3 13.6 C 12.9 km/h
687 29-08-2020 09:10:00 13.9 C 10.67 g/m*3 13.9 C 8.1 km/h
688 29-08-2020 09:15:00 14.3 C 10.81 g/m*3 14.3 C 14.5 km/h
689 29-08-2020 09:20:00 14.6 C 10.89 g/m*3 14.6 C 9.7 km/h
690 29-08-2020 09:25:00 14.8 C 10.77 g/m*3 14.8 C 11.3 km/h
691 29-08-2020 09:30:00 15 C 10.77 g/m*3 15 C 4.8 km/h
692 29-08-2020 09:35:00 15.1 C 10.84 g/m*3 15.1 C 6.4 km/h
693 29-08-2020 09:40:00 15.2 C 10.77 g/m*3 15.2 C 9.7 km/h
694 29-08-2020 09:45:00 15.4 C 10.9 g/m*3 15.4 C 9.7 km/h
695 29-08-2020 09:50:00 15.7 C 10.84 g/m*3 15.7 C 12.9 km/h
696 29-08-2020 09:55:00 15.9 C 10.83 g/m*3 15.9 C 14.5 km/h
697 29-08-2020 10:00:00 16.1 C 10.83 g/m*3 16.1 C 16.1 km/h
698 29-08-2020 10:05:00 16.3 C 10.82 g/m*3 16.3 C 19.3 km/h
699 29-08-2020 10:10:00 16.3 C 10.82 g/m*3 16.3 C 14.5 km/h
700 29-08-2020 10:15:00 16.5 C 10.95 g/m*3 16.5 C 19.3 km/h
Sensor: Nr:Datum:Temp:Abs-Feuchte:Windchill:Wind:
Aussen-T/F 701 29-08-2020 10:20:00 16.6 C 10.88 g/m*3 16.6 C 16.1 km/h
702 29-08-2020 10:25:00 16.6 C 11.02 g/m*3 16.6 C 11.3 km/h
703 29-08-2020 10:30:00 16.6 C 11.02 g/m*3 16.6 C 9.7 km/h
704 29-08-2020 10:35:00 16.6 C 10.88 g/m*3 16.6 C 9.7 km/h
705 29-08-2020 10:40:00 16.7 C 11.08 g/m*3 16.7 C 11.3 km/h
706 29-08-2020 10:45:00 16.8 C 11.01 g/m*3 16.8 C 14.5 km/h
707 29-08-2020 10:50:00 17 C 11.14 g/m*3 17 C 12.9 km/h
708 29-08-2020 10:55:00 17.2 C 11.13 g/m*3 17.2 C 8.1 km/h
709 29-08-2020 11:00:00 17.3 C 11.2 g/m*3 17.3 C 12.9 km/h
710 29-08-2020 11:05:00 17.4 C 11.12 g/m*3 17.4 C 16.1 km/h
711 29-08-2020 11:10:00 17.6 C 11.1 g/m*3 17.6 C 17.7 km/h
712 29-08-2020 11:15:00 17.5 C 11.03 g/m*3 17.5 C 12.9 km/h
713 29-08-2020 11:20:00 17.5 C 11.03 g/m*3 17.5 C 14.5 km/h
714 29-08-2020 11:25:00 17.6 C 11.1 g/m*3 17.6 C 14.5 km/h
715 29-08-2020 11:30:00 17.7 C 11.01 g/m*3 17.7 C 11.3 km/h
716 29-08-2020 11:35:00 17.7 C 10.86 g/m*3 17.7 C 20.9 km/h
717 29-08-2020 11:40:00 17.8 C 11.08 g/m*3 17.8 C 19.3 km/h
718 29-08-2020 11:45:00 18 C 11.06 g/m*3 18 C 16.1 km/h
719 29-08-2020 11:50:00 18.3 C 11.1 g/m*3 18.3 C 14.5 km/h
720 29-08-2020 11:55:00 18.4 C 11.32 g/m*3 18.4 C 11.3 km/h
721 29-08-2020 12:00:00 18.7 C 11.21 g/m*3 18.7 C 19.3 km/h
722 29-08-2020 12:05:00 18.9 C 11.34 g/m*3 18.9 C 20.9 km/h
723 29-08-2020 12:10:00 18.9 C 11.18 g/m*3 18.9 C 16.1 km/h
724 29-08-2020 12:15:00 18.8 C 11.27 g/m*3 18.8 C 14.5 km/h
725 29-08-2020 12:20:00 18.6 C 10.82 g/m*3 18.6 C 12.9 km/h
Sensor: Nr:Datum:Temp:Abs-Feuchte:Windchill:Wind:
Aussen-T/F 726 29-08-2020 12:25:00 18.5 C 11.08 g/m*3 18.5 C 11.3 km/h
727 29-08-2020 12:30:00 18.6 C 10.98 g/m*3 18.6 C 14.5 km/h
728 29-08-2020 12:35:00 18.8 C 10.95 g/m*3 18.8 C 17.7 km/h
729 29-08-2020 12:40:00 18.9 C 10.69 g/m*3 18.9 C 19.3 km/h
730 29-08-2020 12:45:00 19 C 10.92 g/m*3 19 C 19.3 km/h
731 29-08-2020 12:50:00 19.1 C 11.15 g/m*3 19.1 C 14.5 km/h
732 29-08-2020 12:55:00 19.3 C 11.28 g/m*3 19.3 C 14.5 km/h
733 29-08-2020 13:00:00 19.3 C 11.11 g/m*3 19.3 C 17.7 km/h
734 29-08-2020 13:05:00 19.2 C 11.21 g/m*3 19.2 C 17.7 km/h
735 29-08-2020 13:10:00 19.1 C 11.15 g/m*3 19.1 C 16.1 km/h
736 29-08-2020 13:15:00 19.1 C 10.82 g/m*3 19.1 C 16.1 km/h
737 29-08-2020 13:20:00 19.2 C 10.88 g/m*3 19.2 C 12.9 km/h
738 29-08-2020 13:25:00 19.3 C 10.95 g/m*3 19.3 C 12.9 km/h
739 29-08-2020 13:30:00 19.4 C 11.01 g/m*3 19.4 C 14.5 km/h
740 29-08-2020 13:35:00 19.5 C 10.91 g/m*3 19.5 C 14.5 km/h
741 29-08-2020 13:40:00 19.4 C 10.84 g/m*3 19.4 C 16.1 km/h
742 29-08-2020 13:45:00 19.6 C 10.8 g/m*3 19.6 C 14.5 km/h
743 29-08-2020 13:50:00 19.6 C 10.8 g/m*3 19.6 C 6.4 km/h
744 29-08-2020 13:55:00 19.5 C 10.41 g/m*3 19.5 C 9.7 km/h
745 29-08-2020 14:00:00 19.6 C 10.8 g/m*3 19.6 C 11.3 km/h
746 29-08-2020 14:05:00 19.7 C 10.7 g/m*3 19.7 C 19.3 km/h
747 29-08-2020 14:10:00 19.9 C 10.48 g/m*3 19.9 C 16.1 km/h
748 29-08-2020 14:15:00 19.9 C 10.48 g/m*3 19.9 C 17.7 km/h
749 29-08-2020 14:20:00 20.1 C 10.78 g/m*3 20.1 C 14.5 km/h
750 29-08-2020 14:25:00 20.3 C 10.73 g/m*3 20.3 C 11.3 km/h
Sensor: Nr:Datum:Temp:Abs-Feuchte:Windchill:Wind:
Aussen-T/F 751 29-08-2020 14:30:00 20.4 C 10.79 g/m*3 20.4 C 14.5 km/h
752 29-08-2020 14:35:00 20.6 C 10.74 g/m*3 20.6 C 14.5 km/h
753 29-08-2020 14:40:00 20.7 C 10.8 g/m*3 20.7 C 11.3 km/h
754 29-08-2020 14:45:00 20.7 C 10.62 g/m*3 20.7 C 19.3 km/h
755 29-08-2020 14:50:00 20.7 C 10.62 g/m*3 20.7 C 16.1 km/h
756 29-08-2020 14:55:00 20.8 C 10.68 g/m*3 20.8 C 16.1 km/h
757 29-08-2020 15:00:00 20.9 C 10.75 g/m*3 20.9 C 12.9 km/h
758 29-08-2020 15:05:00 20.9 C 10.56 g/m*3 20.9 C 11.3 km/h
759 29-08-2020 15:10:00 21.1 C 10.69 g/m*3 21.1 C 12.9 km/h
760 29-08-2020 15:15:00 21.2 C 10.19 g/m*3 21.2 C 16.1 km/h
761 29-08-2020 15:20:00 21.3 C 10.25 g/m*3 21.3 C 11.3 km/h
762 29-08-2020 15:25:00 21.5 C 10.18 g/m*3 21.5 C 17.7 km/h
763 29-08-2020 15:30:00 21.6 C 10.24 g/m*3 21.6 C 11.3 km/h
764 29-08-2020 15:35:00 21.6 C 10.24 g/m*3 21.6 C 14.5 km/h
765 29-08-2020 15:40:00 21.4 C 10.31 g/m*3 21.4 C 11.3 km/h
766 29-08-2020 15:45:00 21.3 C 10.07 g/m*3 21.3 C 12.9 km/h
767 29-08-2020 15:50:00 21.4 C 10.12 g/m*3 21.4 C 14.5 km/h
768 29-08-2020 15:55:00 21.6 C 10.24 g/m*3 21.6 C 11.3 km/h
769 29-08-2020 16:00:00 21.9 C 10.61 g/m*3 21.9 C 11.3 km/h
770 29-08-2020 16:05:00 22.2 C 10.6 g/m*3 22.2 C 20.9 km/h
771 29-08-2020 16:10:00 22.2 C 10.6 g/m*3 22.2 C 11.3 km/h
772 29-08-2020 16:15:00 22.4 C 10.72 g/m*3 22.4 C 12.9 km/h
773 29-08-2020 16:20:00 22.6 C 10.45 g/m*3 22.6 C 14.5 km/h
774 29-08-2020 16:25:00 22.8 C 10.36 g/m*3 22.8 C 12.9 km/h
775 29-08-2020 16:30:00 23.1 C 10.13 g/m*3 23.1 C 9.7 km/h
Sensor: Nr:Datum:Temp:Abs-Feuchte:Windchill:Wind:
Aussen-T/F 776 29-08-2020 16:35:00 23 C 10.28 g/m*3 23 C 8.1 km/h
777 29-08-2020 16:40:00 22.8 C 10.16 g/m*3 22.8 C 6.4 km/h
778 29-08-2020 16:45:00 22.5 C 10.19 g/m*3 22.5 C 8.1 km/h
779 29-08-2020 16:50:00 22.3 C 10.07 g/m*3 22.3 C 1.6 km/h
780 29-08-2020 16:55:00 22.2 C 10.21 g/m*3 22.2 C 0 km/h
781 29-08-2020 17:00:00 22.3 C 10.27 g/m*3 22.3 C 12.9 km/h
782 29-08-2020 17:05:00 22.8 C 10.36 g/m*3 22.8 C 9.7 km/h
783 29-08-2020 17:10:00 23.3 C 10.66 g/m*3 23.3 C 9.7 km/h
784 29-08-2020 17:15:00 23.8 C 10.33 g/m*3 23.8 C 17.7 km/h
785 29-08-2020 17:20:00 23.7 C 10.27 g/m*3 23.7 C 12.9 km/h
786 29-08-2020 17:25:00 23.3 C 9.83 g/m*3 23.3 C 11.3 km/h
787 29-08-2020 17:30:00 22.7 C 10.1 g/m*3 22.7 C 14.5 km/h
788 29-08-2020 17:35:00 22.3 C 9.87 g/m*3 22.3 C 6.4 km/h
789 29-08-2020 17:40:00 22.3 C 10.07 g/m*3 22.3 C 9.7 km/h
790 29-08-2020 17:45:00 22.1 C 9.96 g/m*3 22.1 C 12.9 km/h
791 29-08-2020 17:50:00 22 C 10.29 g/m*3 22 C 12.9 km/h
792 29-08-2020 17:55:00 22.4 C 10.13 g/m*3 22.4 C 8.1 km/h
793 29-08-2020 18:00:00 22.8 C 10.16 g/m*3 22.8 C 11.3 km/h
794 29-08-2020 18:05:00 22.6 C 10.25 g/m*3 22.6 C 4.8 km/h
795 29-08-2020 18:10:00 22.3 C 10.27 g/m*3 22.3 C 0 km/h
796 29-08-2020 18:15:00 22.1 C 10.54 g/m*3 22.1 C 0 km/h
797 29-08-2020 18:20:00 21.7 C 10.3 g/m*3 21.7 C 1.6 km/h
798 29-08-2020 18:25:00 21.4 C 10.31 g/m*3 21.4 C 0 km/h
799 29-08-2020 18:30:00 21.4 C 10.69 g/m*3 21.4 C 0 km/h
800 29-08-2020 18:35:00 21.6 C 10.81 g/m*3 21.6 C 0 km/h
Sensor: Nr:Datum:Temp:Abs-Feuchte:Windchill:Wind:
Aussen-T/F 801 29-08-2020 18:40:00 21.6 C 11.19 g/m*3 21.6 C 0 km/h
802 29-08-2020 18:45:00 21.4 C 11.25 g/m*3 21.4 C 0 km/h
803 29-08-2020 18:50:00 21.6 C 11.57 g/m*3 21.6 C 0 km/h
804 29-08-2020 18:55:00 22.1 C 11.13 g/m*3 22.1 C 8.1 km/h
805 29-08-2020 19:00:00 22.6 C 10.45 g/m*3 22.6 C 3.2 km/h
806 29-08-2020 19:05:00 22.5 C 10.19 g/m*3 22.5 C 6.4 km/h
807 29-08-2020 19:10:00 22.4 C 10.33 g/m*3 22.4 C 6.4 km/h
808 29-08-2020 19:15:00 22.3 C 10.27 g/m*3 22.3 C 8.1 km/h
809 29-08-2020 19:20:00 22.1 C 10.74 g/m*3 22.1 C 3.2 km/h
810 29-08-2020 19:25:00 22.1 C 10.93 g/m*3 22.1 C 0 km/h
811 29-08-2020 19:30:00 22.1 C 11.13 g/m*3 22.1 C 0 km/h
812 29-08-2020 19:35:00 22.1 C 11.13 g/m*3 22.1 C 0 km/h
813 29-08-2020 19:40:00 21.8 C 10.94 g/m*3 21.8 C 1.6 km/h
814 29-08-2020 19:45:00 21.6 C 11.19 g/m*3 21.6 C 4.8 km/h
815 29-08-2020 19:50:00 21.4 C 11.25 g/m*3 21.4 C 3.2 km/h
816 29-08-2020 19:55:00 21.3 C 11.18 g/m*3 21.3 C 0 km/h
817 29-08-2020 20:00:00 21.2 C 11.3 g/m*3 21.2 C 0 km/h
818 29-08-2020 20:05:00 21 C 11.17 g/m*3 21 C 0 km/h
819 29-08-2020 20:10:00 20.7 C 10.98 g/m*3 20.7 C 0 km/h
820 29-08-2020 20:15:00 20.4 C 11.14 g/m*3 20.4 C 1.6 km/h
821 29-08-2020 20:20:00 20.1 C 11.13 g/m*3 20.1 C 6.4 km/h
822 29-08-2020 20:25:00 19.8 C 11.1 g/m*3 19.8 C 8.1 km/h
823 29-08-2020 20:30:00 19.7 C 11.04 g/m*3 19.7 C 6.4 km/h
824 29-08-2020 20:35:00 19.4 C 11.01 g/m*3 19.4 C 6.4 km/h
825 29-08-2020 20:40:00 19.3 C 11.11 g/m*3 19.3 C 3.2 km/h
Sensor: Nr:Datum:Temp:Abs-Feuchte:Windchill:Wind:
Aussen-T/F 826 29-08-2020 20:45:00 19.1 C 10.98 g/m*3 19.1 C 1.6 km/h
827 29-08-2020 20:50:00 19 C 11.08 g/m*3 19 C 3.2 km/h
828 29-08-2020 20:55:00 18.9 C 11.02 g/m*3 18.9 C 1.6 km/h
829 29-08-2020 21:00:00 18.8 C 11.11 g/m*3 18.8 C 1.6 km/h
830 29-08-2020 21:05:00 18.7 C 11.05 g/m*3 18.7 C 1.6 km/h
831 29-08-2020 21:10:00 18.7 C 11.05 g/m*3 18.7 C 6.4 km/h
832 29-08-2020 21:15:00 18.6 C 11.46 g/m*3 18.6 C 9.7 km/h
833 29-08-2020 21:20:00 18.2 C 11.35 g/m*3 18.2 C 11.3 km/h
834 29-08-2020 21:25:00 18.1 C 11.43 g/m*3 18.1 C 4.8 km/h
835 29-08-2020 21:30:00 17.8 C 11.84 g/m*3 17.8 C 9.7 km/h
836 29-08-2020 21:35:00 17.4 C 11.71 g/m*3 17.4 C 9.7 km/h
837 29-08-2020 21:40:00 17.1 C 11.65 g/m*3 17.1 C 8.1 km/h
838 29-08-2020 21:45:00 16.6 C 11.3 g/m*3 16.6 C 11.3 km/h
839 29-08-2020 21:50:00 16.2 C 11.31 g/m*3 16.2 C 11.3 km/h
840 29-08-2020 21:55:00 15.9 C 11.24 g/m*3 15.9 C 11.3 km/h
841 29-08-2020 22:00:00 15.7 C 11.24 g/m*3 15.7 C 8.1 km/h
842 29-08-2020 22:05:00 15.5 C 11.1 g/m*3 15.5 C 9.7 km/h
843 29-08-2020 22:10:00 15.3 C 11.1 g/m*3 15.3 C 8.1 km/h
844 29-08-2020 22:15:00 15.2 C 11.16 g/m*3 15.2 C 9.7 km/h
845 29-08-2020 22:20:00 15.1 C 11.22 g/m*3 15.1 C 1.6 km/h
846 29-08-2020 22:25:00 15 C 11.16 g/m*3 15 C 3.2 km/h
847 29-08-2020 22:30:00 14.8 C 11.15 g/m*3 14.8 C 4.8 km/h
848 29-08-2020 22:35:00 14.7 C 11.08 g/m*3 14.7 C 11.3 km/h
849 29-08-2020 22:40:00 14.4 C 10.88 g/m*3 14.4 C 9.7 km/h
850 29-08-2020 22:45:00 14.3 C 10.81 g/m*3 14.3 C 8.1 km/h
Sensor: Nr:Datum:Temp:Abs-Feuchte:Windchill:Wind:
Aussen-T/F 851 29-08-2020 22:50:00 14.1 C 10.68 g/m*3 14.1 C 6.4 km/h
852 29-08-2020 22:55:00 13.9 C 10.55 g/m*3 13.9 C 6.4 km/h
853 29-08-2020 23:00:00 13.7 C 10.54 g/m*3 13.7 C 6.4 km/h
854 29-08-2020 23:05:00 13.6 C 10.47 g/m*3 13.6 C 6.4 km/h
855 29-08-2020 23:10:00 13.4 C 10.46 g/m*3 13.4 C 4.8 km/h
856 29-08-2020 23:15:00 13.3 C 10.4 g/m*3 13.3 C 3.2 km/h
857 29-08-2020 23:20:00 13.3 C 10.51 g/m*3 13.3 C 1.6 km/h
858 29-08-2020 23:25:00 13.3 C 10.51 g/m*3 13.3 C 0 km/h
859 29-08-2020 23:30:00 13.3 C 10.51 g/m*3 13.3 C 3.2 km/h
860 29-08-2020 23:35:00 13.3 C 10.63 g/m*3 13.3 C 0 km/h
861 29-08-2020 23:40:00 13.3 C 10.63 g/m*3 13.3 C 4.8 km/h
862 29-08-2020 23:45:00 13.3 C 10.63 g/m*3 13.3 C 6.4 km/h
863 29-08-2020 23:50:00 13.3 C 10.63 g/m*3 13.3 C 4.8 km/h
864 29-08-2020 23:55:00 13.3 C 10.63 g/m*3 13.3 C 6.4 km/h
865 30-08-2020 00:00:00 13.3 C 10.63 g/m*3 13.3 C 6.4 km/h
866 30-08-2020 00:05:00 13.3 C 10.63 g/m*3 13.3 C 1.6 km/h
867 30-08-2020 00:10:00 13.2 C 10.56 g/m*3 13.2 C 0 km/h
868 30-08-2020 00:15:00 13.2 C 10.56 g/m*3 13.2 C 0 km/h
869 30-08-2020 00:20:00 13.1 C 10.5 g/m*3 13.1 C 0 km/h
870 30-08-2020 00:25:00 13.1 C 10.5 g/m*3 13.1 C 0 km/h
871 30-08-2020 00:30:00 13 C 10.43 g/m*3 13 C 0 km/h
872 30-08-2020 00:35:00 12.9 C 10.48 g/m*3 12.9 C 0 km/h
873 30-08-2020 00:40:00 12.8 C 10.42 g/m*3 12.8 C 0 km/h
874 30-08-2020 00:45:00 12.8 C 10.42 g/m*3 12.8 C 0 km/h
875 30-08-2020 00:50:00 12.8 C 10.42 g/m*3 12.8 C 0 km/h
Sensor: Nr:Datum:Temp:Abs-Feuchte:Windchill:Wind:
Aussen-T/F 876 30-08-2020 00:55:00 12.8 C 10.42 g/m*3 12.8 C 0 km/h
877 30-08-2020 01:00:00 12.8 C 10.42 g/m*3 12.8 C 0 km/h
878 30-08-2020 01:05:00 12.7 C 10.35 g/m*3 12.7 C 0 km/h
879 30-08-2020 01:10:00 12.6 C 10.29 g/m*3 12.6 C 0 km/h
880 30-08-2020 01:15:00 12.6 C 10.29 g/m*3 12.6 C 0 km/h
881 30-08-2020 01:20:00 12.4 C 10.16 g/m*3 12.4 C 0 km/h
882 30-08-2020 01:25:00 12.4 C 10.16 g/m*3 12.4 C 0 km/h
883 30-08-2020 01:30:00 12.3 C 10.1 g/m*3 12.3 C 0 km/h
884 30-08-2020 01:35:00 12.2 C 10.04 g/m*3 12.2 C 1.6 km/h
885 30-08-2020 01:40:00 12.1 C 9.97 g/m*3 12.1 C 1.6 km/h
886 30-08-2020 01:45:00 12 C 9.91 g/m*3 12 C 0 km/h
887 30-08-2020 01:50:00 11.9 C 9.96 g/m*3 11.9 C 0 km/h
888 30-08-2020 01:55:00 11.9 C 9.96 g/m*3 11.9 C 3.2 km/h
889 30-08-2020 02:00:00 11.8 C 9.89 g/m*3 11.8 C 0 km/h
890 30-08-2020 02:05:00 11.8 C 9.89 g/m*3 11.8 C 0 km/h
891 30-08-2020 02:10:00 11.7 C 9.83 g/m*3 11.7 C 0 km/h
892 30-08-2020 02:15:00 11.7 C 9.83 g/m*3 11.7 C 0 km/h
893 30-08-2020 02:20:00 11.7 C 9.83 g/m*3 11.7 C 0 km/h
894 30-08-2020 02:25:00 11.6 C 9.77 g/m*3 11.6 C 0 km/h
895 30-08-2020 02:30:00 11.6 C 9.77 g/m*3 11.6 C 0 km/h
896 30-08-2020 02:35:00 11.6 C 9.77 g/m*3 11.6 C 0 km/h
897 30-08-2020 02:40:00 11.5 C 9.71 g/m*3 11.5 C 0 km/h
898 30-08-2020 02:45:00 11.4 C 9.65 g/m*3 11.4 C 0 km/h
899 30-08-2020 02:50:00 11.3 C 9.59 g/m*3 11.3 C 0 km/h
900 30-08-2020 02:55:00 11.3 C 9.59 g/m*3 11.3 C 0 km/h
Sensor: Nr:Datum:Temp:Abs-Feuchte:Windchill:Wind:
Aussen-T/F 901 30-08-2020 03:00:00 11.2 C 9.53 g/m*3 11.2 C 0 km/h
902 30-08-2020 03:05:00 11.2 C 9.53 g/m*3 11.2 C 0 km/h
903 30-08-2020 03:10:00 11.2 C 9.53 g/m*3 11.2 C 0 km/h
904 30-08-2020 03:15:00 11.2 C 9.53 g/m*3 11.2 C 0 km/h
905 30-08-2020 03:20:00 11.1 C 9.47 g/m*3 11.1 C 0 km/h
906 30-08-2020 03:25:00 11.1 C 9.57 g/m*3 11.1 C 0 km/h
907 30-08-2020 03:30:00 11.1 C 9.57 g/m*3 11.1 C 0 km/h
908 30-08-2020 03:35:00 11.1 C 9.57 g/m*3 11.1 C 0 km/h
909 30-08-2020 03:40:00 11 C 9.51 g/m*3 11 C 0 km/h
910 30-08-2020 03:45:00 10.9 C 9.35 g/m*3 10.9 C 0 km/h
911 30-08-2020 03:50:00 10.9 C 9.35 g/m*3 10.9 C 0 km/h
912 30-08-2020 03:55:00 10.8 C 9.29 g/m*3 10.8 C 0 km/h
913 30-08-2020 04:00:00 10.8 C 9.39 g/m*3 10.8 C 0 km/h
914 30-08-2020 04:05:00 10.7 C 9.33 g/m*3 10.7 C 0 km/h
915 30-08-2020 04:10:00 10.7 C 9.33 g/m*3 10.7 C 0 km/h
916 30-08-2020 04:15:00 10.7 C 9.33 g/m*3 10.7 C 0 km/h
917 30-08-2020 04:20:00 10.6 C 9.27 g/m*3 10.6 C 0 km/h
918 30-08-2020 04:25:00 10.6 C 9.27 g/m*3 10.6 C 0 km/h
919 30-08-2020 04:30:00 10.6 C 9.27 g/m*3 10.6 C 0 km/h
920 30-08-2020 04:35:00 10.6 C 9.27 g/m*3 10.6 C 0 km/h
921 30-08-2020 04:40:00 10.7 C 9.33 g/m*3 10.7 C 0 km/h
922 30-08-2020 04:45:00 10.7 C 9.33 g/m*3 10.7 C 0 km/h
923 30-08-2020 04:50:00 10.7 C 9.33 g/m*3 10.7 C 0 km/h
924 30-08-2020 04:55:00 10.7 C 9.33 g/m*3 10.7 C 0 km/h
925 30-08-2020 05:00:00 10.8 C 9.49 g/m*3 10.8 C 0 km/h
Sensor: Nr:Datum:Temp:Abs-Feuchte:Windchill:Wind:
Aussen-T/F 926 30-08-2020 05:05:00 10.8 C 9.49 g/m*3 10.8 C 0 km/h
927 30-08-2020 05:10:00 10.9 C 9.55 g/m*3 10.9 C 0 km/h
928 30-08-2020 05:15:00 10.9 C 9.55 g/m*3 10.9 C 0 km/h
929 30-08-2020 05:20:00 11 C 9.61 g/m*3 11 C 0 km/h
930 30-08-2020 05:25:00 11 C 9.61 g/m*3 11 C 0 km/h
931 30-08-2020 05:30:00 11 C 9.61 g/m*3 11 C 0 km/h
932 30-08-2020 05:35:00 11 C 9.51 g/m*3 11 C 0 km/h
933 30-08-2020 05:40:00 10.9 C 9.55 g/m*3 10.9 C 0 km/h
934 30-08-2020 05:45:00 10.8 C 9.39 g/m*3 10.8 C 0 km/h
935 30-08-2020 05:50:00 10.7 C 9.33 g/m*3 10.7 C 0 km/h
936 30-08-2020 05:55:00 10.6 C 9.27 g/m*3 10.6 C 0 km/h
937 30-08-2020 06:00:00 10.6 C 9.27 g/m*3 10.6 C 0 km/h
938 30-08-2020 06:05:00 10.6 C 9.27 g/m*3 10.6 C 0 km/h
939 30-08-2020 06:10:00 10.6 C 9.37 g/m*3 10.6 C 0 km/h
940 30-08-2020 06:15:00 10.6 C 9.37 g/m*3 10.6 C 0 km/h
941 30-08-2020 06:20:00 10.6 C 9.37 g/m*3 10.6 C 0 km/h
942 30-08-2020 06:25:00 10.7 C 9.43 g/m*3 10.7 C 0 km/h
943 30-08-2020 06:30:00 10.7 C 9.43 g/m*3 10.7 C 0 km/h
944 30-08-2020 06:35:00 10.7 C 9.43 g/m*3 10.7 C 0 km/h
945 30-08-2020 06:40:00 10.7 C 9.43 g/m*3 10.7 C 0 km/h
946 30-08-2020 06:45:00 10.7 C 9.43 g/m*3 10.7 C 0 km/h
947 30-08-2020 06:50:00 10.7 C 9.43 g/m*3 10.7 C 0 km/h
948 30-08-2020 06:55:00 10.8 C 9.49 g/m*3 10.8 C 0 km/h
949 30-08-2020 07:00:00 10.8 C 9.49 g/m*3 10.29 C 6.4 km/h
950 30-08-2020 07:05:00 10.8 C 9.49 g/m*3 10.29 C 6.4 km/h
Sensor: Nr:Datum:Temp:Abs-Feuchte:Windchill:Wind:
Aussen-T/F 951 30-08-2020 07:10:00 10.9 C 9.55 g/m*3 10.9 C 0 km/h
952 30-08-2020 07:15:00 10.9 C 9.55 g/m*3 10.9 C 1.6 km/h
953 30-08-2020 07:20:00 11 C 9.61 g/m*3 11 C 0 km/h
954 30-08-2020 07:25:00 11.1 C 9.67 g/m*3 11.1 C 0 km/h
955 30-08-2020 07:30:00 11.1 C 9.67 g/m*3 11.1 C 0 km/h
956 30-08-2020 07:35:00 11.2 C 9.73 g/m*3 11.2 C 0 km/h
957 30-08-2020 07:40:00 11.2 C 9.73 g/m*3 11.2 C 0 km/h
958 30-08-2020 07:45:00 11.3 C 9.79 g/m*3 11.3 C 0 km/h
959 30-08-2020 07:50:00 11.4 C 9.85 g/m*3 11.4 C 0 km/h
960 30-08-2020 07:55:00 11.5 C 9.92 g/m*3 11.5 C 0 km/h
961 30-08-2020 08:00:00 11.6 C 9.98 g/m*3 11.6 C 1.6 km/h
962 30-08-2020 08:05:00 11.7 C 10.04 g/m*3 11.7 C 1.6 km/h
963 30-08-2020 08:10:00 11.7 C 10.04 g/m*3 11.7 C 0 km/h
964 30-08-2020 08:15:00 11.8 C 10.1 g/m*3 11.8 C 0 km/h
965 30-08-2020 08:20:00 11.8 C 10.1 g/m*3 11.8 C 0 km/h
966 30-08-2020 08:25:00 11.9 C 10.17 g/m*3 11.9 C 0 km/h
967 30-08-2020 08:30:00 11.9 C 10.17 g/m*3 11.9 C 0 km/h
968 30-08-2020 08:35:00 12 C 10.23 g/m*3 12 C 0 km/h
969 30-08-2020 08:40:00 12.1 C 10.29 g/m*3 12.1 C 0 km/h
970 30-08-2020 08:45:00 12.2 C 10.36 g/m*3 12.2 C 0 km/h
971 30-08-2020 08:50:00 12.3 C 10.42 g/m*3 12.3 C 0 km/h
972 30-08-2020 08:55:00 12.3 C 10.53 g/m*3 12.3 C 0 km/h
973 30-08-2020 09:00:00 12.4 C 10.6 g/m*3 12.4 C 0 km/h
974 30-08-2020 09:05:00 12.6 C 10.62 g/m*3 12.6 C 0 km/h
975 30-08-2020 09:10:00 12.8 C 10.87 g/m*3 12.8 C 0 km/h
Sensor: Nr:Datum:Temp:Abs-Feuchte:Windchill:Wind:
Aussen-T/F 976 30-08-2020 09:15:00 13 C 11 g/m*3 13 C 0 km/h
977 30-08-2020 09:20:00 13.1 C 11.07 g/m*3 13.1 C 0 km/h
978 30-08-2020 09:25:00 13.2 C 11.14 g/m*3 13.2 C 0 km/h
979 30-08-2020 09:30:00 13.2 C 11.02 g/m*3 13.2 C 0 km/h
980 30-08-2020 09:35:00 13.4 C 11.16 g/m*3 13.4 C 0 km/h
981 30-08-2020 09:40:00 13.4 C 11.16 g/m*3 13.4 C 0 km/h
982 30-08-2020 09:45:00 13.5 C 11.23 g/m*3 13.5 C 0 km/h
983 30-08-2020 09:50:00 13.6 C 11.18 g/m*3 13.6 C 1.6 km/h
984 30-08-2020 09:55:00 13.7 C 11.13 g/m*3 13.7 C 6.4 km/h
985 30-08-2020 10:00:00 13.8 C 11.2 g/m*3 13.8 C 6.4 km/h
986 30-08-2020 10:05:00 14 C 11.1 g/m*3 14 C 8.1 km/h
987 30-08-2020 10:10:00 14.3 C 11.3 g/m*3 14.3 C 6.4 km/h
988 30-08-2020 10:15:00 14.4 C 11.25 g/m*3 14.4 C 6.4 km/h
989 30-08-2020 10:20:00 14.6 C 11.14 g/m*3 14.6 C 4.8 km/h
990 30-08-2020 10:25:00 14.8 C 11.27 g/m*3 14.8 C 4.8 km/h
991 30-08-2020 10:30:00 14.9 C 11.22 g/m*3 14.9 C 6.4 km/h
992 30-08-2020 10:35:00 15.1 C 11.35 g/m*3 15.1 C 3.2 km/h
993 30-08-2020 10:40:00 15.2 C 11.42 g/m*3 15.2 C 4.8 km/h
994 30-08-2020 10:45:00 15.3 C 11.23 g/m*3 15.3 C 6.4 km/h
995 30-08-2020 10:50:00 15.4 C 11.17 g/m*3 15.4 C 11.3 km/h
996 30-08-2020 10:55:00 15.6 C 11.3 g/m*3 15.6 C 6.4 km/h
997 30-08-2020 11:00:00 15.7 C 11.24 g/m*3 15.7 C 4.8 km/h
998 30-08-2020 11:05:00 15.8 C 11.31 g/m*3 15.8 C 6.4 km/h
999 30-08-2020 11:10:00 15.9 C 11.38 g/m*3 15.9 C 8.1 km/h
1000 30-08-2020 11:15:00 16 C 11.44 g/m*3 16 C 1.6 km/h
Sensor: Nr:Datum:Temp:Abs-Feuchte:Windchill:Wind:
Aussen-T/F 1001 30-08-2020 11:20:00 16.1 C 11.38 g/m*3 16.1 C 6.4 km/h
1002 30-08-2020 11:25:00 16.2 C 11.45 g/m*3 16.2 C 9.7 km/h
1003 30-08-2020 11:30:00 16.3 C 11.52 g/m*3 16.3 C 6.4 km/h
1004 30-08-2020 11:35:00 16.4 C 11.45 g/m*3 16.4 C 6.4 km/h
1005 30-08-2020 11:40:00 16.4 C 11.45 g/m*3 16.4 C 9.7 km/h
1006 30-08-2020 11:45:00 16.5 C 11.51 g/m*3 16.5 C 6.4 km/h
1007 30-08-2020 11:50:00 16.6 C 11.44 g/m*3 16.6 C 6.4 km/h
1008 30-08-2020 11:55:00 16.6 C 11.44 g/m*3 16.6 C 6.4 km/h
1009 30-08-2020 12:00:00 16.7 C 11.51 g/m*3 16.7 C 4.8 km/h
1010 30-08-2020 12:05:00 16.7 C 11.51 g/m*3 16.7 C 8.1 km/h
1011 30-08-2020 12:10:00 16.8 C 11.58 g/m*3 16.8 C 6.4 km/h
1012 30-08-2020 12:15:00 16.8 C 11.44 g/m*3 16.8 C 9.7 km/h
1013 30-08-2020 12:20:00 16.8 C 11.58 g/m*3 16.8 C 8.1 km/h
1014 30-08-2020 12:25:00 16.9 C 11.51 g/m*3 16.9 C 9.7 km/h
1015 30-08-2020 12:30:00 17.1 C 11.65 g/m*3 17.1 C 11.3 km/h
1016 30-08-2020 12:35:00 17.2 C 11.57 g/m*3 17.2 C 9.7 km/h
1017 30-08-2020 12:40:00 17.2 C 11.42 g/m*3 17.2 C 6.4 km/h
1018 30-08-2020 12:45:00 17.3 C 11.49 g/m*3 17.3 C 11.3 km/h
1019 30-08-2020 12:50:00 17.4 C 11.56 g/m*3 17.4 C 3.2 km/h
1020 30-08-2020 12:55:00 17.5 C 11.63 g/m*3 17.5 C 8.1 km/h
1021 30-08-2020 13:00:00 17.6 C 11.7 g/m*3 17.6 C 8.1 km/h
1022 30-08-2020 13:05:00 17.6 C 11.7 g/m*3 17.6 C 3.2 km/h
1023 30-08-2020 13:10:00 17.7 C 11.62 g/m*3 17.7 C 4.8 km/h
1024 30-08-2020 13:15:00 17.9 C 11.76 g/m*3 17.9 C 3.2 km/h
1025 30-08-2020 13:20:00 18 C 11.83 g/m*3 18 C 8.1 km/h
Sensor: Nr:Datum:Temp:Abs-Feuchte:Windchill:Wind:
Aussen-T/F 1026 30-08-2020 13:25:00 18 C 11.67 g/m*3 18 C 6.4 km/h
1027 30-08-2020 13:30:00 18.1 C 11.59 g/m*3 18.1 C 4.8 km/h
1028 30-08-2020 13:35:00 18.1 C 11.59 g/m*3 18.1 C 6.4 km/h
1029 30-08-2020 13:40:00 18.2 C 11.5 g/m*3 18.2 C 6.4 km/h
1030 30-08-2020 13:45:00 18.2 C 11.5 g/m*3 18.2 C 4.8 km/h
1031 30-08-2020 13:50:00 18.4 C 11.64 g/m*3 18.4 C 8.1 km/h
1032 30-08-2020 13:55:00 18.4 C 11.48 g/m*3 18.4 C 8.1 km/h
1033 30-08-2020 14:00:00 18.5 C 11.55 g/m*3 18.5 C 4.8 km/h
1034 30-08-2020 14:05:00 18.6 C 11.46 g/m*3 18.6 C 8.1 km/h
1035 30-08-2020 14:10:00 18.6 C 11.46 g/m*3 18.6 C 4.8 km/h
1036 30-08-2020 14:15:00 18.7 C 11.53 g/m*3 18.7 C 0 km/h
1037 30-08-2020 14:20:00 18.8 C 11.6 g/m*3 18.8 C 8.1 km/h
1038 30-08-2020 14:25:00 18.9 C 11.34 g/m*3 18.9 C 8.1 km/h
1039 30-08-2020 14:30:00 18.8 C 11.27 g/m*3 18.8 C 6.4 km/h
1040 30-08-2020 14:35:00 18.8 C 11.27 g/m*3 18.8 C 6.4 km/h
1041 30-08-2020 14:40:00 18.9 C 11.34 g/m*3 18.9 C 6.4 km/h
1042 30-08-2020 14:45:00 19.1 C 11.47 g/m*3 19.1 C 6.4 km/h
1043 30-08-2020 14:50:00 19.2 C 11.87 g/m*3 19.2 C 6.4 km/h
1044 30-08-2020 14:55:00 19.3 C 11.78 g/m*3 19.3 C 3.2 km/h
1045 30-08-2020 15:00:00 19.4 C 11.51 g/m*3 19.4 C 9.7 km/h
1046 30-08-2020 15:05:00 19.4 C 11.51 g/m*3 19.4 C 6.4 km/h
1047 30-08-2020 15:10:00 19.5 C 11.41 g/m*3 19.5 C 8.1 km/h
1048 30-08-2020 15:15:00 19.5 C 11.24 g/m*3 19.5 C 8.1 km/h
1049 30-08-2020 15:20:00 19.6 C 11.14 g/m*3 19.6 C 8.1 km/h
1050 30-08-2020 15:25:00 19.6 C 11.48 g/m*3 19.6 C 3.2 km/h
Sensor: Nr:Datum:Temp:Abs-Feuchte:Windchill:Wind:
Aussen-T/F 1051 30-08-2020 15:30:00 19.7 C 11.38 g/m*3 19.7 C 4.8 km/h
1052 30-08-2020 15:35:00 19.8 C 10.76 g/m*3 19.8 C 11.3 km/h
1053 30-08-2020 15:40:00 20.1 C 10.6 g/m*3 20.1 C 9.7 km/h
1054 30-08-2020 15:45:00 20.3 C 10.9 g/m*3 20.3 C 6.4 km/h
1055 30-08-2020 15:50:00 20.7 C 11.16 g/m*3 20.7 C 6.4 km/h
1056 30-08-2020 15:55:00 21.1 C 11.24 g/m*3 21.1 C 6.4 km/h
1057 30-08-2020 16:00:00 21.2 C 10.93 g/m*3 21.2 C 11.3 km/h
1058 30-08-2020 16:05:00 21.4 C 11.25 g/m*3 21.4 C 6.4 km/h
1059 30-08-2020 16:10:00 21.4 C 10.69 g/m*3 21.4 C 9.7 km/h
1060 30-08-2020 16:15:00 21.4 C 10.5 g/m*3 21.4 C 9.7 km/h
1061 30-08-2020 16:20:00 21.4 C 10.5 g/m*3 21.4 C 9.7 km/h
1062 30-08-2020 16:25:00 21.4 C 10.31 g/m*3 21.4 C 8.1 km/h
1063 30-08-2020 16:30:00 21.3 C 10.44 g/m*3 21.3 C 8.1 km/h
1064 30-08-2020 16:35:00 21.3 C 10.07 g/m*3 21.3 C 8.1 km/h
1065 30-08-2020 16:40:00 21.2 C 10.38 g/m*3 21.2 C 9.7 km/h
1066 30-08-2020 16:45:00 21.2 C 10.38 g/m*3 21.2 C 4.8 km/h
1067 30-08-2020 16:50:00 21.3 C 10.62 g/m*3 21.3 C 4.8 km/h
1068 30-08-2020 16:55:00 21.4 C 10.5 g/m*3 21.4 C 6.4 km/h
1069 30-08-2020 17:00:00 21.5 C 10.37 g/m*3 21.5 C 8.1 km/h
1070 30-08-2020 17:05:00 21.4 C 10.12 g/m*3 21.4 C 11.3 km/h
1071 30-08-2020 17:10:00 21.3 C 10.25 g/m*3 21.3 C 6.4 km/h
1072 30-08-2020 17:15:00 21.3 C 10.25 g/m*3 21.3 C 9.7 km/h
1073 30-08-2020 17:20:00 21.3 C 10.44 g/m*3 21.3 C 4.8 km/h
1074 30-08-2020 17:25:00 21.3 C 10.25 g/m*3 21.3 C 9.7 km/h
1075 30-08-2020 17:30:00 21.5 C 10.37 g/m*3 21.5 C 4.8 km/h
Sensor: Nr:Datum:Temp:Abs-Feuchte:Windchill:Wind:
Aussen-T/F 1076 30-08-2020 17:35:00 21.7 C 10.68 g/m*3 21.7 C 6.4 km/h
1077 30-08-2020 17:40:00 21.8 C 10.36 g/m*3 21.8 C 8.1 km/h
1078 30-08-2020 17:45:00 22 C 10.48 g/m*3 22 C 9.7 km/h
1079 30-08-2020 17:50:00 22.2 C 10.41 g/m*3 22.2 C 6.4 km/h
1080 30-08-2020 17:55:00 22.2 C 10.01 g/m*3 22.2 C 8.1 km/h
1081 30-08-2020 18:00:00 22.1 C 10.35 g/m*3 22.1 C 6.4 km/h
1082 30-08-2020 18:05:00 21.9 C 9.65 g/m*3 21.9 C 9.7 km/h
1083 30-08-2020 18:10:00 21.8 C 9.78 g/m*3 21.8 C 4.8 km/h
1084 30-08-2020 18:15:00 21.7 C 9.73 g/m*3 21.7 C 0 km/h
1085 30-08-2020 18:20:00 21.7 C 10.11 g/m*3 21.7 C 8.1 km/h
1086 30-08-2020 18:25:00 21.6 C 9.86 g/m*3 21.6 C 4.8 km/h
1087 30-08-2020 18:30:00 21.6 C 9.86 g/m*3 21.6 C 4.8 km/h
1088 30-08-2020 18:35:00 21.6 C 9.86 g/m*3 21.6 C 3.2 km/h
1089 30-08-2020 18:40:00 21.5 C 10.18 g/m*3 21.5 C 3.2 km/h
1090 30-08-2020 18:45:00 21.4 C 9.94 g/m*3 21.4 C 0 km/h
1091 30-08-2020 18:50:00 21.3 C 9.88 g/m*3 21.3 C 8.1 km/h
1092 30-08-2020 18:55:00 21.2 C 9.82 g/m*3 21.2 C 12.9 km/h
1093 30-08-2020 19:00:00 21.2 C 9.82 g/m*3 21.2 C 6.4 km/h
1094 30-08-2020 19:05:00 21.1 C 9.95 g/m*3 21.1 C 8.1 km/h
1095 30-08-2020 19:10:00 20.9 C 10.02 g/m*3 20.9 C 8.1 km/h
1096 30-08-2020 19:15:00 20.9 C 10.38 g/m*3 20.9 C 0 km/h
1097 30-08-2020 19:20:00 20.8 C 10.14 g/m*3 20.8 C 3.2 km/h
1098 30-08-2020 19:25:00 20.8 C 10.68 g/m*3 20.8 C 0 km/h
1099 30-08-2020 19:30:00 20.7 C 10.08 g/m*3 20.7 C 0 km/h
1100 30-08-2020 19:35:00 20.6 C 10.92 g/m*3 20.6 C 0 km/h
Sensor: Nr:Datum:Temp:Abs-Feuchte:Windchill:Wind:
Aussen-T/F 1101 30-08-2020 19:40:00 20.4 C 10.61 g/m*3 20.4 C 0 km/h
1102 30-08-2020 19:45:00 20.3 C 10.55 g/m*3 20.3 C 0 km/h
1103 30-08-2020 19:50:00 20.1 C 10.95 g/m*3 20.1 C 0 km/h
1104 30-08-2020 19:55:00 19.8 C 10.42 g/m*3 19.8 C 0 km/h
1105 30-08-2020 20:00:00 19.6 C 10.8 g/m*3 19.6 C 0 km/h
1106 30-08-2020 20:05:00 19.3 C 10.62 g/m*3 19.3 C 0 km/h
1107 30-08-2020 20:10:00 19.1 C 10.33 g/m*3 19.1 C 0 km/h
1108 30-08-2020 20:15:00 18.9 C 10.69 g/m*3 18.9 C 0 km/h
1109 30-08-2020 20:20:00 18.8 C 10.79 g/m*3 18.8 C 0 km/h
1110 30-08-2020 20:25:00 18.6 C 10.66 g/m*3 18.6 C 0 km/h
1111 30-08-2020 20:30:00 18.4 C 10.7 g/m*3 18.4 C 0 km/h
1112 30-08-2020 20:35:00 18.4 C 10.7 g/m*3 18.4 C 12.9 km/h
1113 30-08-2020 20:40:00 18.7 C 10.89 g/m*3 18.7 C 9.7 km/h
1114 30-08-2020 20:45:00 18.9 C 11.02 g/m*3 18.9 C 6.4 km/h
1115 30-08-2020 20:50:00 19 C 11.24 g/m*3 19 C 9.7 km/h
1116 30-08-2020 20:55:00 19.1 C 11.31 g/m*3 19.1 C 3.2 km/h
1117 30-08-2020 21:00:00 19.1 C 11.31 g/m*3 19.1 C 4.8 km/h
1118 30-08-2020 21:05:00 19.1 C 11.47 g/m*3 19.1 C 9.7 km/h
1119 30-08-2020 21:10:00 19.1 C 11.47 g/m*3 19.1 C 8.1 km/h
1120 30-08-2020 21:15:00 19 C 11.41 g/m*3 19 C 6.4 km/h
1121 30-08-2020 21:20:00 19 C 11.57 g/m*3 19 C 4.8 km/h
1122 30-08-2020 21:25:00 18.9 C 11.5 g/m*3 18.9 C 4.8 km/h
1123 30-08-2020 21:30:00 18.9 C 11.5 g/m*3 18.9 C 4.8 km/h
1124 30-08-2020 21:35:00 18.8 C 11.43 g/m*3 18.8 C 4.8 km/h
1125 30-08-2020 21:40:00 18.8 C 11.6 g/m*3 18.8 C 0 km/h
Sensor: Nr:Datum:Temp:Abs-Feuchte:Windchill:Wind:
Aussen-T/F 1126 30-08-2020 21:45:00 18.7 C 11.69 g/m*3 18.7 C 0 km/h
1127 30-08-2020 21:50:00 18.6 C 11.62 g/m*3 18.6 C 0 km/h
1128 30-08-2020 21:55:00 18.5 C 11.71 g/m*3 18.5 C 0 km/h
1129 30-08-2020 22:00:00 18.3 C 11.57 g/m*3 18.3 C 0 km/h
1130 30-08-2020 22:05:00 18.2 C 11.66 g/m*3 18.2 C 0 km/h
1131 30-08-2020 22:10:00 18.1 C 11.59 g/m*3 18.1 C 0 km/h
1132 30-08-2020 22:15:00 17.9 C 11.45 g/m*3 17.9 C 0 km/h
1133 30-08-2020 22:20:00 17.8 C 11.54 g/m*3 17.8 C 0 km/h
1134 30-08-2020 22:25:00 17.7 C 11.62 g/m*3 17.7 C 0 km/h
1135 30-08-2020 22:30:00 17.6 C 11.55 g/m*3 17.6 C 0 km/h
1136 30-08-2020 22:35:00 17.4 C 11.41 g/m*3 17.4 C 0 km/h
1137 30-08-2020 22:40:00 17.3 C 11.49 g/m*3 17.3 C 0 km/h
1138 30-08-2020 22:45:00 17.3 C 11.49 g/m*3 17.3 C 0 km/h
1139 30-08-2020 22:50:00 17.2 C 11.42 g/m*3 17.2 C 0 km/h
1140 30-08-2020 22:55:00 17.1 C 11.5 g/m*3 17.1 C 0 km/h
1141 30-08-2020 23:00:00 17 C 11.43 g/m*3 17 C 0 km/h
1142 30-08-2020 23:05:00 16.9 C 11.36 g/m*3 16.9 C 0 km/h
1143 30-08-2020 23:10:00 16.8 C 11.29 g/m*3 16.8 C 0 km/h
1144 30-08-2020 23:15:00 16.8 C 11.44 g/m*3 16.8 C 0 km/h
1145 30-08-2020 23:20:00 16.7 C 11.37 g/m*3 16.7 C 0 km/h
1146 30-08-2020 23:25:00 16.7 C 11.37 g/m*3 16.7 C 0 km/h
1147 30-08-2020 23:30:00 16.7 C 11.37 g/m*3 16.7 C 0 km/h
1148 30-08-2020 23:35:00 16.6 C 11.3 g/m*3 16.6 C 0 km/h
1149 30-08-2020 23:40:00 16.6 C 11.3 g/m*3 16.6 C 0 km/h
1150 30-08-2020 23:45:00 16.6 C 11.3 g/m*3 16.6 C 0 km/h
Sensor: Nr:Datum:Temp:Abs-Feuchte:Windchill:Wind:
Aussen-T/F 1151 30-08-2020 23:50:00 16.5 C 11.23 g/m*3 16.5 C 0 km/h
1152 30-08-2020 23:55:00 16.4 C 11.31 g/m*3 16.4 C 0 km/h
1153 31-08-2020 00:00:00 16.4 C 11.31 g/m*3 16.4 C 0 km/h
1154 31-08-2020 00:05:00 16.3 C 11.24 g/m*3 16.3 C 0 km/h
1155 31-08-2020 00:10:00 16.2 C 11.17 g/m*3 16.2 C 0 km/h
1156 31-08-2020 00:15:00 16.2 C 11.31 g/m*3 16.2 C 0 km/h
1157 31-08-2020 00:20:00 16.1 C 11.24 g/m*3 16.1 C 0 km/h
1158 31-08-2020 00:25:00 16.1 C 11.24 g/m*3 16.1 C 0 km/h
1159 31-08-2020 00:30:00 16.1 C 11.24 g/m*3 16.1 C 0 km/h
1160 31-08-2020 00:35:00 16 C 11.17 g/m*3 16 C 0 km/h
1161 31-08-2020 00:40:00 15.9 C 11.24 g/m*3 15.9 C 0 km/h
1162 31-08-2020 00:45:00 15.9 C 11.24 g/m*3 15.9 C 0 km/h
1163 31-08-2020 00:50:00 15.8 C 11.17 g/m*3 15.8 C 0 km/h
1164 31-08-2020 00:55:00 15.8 C 11.17 g/m*3 15.8 C 0 km/h
1165 31-08-2020 01:00:00 15.7 C 11.24 g/m*3 15.7 C 0 km/h
1166 31-08-2020 01:05:00 15.7 C 11.24 g/m*3 15.7 C 0 km/h
1167 31-08-2020 01:10:00 15.7 C 11.37 g/m*3 15.7 C 0 km/h
1168 31-08-2020 01:15:00 15.7 C 11.37 g/m*3 15.7 C 0 km/h
1169 31-08-2020 01:20:00 15.7 C 11.37 g/m*3 15.7 C 0 km/h
1170 31-08-2020 01:25:00 15.7 C 11.37 g/m*3 15.7 C 0 km/h
1171 31-08-2020 01:30:00 15.7 C 11.51 g/m*3 15.7 C 0 km/h
1172 31-08-2020 01:35:00 15.8 C 11.44 g/m*3 15.8 C 0 km/h
1173 31-08-2020 01:40:00 15.8 C 11.44 g/m*3 15.8 C 0 km/h
1174 31-08-2020 01:45:00 15.7 C 11.37 g/m*3 15.7 C 0 km/h
1175 31-08-2020 01:50:00 15.7 C 11.37 g/m*3 15.7 C 0 km/h
Sensor: Nr:Datum:Temp:Abs-Feuchte:Windchill:Wind:
Aussen-T/F 1176 31-08-2020 01:55:00 15.6 C 11.3 g/m*3 15.6 C 0 km/h
1177 31-08-2020 02:00:00 15.6 C 11.3 g/m*3 15.6 C 0 km/h
1178 31-08-2020 02:05:00 15.4 C 11.17 g/m*3 15.4 C 0 km/h
1179 31-08-2020 02:10:00 15.4 C 11.3 g/m*3 15.4 C 0 km/h
1180 31-08-2020 02:15:00 15.4 C 11.3 g/m*3 15.4 C 0 km/h
1181 31-08-2020 02:20:00 15.4 C 11.3 g/m*3 15.4 C 0 km/h
1182 31-08-2020 02:25:00 15.4 C 11.43 g/m*3 15.4 C 0 km/h
1183 31-08-2020 02:30:00 15.4 C 11.43 g/m*3 15.4 C 0 km/h
1184 31-08-2020 02:35:00 15.4 C 11.43 g/m*3 15.4 C 0 km/h
1185 31-08-2020 02:40:00 15.5 C 11.5 g/m*3 15.5 C 0 km/h
1186 31-08-2020 02:45:00 15.5 C 11.5 g/m*3 15.5 C 0 km/h
1187 31-08-2020 02:50:00 15.6 C 11.57 g/m*3 15.6 C 0 km/h
1188 31-08-2020 02:55:00 15.6 C 11.57 g/m*3 15.6 C 0 km/h
1189 31-08-2020 03:00:00 15.5 C 11.37 g/m*3 15.5 C 0 km/h
1190 31-08-2020 03:05:00 15.4 C 11.3 g/m*3 15.4 C 0 km/h
1191 31-08-2020 03:10:00 15.3 C 11.23 g/m*3 15.3 C 0 km/h
1192 31-08-2020 03:15:00 15.2 C 11.03 g/m*3 15.2 C 0 km/h
1193 31-08-2020 03:20:00 15 C 10.9 g/m*3 15 C 0 km/h
1194 31-08-2020 03:25:00 14.8 C 10.89 g/m*3 14.8 C 0 km/h
1195 31-08-2020 03:30:00 14.5 C 10.7 g/m*3 14.5 C 0 km/h
1196 31-08-2020 03:35:00 14.3 C 10.57 g/m*3 14.3 C 0 km/h
1197 31-08-2020 03:40:00 14.2 C 10.62 g/m*3 14.2 C 0 km/h
1198 31-08-2020 03:45:00 14 C 10.61 g/m*3 14 C 0 km/h
1199 31-08-2020 03:50:00 13.9 C 10.55 g/m*3 13.9 C 0 km/h
1200 31-08-2020 03:55:00 13.8 C 10.48 g/m*3 13.8 C 0 km/h
Sensor: Nr:Datum:Temp:Abs-Feuchte:Windchill:Wind:
Aussen-T/F 1201 31-08-2020 04:00:00 13.8 C 10.6 g/m*3 13.8 C 0 km/h
1202 31-08-2020 04:05:00 13.8 C 10.6 g/m*3 13.8 C 0 km/h
1203 31-08-2020 04:10:00 13.8 C 10.72 g/m*3 13.8 C 0 km/h
1204 31-08-2020 04:15:00 13.8 C 10.72 g/m*3 13.8 C 0 km/h
1205 31-08-2020 04:20:00 13.8 C 10.72 g/m*3 13.8 C 0 km/h
1206 31-08-2020 04:25:00 13.8 C 10.72 g/m*3 13.8 C 0 km/h
1207 31-08-2020 04:30:00 13.8 C 10.72 g/m*3 13.8 C 0 km/h
1208 31-08-2020 04:35:00 13.7 C 10.54 g/m*3 13.7 C 0 km/h
1209 31-08-2020 04:40:00 13.7 C 10.54 g/m*3 13.7 C 0 km/h
1210 31-08-2020 04:45:00 13.6 C 10.47 g/m*3 13.6 C 0 km/h
1211 31-08-2020 04:50:00 13.6 C 10.59 g/m*3 13.6 C 0 km/h
1212 31-08-2020 04:55:00 13.5 C 10.53 g/m*3 13.5 C 0 km/h
1213 31-08-2020 05:00:00 13.4 C 10.46 g/m*3 13.4 C 0 km/h
1214 31-08-2020 05:05:00 13.4 C 10.46 g/m*3 13.4 C 0 km/h
1215 31-08-2020 05:10:00 13.3 C 10.4 g/m*3 13.3 C 0 km/h
1216 31-08-2020 05:15:00 13.2 C 10.33 g/m*3 13.2 C 0 km/h
1217 31-08-2020 05:20:00 13.2 C 10.33 g/m*3 13.2 C 0 km/h
1218 31-08-2020 05:25:00 13.1 C 10.38 g/m*3 13.1 C 0 km/h
1219 31-08-2020 05:30:00 13.2 C 10.45 g/m*3 13.2 C 0 km/h
1220 31-08-2020 05:35:00 13.1 C 10.38 g/m*3 13.1 C 0 km/h
1221 31-08-2020 05:40:00 13.1 C 10.38 g/m*3 13.1 C 0 km/h
1222 31-08-2020 05:45:00 13.1 C 10.38 g/m*3 13.1 C 0 km/h
1223 31-08-2020 05:50:00 12.9 C 10.26 g/m*3 12.9 C 0 km/h
1224 31-08-2020 05:55:00 12.9 C 10.26 g/m*3 12.9 C 3.2 km/h
1225 31-08-2020 06:00:00 12.9 C 10.37 g/m*3 12.9 C 3.2 km/h
Sensor: Nr:Datum:Temp:Abs-Feuchte:Windchill:Wind:
Aussen-T/F 1226 31-08-2020 06:05:00 12.8 C 10.3 g/m*3 12.8 C 1.6 km/h
1227 31-08-2020 06:10:00 12.8 C 10.3 g/m*3 12.8 C 0 km/h
1228 31-08-2020 06:15:00 12.8 C 10.3 g/m*3 12.8 C 0 km/h
1229 31-08-2020 06:20:00 12.7 C 10.24 g/m*3 12.7 C 0 km/h
1230 31-08-2020 06:25:00 12.6 C 10.18 g/m*3 12.6 C 0 km/h
1231 31-08-2020 06:30:00 12.6 C 10.18 g/m*3 12.6 C 0 km/h
1232 31-08-2020 06:35:00 12.6 C 10.18 g/m*3 12.6 C 0 km/h
1233 31-08-2020 06:40:00 12.6 C 10.29 g/m*3 12.6 C 0 km/h
1234 31-08-2020 06:45:00 12.7 C 10.35 g/m*3 12.7 C 0 km/h
1235 31-08-2020 06:50:00 12.7 C 10.35 g/m*3 12.7 C 0 km/h
1236 31-08-2020 06:55:00 12.7 C 10.35 g/m*3 12.7 C 0 km/h
1237 31-08-2020 07:00:00 12.8 C 10.42 g/m*3 12.8 C 0 km/h
1238 31-08-2020 07:05:00 12.8 C 10.42 g/m*3 12.8 C 0 km/h
1239 31-08-2020 07:10:00 12.9 C 10.48 g/m*3 12.9 C 0 km/h
1240 31-08-2020 07:15:00 13 C 10.66 g/m*3 13 C 0 km/h
1241 31-08-2020 07:20:00 13.1 C 10.73 g/m*3 13.1 C 0 km/h
1242 31-08-2020 07:25:00 13.2 C 10.79 g/m*3 13.2 C 0 km/h
1243 31-08-2020 07:30:00 13.3 C 10.74 g/m*3 13.3 C 0 km/h
1244 31-08-2020 07:35:00 13.3 C 10.86 g/m*3 13.3 C 0 km/h
1245 31-08-2020 07:40:00 13.4 C 10.81 g/m*3 13.4 C 0 km/h
1246 31-08-2020 07:45:00 13.4 C 10.81 g/m*3 13.4 C 0 km/h
1247 31-08-2020 07:50:00 13.5 C 10.88 g/m*3 13.5 C 0 km/h
1248 31-08-2020 07:55:00 13.6 C 10.95 g/m*3 13.6 C 0 km/h
1249 31-08-2020 08:00:00 13.7 C 11.01 g/m*3 13.7 C 0 km/h
1250 31-08-2020 08:05:00 13.8 C 11.08 g/m*3 13.8 C 0 km/h
Sensor: Nr:Datum:Temp:Abs-Feuchte:Windchill:Wind:
Aussen-T/F 1251 31-08-2020 08:10:00 13.8 C 11.08 g/m*3 13.8 C 0 km/h
1252 31-08-2020 08:15:00 13.9 C 11.15 g/m*3 13.9 C 0 km/h
1253 31-08-2020 08:20:00 14 C 11.22 g/m*3 14 C 0 km/h
1254 31-08-2020 08:25:00 14.1 C 11.17 g/m*3 14.1 C 0 km/h
1255 31-08-2020 08:30:00 14.3 C 11.3 g/m*3 14.3 C 0 km/h
1256 31-08-2020 08:35:00 14.4 C 11.37 g/m*3 14.4 C 0 km/h
1257 31-08-2020 08:40:00 14.5 C 11.44 g/m*3 14.5 C 0 km/h
1258 31-08-2020 08:45:00 14.7 C 11.46 g/m*3 14.7 C 0 km/h
1259 31-08-2020 08:50:00 14.8 C 11.4 g/m*3 14.8 C 0 km/h
1260 31-08-2020 08:55:00 14.9 C 11.47 g/m*3 14.9 C 0 km/h
1261 31-08-2020 09:00:00 15 C 11.54 g/m*3 15 C 0 km/h
1262 31-08-2020 09:05:00 15.1 C 11.48 g/m*3 15.1 C 0 km/h
1263 31-08-2020 09:10:00 15.2 C 11.55 g/m*3 15.2 C 0 km/h
1264 31-08-2020 09:15:00 15.3 C 11.62 g/m*3 15.3 C 0 km/h
1265 31-08-2020 09:20:00 15.4 C 11.69 g/m*3 15.4 C 0 km/h
1266 31-08-2020 09:25:00 15.4 C 11.69 g/m*3 15.4 C 0 km/h
1267 31-08-2020 09:30:00 15.6 C 11.84 g/m*3 15.6 C 0 km/h
1268 31-08-2020 09:35:00 15.7 C 11.77 g/m*3 15.7 C 0 km/h
1269 31-08-2020 09:40:00 15.8 C 11.85 g/m*3 15.8 C 1.6 km/h
1270 31-08-2020 09:45:00 15.9 C 11.92 g/m*3 15.9 C 1.6 km/h
1271 31-08-2020 09:50:00 16 C 11.99 g/m*3 16 C 0 km/h
1272 31-08-2020 09:55:00 16.2 C 12 g/m*3 16.2 C 1.6 km/h
1273 31-08-2020 10:00:00 16.2 C 12 g/m*3 16.2 C 3.2 km/h
1274 31-08-2020 10:05:00 16.3 C 12.07 g/m*3 16.3 C 0 km/h
1275 31-08-2020 10:10:00 16.4 C 12 g/m*3 16.4 C 0 km/h
Sensor: Nr:Datum:Temp:Abs-Feuchte:Windchill:Wind:
Aussen-T/F 1276 31-08-2020 10:15:00 16.4 C 12 g/m*3 16.4 C 3.2 km/h
1277 31-08-2020 10:20:00 16.5 C 12.08 g/m*3 16.5 C 0 km/h
1278 31-08-2020 10:25:00 16.6 C 12.15 g/m*3 16.6 C 1.6 km/h
1279 31-08-2020 10:30:00 16.6 C 12.01 g/m*3 16.6 C 9.7 km/h
1280 31-08-2020 10:35:00 16.7 C 12.08 g/m*3 16.7 C 9.7 km/h
1281 31-08-2020 10:40:00 16.8 C 12.01 g/m*3 16.8 C 6.4 km/h
1282 31-08-2020 10:45:00 16.8 C 12.01 g/m*3 16.8 C 9.7 km/h
1283 31-08-2020 10:50:00 16.9 C 12.08 g/m*3 16.9 C 6.4 km/h
1284 31-08-2020 10:55:00 17 C 12.01 g/m*3 17 C 6.4 km/h
1285 31-08-2020 11:00:00 17.1 C 12.08 g/m*3 17.1 C 6.4 km/h
1286 31-08-2020 11:05:00 17.2 C 12.01 g/m*3 17.2 C 6.4 km/h
1287 31-08-2020 11:10:00 17.3 C 12.08 g/m*3 17.3 C 4.8 km/h
1288 31-08-2020 11:15:00 17.4 C 12 g/m*3 17.4 C 9.7 km/h
1289 31-08-2020 11:20:00 17.4 C 12.15 g/m*3 17.4 C 6.4 km/h
1290 31-08-2020 11:25:00 17.6 C 12 g/m*3 17.6 C 4.8 km/h
1291 31-08-2020 11:30:00 17.7 C 12.07 g/m*3 17.7 C 9.7 km/h
1292 31-08-2020 11:35:00 17.7 C 12.07 g/m*3 17.7 C 4.8 km/h
1293 31-08-2020 11:40:00 17.9 C 12.06 g/m*3 17.9 C 6.4 km/h
1294 31-08-2020 11:45:00 18.1 C 12.36 g/m*3 18.1 C 4.8 km/h
1295 31-08-2020 11:50:00 18.4 C 12.58 g/m*3 18.4 C 3.2 km/h
1296 31-08-2020 11:55:00 18.7 C 12.49 g/m*3 18.7 C 9.7 km/h
1297 31-08-2020 12:00:00 18.8 C 12.56 g/m*3 18.8 C 4.8 km/h
1298 31-08-2020 12:05:00 18.9 C 12.8 g/m*3 18.9 C 6.4 km/h
1299 31-08-2020 12:10:00 18.9 C 12.64 g/m*3 18.9 C 6.4 km/h
1300 31-08-2020 12:15:00 18.9 C 12.8 g/m*3 18.9 C 9.7 km/h
Sensor: Nr:Datum:Temp:Abs-Feuchte:Windchill:Wind:
Aussen-T/F 1301 31-08-2020 12:20:00 18.8 C 12.56 g/m*3 18.8 C 8.1 km/h
1302 31-08-2020 12:25:00 18.8 C 12.56 g/m*3 18.8 C 8.1 km/h
1303 31-08-2020 12:30:00 18.8 C 12.56 g/m*3 18.8 C 4.8 km/h
1304 31-08-2020 12:35:00 19 C 12.71 g/m*3 19 C 6.4 km/h
1305 31-08-2020 12:40:00 19.2 C 12.7 g/m*3 19.2 C 8.1 km/h
1306 31-08-2020 12:45:00 19.2 C 12.53 g/m*3 19.2 C 9.7 km/h
1307 31-08-2020 12:50:00 19.1 C 12.46 g/m*3 19.1 C 4.8 km/h
1308 31-08-2020 12:55:00 19.1 C 12.46 g/m*3 19.1 C 6.4 km/h
1309 31-08-2020 13:00:00 19.1 C 12.62 g/m*3 19.1 C 6.4 km/h
1310 31-08-2020 13:05:00 19.3 C 12.77 g/m*3 19.3 C 6.4 km/h
1311 31-08-2020 13:10:00 19.4 C 12.68 g/m*3 19.4 C 4.8 km/h
1312 31-08-2020 13:15:00 19.6 C 12.83 g/m*3 19.6 C 4.8 km/h
1313 31-08-2020 13:20:00 19.7 C 12.91 g/m*3 19.7 C 6.4 km/h
1314 31-08-2020 13:25:00 19.7 C 12.74 g/m*3 19.7 C 8.1 km/h
1315 31-08-2020 13:30:00 19.7 C 12.57 g/m*3 19.7 C 11.3 km/h
1316 31-08-2020 13:35:00 19.7 C 12.57 g/m*3 19.7 C 6.4 km/h
1317 31-08-2020 13:40:00 19.6 C 12.66 g/m*3 19.6 C 6.4 km/h
1318 31-08-2020 13:45:00 19.6 C 12.66 g/m*3 19.6 C 6.4 km/h
1319 31-08-2020 13:50:00 19.6 C 12.66 g/m*3 19.6 C 8.1 km/h
1320 31-08-2020 13:55:00 19.6 C 12.49 g/m*3 19.6 C 4.8 km/h
1321 31-08-2020 14:00:00 19.6 C 12.66 g/m*3 19.6 C 4.8 km/h
1322 31-08-2020 14:05:00 19.7 C 12.74 g/m*3 19.7 C 11.3 km/h
1323 31-08-2020 14:10:00 19.7 C 12.74 g/m*3 19.7 C 11.3 km/h
1324 31-08-2020 14:15:00 19.4 C 12.35 g/m*3 19.4 C 14.5 km/h
1325 31-08-2020 14:20:00 19.1 C 12.62 g/m*3 19.1 C 14.5 km/h
Sensor: Nr:Datum:Temp:Abs-Feuchte:Windchill:Wind:
Aussen-T/F 1326 31-08-2020 14:25:00 18.6 C 13.05 g/m*3 18.6 C 8.1 km/h
1327 31-08-2020 14:30:00 18.2 C 13.06 g/m*3 18.2 C 4.8 km/h
1328 31-08-2020 14:35:00 17.9 C 12.98 g/m*3 17.9 C 1.6 km/h
1329 31-08-2020 14:40:00 17.6 C 13.05 g/m*3 17.6 C 6.4 km/h
1330 31-08-2020 14:45:00 17.2 C 12.89 g/m*3 17.2 C 4.8 km/h
1331 31-08-2020 14:50:00 16.9 C 12.8 g/m*3 16.9 C 4.8 km/h
1332 31-08-2020 14:55:00 16.7 C 12.65 g/m*3 16.7 C 4.8 km/h
1333 31-08-2020 15:00:00 16.6 C 12.71 g/m*3 16.6 C 3.2 km/h
1334 31-08-2020 15:05:00 16.4 C 12.56 g/m*3 16.4 C 1.6 km/h
1335 31-08-2020 15:10:00 16.3 C 12.62 g/m*3 16.3 C 3.2 km/h
1336 31-08-2020 15:15:00 16.2 C 12.55 g/m*3 16.2 C 1.6 km/h
1337 31-08-2020 15:20:00 16.2 C 12.55 g/m*3 16.2 C 1.6 km/h
1338 31-08-2020 15:25:00 16.3 C 12.76 g/m*3 16.3 C 0 km/h
1339 31-08-2020 15:30:00 16.3 C 12.76 g/m*3 16.3 C 0 km/h
1340 31-08-2020 15:35:00 16.3 C 12.9 g/m*3 16.3 C 1.6 km/h
1341 31-08-2020 15:40:00 16.4 C 12.98 g/m*3 16.4 C 0 km/h
1342 31-08-2020 15:45:00 16.4 C 12.84 g/m*3 16.4 C 1.6 km/h
1343 31-08-2020 15:50:00 16.3 C 12.76 g/m*3 16.3 C 0 km/h
1344 31-08-2020 15:55:00 16.5 C 13.06 g/m*3 16.5 C 0 km/h
1345 31-08-2020 16:00:00 16.6 C 13.14 g/m*3 16.6 C 0 km/h
1346 31-08-2020 16:05:00 16.6 C 13.14 g/m*3 16.6 C 0 km/h
1347 31-08-2020 16:10:00 16.5 C 12.92 g/m*3 16.5 C 0 km/h
1348 31-08-2020 16:15:00 16.6 C 13.14 g/m*3 16.6 C 0 km/h
1349 31-08-2020 16:20:00 16.8 C 13.3 g/m*3 16.8 C 0 km/h
1350 31-08-2020 16:25:00 16.9 C 13.38 g/m*3 16.9 C 0 km/h
Sensor: Nr:Datum:Temp:Abs-Feuchte:Windchill:Wind:
Aussen-T/F 1351 31-08-2020 16:30:00 16.9 C 13.23 g/m*3 16.9 C 0 km/h
1352 31-08-2020 16:35:00 16.8 C 13.15 g/m*3 16.8 C 0 km/h
1353 31-08-2020 16:40:00 16.8 C 13.15 g/m*3 16.8 C 0 km/h
1354 31-08-2020 16:45:00 16.8 C 13.15 g/m*3 16.8 C 0 km/h
1355 31-08-2020 16:50:00 16.8 C 13.15 g/m*3 16.8 C 0 km/h
1356 31-08-2020 16:55:00 16.8 C 13.15 g/m*3 16.8 C 0 km/h
1357 31-08-2020 17:00:00 16.8 C 13.15 g/m*3 16.8 C 0 km/h
1358 31-08-2020 17:05:00 16.7 C 13.07 g/m*3 16.7 C 0 km/h
1359 31-08-2020 17:10:00 16.6 C 13 g/m*3 16.6 C 0 km/h
1360 31-08-2020 17:15:00 16.5 C 12.92 g/m*3 16.5 C 0 km/h
1361 31-08-2020 17:20:00 16.4 C 12.84 g/m*3 16.4 C 0 km/h
1362 31-08-2020 17:25:00 16.3 C 12.76 g/m*3 16.3 C 0 km/h
1363 31-08-2020 17:30:00 16.3 C 12.9 g/m*3 16.3 C 0 km/h
1364 31-08-2020 17:35:00 16.2 C 12.82 g/m*3 16.2 C 0 km/h
1365 31-08-2020 17:40:00 16.3 C 12.9 g/m*3 16.3 C 0 km/h
1366 31-08-2020 17:45:00 16.3 C 12.9 g/m*3 16.3 C 1.6 km/h
1367 31-08-2020 17:50:00 16.2 C 12.82 g/m*3 16.2 C 3.2 km/h
1368 31-08-2020 17:55:00 16.2 C 12.82 g/m*3 16.2 C 0 km/h
1369 31-08-2020 18:00:00 16.2 C 12.82 g/m*3 16.2 C 0 km/h
1370 31-08-2020 18:05:00 16.1 C 12.88 g/m*3 16.1 C 0 km/h
1371 31-08-2020 18:10:00 16.1 C 12.75 g/m*3 16.1 C 1.6 km/h
1372 31-08-2020 18:15:00 16 C 12.81 g/m*3 16 C 0 km/h
1373 31-08-2020 18:20:00 16 C 12.81 g/m*3 16 C 0 km/h
1374 31-08-2020 18:25:00 16 C 12.81 g/m*3 16 C 1.6 km/h
1375 31-08-2020 18:30:00 16 C 12.81 g/m*3 16 C 1.6 km/h
Sensor: Nr:Datum:Temp:Abs-Feuchte:Windchill:Wind:
Aussen-T/F 1376 31-08-2020 18:35:00 16 C 12.81 g/m*3 16 C 1.6 km/h
1377 31-08-2020 18:40:00 16 C 12.81 g/m*3 16 C 0 km/h
1378 31-08-2020 18:45:00 16 C 12.67 g/m*3 16 C 1.6 km/h
1379 31-08-2020 18:50:00 15.9 C 12.59 g/m*3 15.9 C 0 km/h
1380 31-08-2020 18:55:00 16 C 12.81 g/m*3 16 C 0 km/h
1381 31-08-2020 19:00:00 16 C 12.81 g/m*3 16 C 1.6 km/h
1382 31-08-2020 19:05:00 16 C 12.81 g/m*3 16 C 0 km/h
1383 31-08-2020 19:10:00 16 C 12.81 g/m*3 16 C 1.6 km/h
1384 31-08-2020 19:15:00 15.9 C 12.73 g/m*3 15.9 C 4.8 km/h
1385 31-08-2020 19:20:00 15.8 C 12.52 g/m*3 15.8 C 4.8 km/h
1386 31-08-2020 19:25:00 15.7 C 12.44 g/m*3 15.7 C 3.2 km/h
1387 31-08-2020 19:30:00 15.5 C 12.29 g/m*3 15.5 C 3.2 km/h
1388 31-08-2020 19:35:00 15.4 C 12.22 g/m*3 15.4 C 0 km/h
1389 31-08-2020 19:40:00 15.3 C 12.14 g/m*3 15.3 C 3.2 km/h
1390 31-08-2020 19:45:00 15.2 C 12.2 g/m*3 15.2 C 3.2 km/h
1391 31-08-2020 19:50:00 15.2 C 12.2 g/m*3 15.2 C 1.6 km/h
1392 31-08-2020 19:55:00 15.2 C 12.2 g/m*3 15.2 C 0 km/h
1393 31-08-2020 20:00:00 15.2 C 12.2 g/m*3 15.2 C 1.6 km/h
1394 31-08-2020 20:05:00 15.2 C 12.2 g/m*3 15.2 C 3.2 km/h
1395 31-08-2020 20:10:00 15.1 C 12.13 g/m*3 15.1 C 3.2 km/h
1396 31-08-2020 20:15:00 15.1 C 12.13 g/m*3 15.1 C 1.6 km/h
1397 31-08-2020 20:20:00 14.9 C 11.98 g/m*3 14.9 C 3.2 km/h
1398 31-08-2020 20:25:00 14.9 C 11.98 g/m*3 14.9 C 3.2 km/h
1399 31-08-2020 20:30:00 14.8 C 11.91 g/m*3 14.8 C 4.8 km/h
1400 31-08-2020 20:35:00 14.8 C 11.91 g/m*3 14.8 C 1.6 km/h
Sensor: Nr:Datum:Temp:Abs-Feuchte:Windchill:Wind:
Aussen-T/F 1401 31-08-2020 20:40:00 14.8 C 11.91 g/m*3 14.8 C 1.6 km/h
1402 31-08-2020 20:45:00 14.8 C 11.91 g/m*3 14.8 C 0 km/h
1403 31-08-2020 20:50:00 14.7 C 11.83 g/m*3 14.7 C 1.6 km/h
1404 31-08-2020 20:55:00 14.7 C 11.96 g/m*3 14.7 C 0 km/h
1405 31-08-2020 21:00:00 14.7 C 11.96 g/m*3 14.7 C 0 km/h
1406 31-08-2020 21:05:00 14.7 C 11.96 g/m*3 14.7 C 0 km/h
1407 31-08-2020 21:10:00 14.7 C 11.96 g/m*3 14.7 C 1.6 km/h
1408 31-08-2020 21:15:00 14.7 C 11.96 g/m*3 14.7 C 0 km/h
1409 31-08-2020 21:20:00 14.6 C 11.89 g/m*3 14.6 C 0 km/h
1410 31-08-2020 21:25:00 14.6 C 11.89 g/m*3 14.6 C 0 km/h
1411 31-08-2020 21:30:00 14.6 C 11.89 g/m*3 14.6 C 1.6 km/h
1412 31-08-2020 21:35:00 14.5 C 11.82 g/m*3 14.5 C 0 km/h
1413 31-08-2020 21:40:00 14.5 C 11.82 g/m*3 14.5 C 0 km/h
1414 31-08-2020 21:45:00 14.4 C 11.74 g/m*3 14.4 C 0 km/h
1415 31-08-2020 21:50:00 14.4 C 11.74 g/m*3 14.4 C 1.6 km/h
1416 31-08-2020 21:55:00 14.4 C 11.74 g/m*3 14.4 C 3.2 km/h
1417 31-08-2020 22:00:00 14.4 C 11.74 g/m*3 14.4 C 3.2 km/h
1418 31-08-2020 22:05:00 14.5 C 11.82 g/m*3 14.5 C 0 km/h
1419 31-08-2020 22:10:00 14.5 C 11.82 g/m*3 14.5 C 0 km/h
1420 31-08-2020 22:15:00 14.6 C 11.89 g/m*3 14.6 C 0 km/h
1421 31-08-2020 22:20:00 14.6 C 11.89 g/m*3 14.6 C 0 km/h
1422 31-08-2020 22:25:00 14.6 C 11.89 g/m*3 14.6 C 0 km/h
1423 31-08-2020 22:30:00 14.6 C 11.89 g/m*3 14.6 C 0 km/h
1424 31-08-2020 22:35:00 14.5 C 11.82 g/m*3 14.5 C 0 km/h
1425 31-08-2020 22:40:00 14.4 C 11.74 g/m*3 14.4 C 0 km/h
Sensor: Nr:Datum:Temp:Abs-Feuchte:Windchill:Wind:
Aussen-T/F 1426 31-08-2020 22:45:00 14.4 C 11.87 g/m*3 14.4 C 1.6 km/h
1427 31-08-2020 22:50:00 14.4 C 11.87 g/m*3 14.4 C 0 km/h
1428 31-08-2020 22:55:00 14.4 C 11.87 g/m*3 14.4 C 0 km/h
1429 31-08-2020 23:00:00 14.4 C 11.87 g/m*3 14.4 C 0 km/h
1430 31-08-2020 23:05:00 14.5 C 11.94 g/m*3 14.5 C 0 km/h
1431 31-08-2020 23:10:00 14.6 C 12.01 g/m*3 14.6 C 1.6 km/h
1432 31-08-2020 23:15:00 14.6 C 12.01 g/m*3 14.6 C 0 km/h
1433 31-08-2020 23:20:00 14.6 C 12.01 g/m*3 14.6 C 0 km/h
1434 31-08-2020 23:25:00 14.5 C 11.94 g/m*3 14.5 C 0 km/h
1435 31-08-2020 23:30:00 14.5 C 11.94 g/m*3 14.5 C 0 km/h
1436 31-08-2020 23:35:00 14.4 C 11.87 g/m*3 14.4 C 0 km/h
1437 31-08-2020 23:40:00 14.4 C 11.87 g/m*3 14.4 C 1.6 km/h
1438 31-08-2020 23:45:00 14.4 C 11.87 g/m*3 14.4 C 1.6 km/h
1439 31-08-2020 23:50:00 14.3 C 11.79 g/m*3 14.3 C 1.6 km/h
1440 31-08-2020 23:55:00 14.3 C 11.79 g/m*3 14.3 C 0 km/h
1441 01-09-2020 00:00:00 14.3 C 11.79 g/m*3 14.3 C 0 km/h
1442 01-09-2020 00:05:00 14.2 C 11.72 g/m*3 14.2 C 0 km/h
1443 01-09-2020 00:10:00 14.2 C 11.72 g/m*3 14.2 C 0 km/h
1444 01-09-2020 00:15:00 14.2 C 11.72 g/m*3 14.2 C 0 km/h
1445 01-09-2020 00:20:00 14.2 C 11.72 g/m*3 14.2 C 1.6 km/h
1446 01-09-2020 00:25:00 14.1 C 11.65 g/m*3 14.1 C 1.6 km/h
1447 01-09-2020 00:30:00 14.1 C 11.65 g/m*3 14.1 C 0 km/h
1448 01-09-2020 00:35:00 14.1 C 11.65 g/m*3 14.1 C 0 km/h
1449 01-09-2020 00:40:00 14.1 C 11.65 g/m*3 14.1 C 0 km/h
1450 01-09-2020 00:45:00 14.1 C 11.65 g/m*3 14.1 C 0 km/h
Sensor: Nr:Datum:Temp:Abs-Feuchte:Windchill:Wind:
Aussen-T/F 1451 01-09-2020 00:50:00 14.1 C 11.65 g/m*3 14.1 C 0 km/h
1452 01-09-2020 00:55:00 14.1 C 11.65 g/m*3 14.1 C 0 km/h
1453 01-09-2020 01:00:00 14.1 C 11.65 g/m*3 14.1 C 0 km/h
1454 01-09-2020 01:05:00 14.1 C 11.65 g/m*3 14.1 C 0 km/h
1455 01-09-2020 01:10:00 14.1 C 11.65 g/m*3 14.1 C 0 km/h
1456 01-09-2020 01:15:00 14.1 C 11.65 g/m*3 14.1 C 0 km/h
1457 01-09-2020 01:20:00 14.1 C 11.65 g/m*3 14.1 C 0 km/h
1458 01-09-2020 01:25:00 14.1 C 11.65 g/m*3 14.1 C 0 km/h
1459 01-09-2020 01:30:00 14.1 C 11.65 g/m*3 14.1 C 0 km/h
1460 01-09-2020 01:35:00 14.1 C 11.65 g/m*3 14.1 C 0 km/h
1461 01-09-2020 01:40:00 14.1 C 11.65 g/m*3 14.1 C 0 km/h
1462 01-09-2020 01:45:00 14 C 11.58 g/m*3 14 C 0 km/h
1463 01-09-2020 01:50:00 14 C 11.58 g/m*3 14 C 0 km/h
1464 01-09-2020 01:55:00 13.9 C 11.51 g/m*3 13.9 C 0 km/h
1465 01-09-2020 02:00:00 13.9 C 11.51 g/m*3 13.9 C 0 km/h
1466 01-09-2020 02:05:00 13.9 C 11.51 g/m*3 13.9 C 0 km/h
1467 01-09-2020 02:10:00 13.9 C 11.51 g/m*3 13.9 C 0 km/h
1468 01-09-2020 02:15:00 13.9 C 11.51 g/m*3 13.9 C 0 km/h
1469 01-09-2020 02:20:00 13.8 C 11.44 g/m*3 13.8 C 0 km/h
1470 01-09-2020 02:25:00 13.8 C 11.44 g/m*3 13.8 C 1.6 km/h
1471 01-09-2020 02:30:00 13.7 C 11.37 g/m*3 13.7 C 3.2 km/h
1472 01-09-2020 02:35:00 13.6 C 11.3 g/m*3 13.6 C 0 km/h
1473 01-09-2020 02:40:00 13.6 C 11.3 g/m*3 13.6 C 0 km/h
1474 01-09-2020 02:45:00 13.4 C 11.16 g/m*3 13.4 C 0 km/h
1475 01-09-2020 02:50:00 13.3 C 11.09 g/m*3 13.3 C 1.6 km/h
Sensor: Nr:Datum:Temp:Abs-Feuchte:Windchill:Wind:
Aussen-T/F 1476 01-09-2020 02:55:00 13.2 C 11.02 g/m*3 13.2 C 1.6 km/h
1477 01-09-2020 03:00:00 13.1 C 10.95 g/m*3 13.1 C 1.6 km/h
1478 01-09-2020 03:05:00 13 C 10.89 g/m*3 13 C 3.2 km/h
1479 01-09-2020 03:10:00 13 C 10.89 g/m*3 13 C 0 km/h
1480 01-09-2020 03:15:00 13.1 C 10.95 g/m*3 13.1 C 1.6 km/h
1481 01-09-2020 03:20:00 13.1 C 10.95 g/m*3 13.1 C 1.6 km/h
1482 01-09-2020 03:25:00 13.1 C 10.95 g/m*3 13.1 C 3.2 km/h
1483 01-09-2020 03:30:00 13.2 C 11.02 g/m*3 13.2 C 4.8 km/h
1484 01-09-2020 03:35:00 13.2 C 11.02 g/m*3 13.2 C 3.2 km/h
1485 01-09-2020 03:40:00 13.2 C 11.02 g/m*3 13.2 C 1.6 km/h
1486 01-09-2020 03:45:00 13.2 C 11.02 g/m*3 13.2 C 3.2 km/h
1487 01-09-2020 03:50:00 13.2 C 11.02 g/m*3 13.2 C 3.2 km/h
1488 01-09-2020 03:55:00 13.1 C 10.95 g/m*3 13.1 C 1.6 km/h
1489 01-09-2020 04:00:00 13.1 C 10.95 g/m*3 13.1 C 1.6 km/h
1490 01-09-2020 04:05:00 13.1 C 10.95 g/m*3 13.1 C 0 km/h
1491 01-09-2020 04:10:00 13.1 C 10.95 g/m*3 13.1 C 0 km/h
1492 01-09-2020 04:15:00 13.1 C 10.95 g/m*3 13.1 C 0 km/h
1493 01-09-2020 04:20:00 13 C 10.89 g/m*3 13 C 0 km/h
1494 01-09-2020 04:25:00 12.9 C 10.82 g/m*3 12.9 C 0 km/h
1495 01-09-2020 04:30:00 12.9 C 10.82 g/m*3 12.9 C 0 km/h
1496 01-09-2020 04:35:00 12.9 C 10.82 g/m*3 12.9 C 4.8 km/h
1497 01-09-2020 04:40:00 12.8 C 10.75 g/m*3 12.8 C 4.8 km/h
1498 01-09-2020 04:45:00 12.8 C 10.75 g/m*3 12.8 C 3.2 km/h
1499 01-09-2020 04:50:00 12.8 C 10.75 g/m*3 12.8 C 0 km/h
1500 01-09-2020 04:55:00 12.8 C 10.87 g/m*3 12.8 C 1.6 km/h
Sensor: Nr:Datum:Temp:Abs-Feuchte:Windchill:Wind:
Aussen-T/F 1501 01-09-2020 05:00:00 12.8 C 10.87 g/m*3 12.8 C 1.6 km/h
1502 01-09-2020 05:05:00 12.8 C 10.87 g/m*3 12.8 C 1.6 km/h
1503 01-09-2020 05:10:00 12.7 C 10.8 g/m*3 12.7 C 3.2 km/h
1504 01-09-2020 05:15:00 12.7 C 10.8 g/m*3 12.7 C 1.6 km/h
1505 01-09-2020 05:20:00 12.7 C 10.69 g/m*3 12.7 C 4.8 km/h
1506 01-09-2020 05:25:00 12.6 C 10.62 g/m*3 12.6 C 3.2 km/h
1507 01-09-2020 05:30:00 12.6 C 10.62 g/m*3 12.6 C 3.2 km/h
1508 01-09-2020 05:35:00 12.5 C 10.55 g/m*3 12.5 C 0 km/h
1509 01-09-2020 05:40:00 12.4 C 10.49 g/m*3 12.4 C 1.6 km/h
1510 01-09-2020 05:45:00 12.3 C 10.42 g/m*3 12.3 C 3.2 km/h
1511 01-09-2020 05:50:00 12.3 C 10.42 g/m*3 12.3 C 3.2 km/h
1512 01-09-2020 05:55:00 12.3 C 10.42 g/m*3 12.3 C 4.8 km/h
1513 01-09-2020 06:00:00 12.3 C 10.42 g/m*3 12.3 C 1.6 km/h
1514 01-09-2020 06:05:00 12.2 C 10.36 g/m*3 12.2 C 4.8 km/h
1515 01-09-2020 06:10:00 12.2 C 10.36 g/m*3 12.2 C 4.8 km/h
1516 01-09-2020 06:15:00 12.2 C 10.47 g/m*3 12.2 C 4.8 km/h
1517 01-09-2020 06:20:00 12.1 C 10.4 g/m*3 12.1 C 4.8 km/h
1518 01-09-2020 06:25:00 12.1 C 10.4 g/m*3 12.1 C 4.8 km/h
1519 01-09-2020 06:30:00 12.1 C 10.4 g/m*3 12.1 C 0 km/h
1520 01-09-2020 06:35:00 12.1 C 10.4 g/m*3 12.1 C 0 km/h
1521 01-09-2020 06:40:00 12.1 C 10.4 g/m*3 12.1 C 0 km/h
1522 01-09-2020 06:45:00 12.1 C 10.4 g/m*3 12.1 C 0 km/h
1523 01-09-2020 06:50:00 12.1 C 10.4 g/m*3 12.1 C 0 km/h
1524 01-09-2020 06:55:00 12.1 C 10.4 g/m*3 12.1 C 0 km/h
1525 01-09-2020 07:00:00 12.2 C 10.47 g/m*3 12.2 C 0 km/h
Sensor: Nr:Datum:Temp:Abs-Feuchte:Windchill:Wind:
Aussen-T/F 1526 01-09-2020 07:05:00 12.3 C 10.53 g/m*3 12.3 C 0 km/h
1527 01-09-2020 07:10:00 12.4 C 10.6 g/m*3 12.4 C 0 km/h
1528 01-09-2020 07:15:00 12.4 C 10.6 g/m*3 12.4 C 0 km/h
1529 01-09-2020 07:20:00 12.4 C 10.6 g/m*3 12.4 C 0 km/h
1530 01-09-2020 07:25:00 12.5 C 10.66 g/m*3 12.5 C 0 km/h
1531 01-09-2020 07:30:00 12.5 C 10.66 g/m*3 12.5 C 0 km/h
1532 01-09-2020 07:35:00 12.6 C 10.73 g/m*3 12.6 C 0 km/h
1533 01-09-2020 07:40:00 12.6 C 10.73 g/m*3 12.6 C 0 km/h
1534 01-09-2020 07:45:00 12.7 C 10.8 g/m*3 12.7 C 0 km/h
1535 01-09-2020 07:50:00 12.7 C 10.8 g/m*3 12.7 C 0 km/h
1536 01-09-2020 07:55:00 12.8 C 10.87 g/m*3 12.8 C 0 km/h
1537 01-09-2020 08:00:00 12.9 C 10.93 g/m*3 12.9 C 0 km/h
1538 01-09-2020 08:05:00 13 C 11 g/m*3 13 C 0 km/h
1539 01-09-2020 08:10:00 13.1 C 11.07 g/m*3 13.1 C 0 km/h
1540 01-09-2020 08:15:00 13.2 C 11.14 g/m*3 13.2 C 0 km/h
1541 01-09-2020 08:20:00 13.3 C 11.21 g/m*3 13.3 C 0 km/h
1542 01-09-2020 08:25:00 13.3 C 11.21 g/m*3 13.3 C 0 km/h
1543 01-09-2020 08:30:00 13.5 C 11.35 g/m*3 13.5 C 0 km/h
1544 01-09-2020 08:35:00 13.6 C 11.42 g/m*3 13.6 C 0 km/h
1545 01-09-2020 08:40:00 13.7 C 11.49 g/m*3 13.7 C 0 km/h
1546 01-09-2020 08:45:00 13.7 C 11.49 g/m*3 13.7 C 0 km/h
1547 01-09-2020 08:50:00 13.8 C 11.56 g/m*3 13.8 C 0 km/h
1548 01-09-2020 08:55:00 13.8 C 11.56 g/m*3 13.8 C 0 km/h
1549 01-09-2020 09:00:00 13.7 C 11.49 g/m*3 13.7 C 0 km/h
1550 01-09-2020 09:05:00 13.7 C 11.49 g/m*3 13.7 C 0 km/h
Sensor: Nr:Datum:Temp:Abs-Feuchte:Windchill:Wind:
Aussen-T/F 1551 01-09-2020 09:10:00 13.7 C 11.49 g/m*3 13.7 C 0 km/h
1552 01-09-2020 09:15:00 13.8 C 11.56 g/m*3 13.8 C 0 km/h
1553 01-09-2020 09:20:00 13.8 C 11.56 g/m*3 13.8 C 0 km/h
1554 01-09-2020 09:25:00 13.9 C 11.63 g/m*3 13.9 C 0 km/h
1555 01-09-2020 09:30:00 13.9 C 11.63 g/m*3 13.9 C 0 km/h
1556 01-09-2020 09:35:00 13.8 C 11.56 g/m*3 13.8 C 0 km/h
1557 01-09-2020 09:40:00 13.9 C 11.63 g/m*3 13.9 C 0 km/h
1558 01-09-2020 09:45:00 14 C 11.7 g/m*3 14 C 0 km/h
1559 01-09-2020 09:50:00 14.1 C 11.77 g/m*3 14.1 C 0 km/h
1560 01-09-2020 09:55:00 14.2 C 11.84 g/m*3 14.2 C 0 km/h
1561 01-09-2020 10:00:00 14.3 C 11.92 g/m*3 14.3 C 0 km/h
1562 01-09-2020 10:05:00 14.3 C 11.92 g/m*3 14.3 C 0 km/h
1563 01-09-2020 10:10:00 14.3 C 11.92 g/m*3 14.3 C 0 km/h
1564 01-09-2020 10:15:00 14.1 C 11.77 g/m*3 14.1 C 6.4 km/h
1565 01-09-2020 10:20:00 14.1 C 11.77 g/m*3 14.1 C 1.6 km/h
1566 01-09-2020 10:25:00 14.1 C 11.77 g/m*3 14.1 C 0 km/h
1567 01-09-2020 10:30:00 14.2 C 11.84 g/m*3 14.2 C 0 km/h
1568 01-09-2020 10:35:00 14.2 C 11.84 g/m*3 14.2 C 1.6 km/h
1569 01-09-2020 10:40:00 14.3 C 11.92 g/m*3 14.3 C 3.2 km/h
1570 01-09-2020 10:45:00 14.3 C 11.79 g/m*3 14.3 C 1.6 km/h
1571 01-09-2020 10:50:00 14.4 C 11.87 g/m*3 14.4 C 1.6 km/h
1572 01-09-2020 10:55:00 14.6 C 12.01 g/m*3 14.6 C 0 km/h
1573 01-09-2020 11:00:00 14.8 C 12.16 g/m*3 14.8 C 0 km/h
1574 01-09-2020 11:05:00 14.8 C 12.16 g/m*3 14.8 C 0 km/h
1575 01-09-2020 11:10:00 14.9 C 12.24 g/m*3 14.9 C 3.2 km/h
Sensor: Nr:Datum:Temp:Abs-Feuchte:Windchill:Wind:
Aussen-T/F 1576 01-09-2020 11:15:00 14.9 C 12.11 g/m*3 14.9 C 1.6 km/h
1577 01-09-2020 11:20:00 15.1 C 12.13 g/m*3 15.1 C 0 km/h
1578 01-09-2020 11:25:00 15.2 C 12.07 g/m*3 15.2 C 4.8 km/h
1579 01-09-2020 11:30:00 15.3 C 12.14 g/m*3 15.3 C 3.2 km/h
1580 01-09-2020 11:35:00 15.5 C 12.16 g/m*3 15.5 C 1.6 km/h
1581 01-09-2020 11:40:00 15.7 C 12.18 g/m*3 15.7 C 4.8 km/h
1582 01-09-2020 11:45:00 15.9 C 12.19 g/m*3 15.9 C 4.8 km/h
1583 01-09-2020 11:50:00 16.1 C 12.2 g/m*3 16.1 C 1.6 km/h
1584 01-09-2020 11:55:00 16.1 C 11.93 g/m*3 16.1 C 0 km/h
1585 01-09-2020 12:00:00 16.2 C 12 g/m*3 16.2 C 0 km/h
1586 01-09-2020 12:05:00 16.4 C 12.28 g/m*3 16.4 C 1.6 km/h
1587 01-09-2020 12:10:00 16.6 C 12.57 g/m*3 16.6 C 3.2 km/h
1588 01-09-2020 12:15:00 16.8 C 12.58 g/m*3 16.8 C 1.6 km/h
1589 01-09-2020 12:20:00 16.9 C 12.8 g/m*3 16.9 C 0 km/h
1590 01-09-2020 12:25:00 16.9 C 12.51 g/m*3 16.9 C 3.2 km/h
1591 01-09-2020 12:30:00 17 C 12.3 g/m*3 17 C 3.2 km/h
1592 01-09-2020 12:35:00 17.2 C 12.3 g/m*3 17.2 C 4.8 km/h
1593 01-09-2020 12:40:00 17.3 C 12.23 g/m*3 17.3 C 1.6 km/h
1594 01-09-2020 12:45:00 17.4 C 12.15 g/m*3 17.4 C 0 km/h
1595 01-09-2020 12:50:00 17.6 C 12.3 g/m*3 17.6 C 0 km/h
1596 01-09-2020 12:55:00 17.7 C 12.22 g/m*3 17.7 C 0 km/h
1597 01-09-2020 13:00:00 17.8 C 11.99 g/m*3 17.8 C 4.8 km/h
1598 01-09-2020 13:05:00 17.9 C 12.21 g/m*3 17.9 C 3.2 km/h
1599 01-09-2020 13:10:00 18 C 12.13 g/m*3 18 C 3.2 km/h
1600 01-09-2020 13:15:00 18.1 C 11.9 g/m*3 18.1 C 4.8 km/h
Sensor: Nr:Datum:Temp:Abs-Feuchte:Windchill:Wind:
Aussen-T/F 1601 01-09-2020 13:20:00 18.2 C 11.81 g/m*3 18.2 C 9.7 km/h
1602 01-09-2020 13:25:00 18.4 C 11.8 g/m*3 18.4 C 1.6 km/h
1603 01-09-2020 13:30:00 18.6 C 11.62 g/m*3 18.6 C 11.3 km/h
1604 01-09-2020 13:35:00 18.8 C 11.6 g/m*3 18.8 C 8.1 km/h
1605 01-09-2020 13:40:00 18.9 C 11.18 g/m*3 18.9 C 9.7 km/h
1606 01-09-2020 13:45:00 19.1 C 11.15 g/m*3 19.1 C 9.7 km/h
1607 01-09-2020 13:50:00 19.2 C 10.55 g/m*3 19.2 C 8.1 km/h
1608 01-09-2020 13:55:00 19.3 C 10.62 g/m*3 19.3 C 8.1 km/h
1609 01-09-2020 14:00:00 19.3 C 10.78 g/m*3 19.3 C 11.3 km/h
1610 01-09-2020 14:05:00 19.3 C 10.78 g/m*3 19.3 C 9.7 km/h
1611 01-09-2020 14:10:00 19.4 C 10.68 g/m*3 19.4 C 8.1 km/h
1612 01-09-2020 14:15:00 19.4 C 10.84 g/m*3 19.4 C 8.1 km/h
1613 01-09-2020 14:20:00 19.3 C 10.78 g/m*3 19.3 C 8.1 km/h
1614 01-09-2020 14:25:00 19.2 C 10.88 g/m*3 19.2 C 1.6 km/h
1615 01-09-2020 14:30:00 19.3 C 11.11 g/m*3 19.3 C 6.4 km/h
1616 01-09-2020 14:35:00 19.4 C 11.01 g/m*3 19.4 C 14.5 km/h
1617 01-09-2020 14:40:00 19.6 C 10.64 g/m*3 19.6 C 11.3 km/h
1618 01-09-2020 14:45:00 19.7 C 11.04 g/m*3 19.7 C 4.8 km/h
1619 01-09-2020 14:50:00 19.8 C 10.59 g/m*3 19.8 C 8.1 km/h
1620 01-09-2020 14:55:00 19.8 C 10.08 g/m*3 19.8 C 9.7 km/h
1621 01-09-2020 15:00:00 19.7 C 10.02 g/m*3 19.7 C 1.6 km/h
1622 01-09-2020 15:05:00 19.7 C 10.02 g/m*3 19.7 C 3.2 km/h
1623 01-09-2020 15:10:00 19.8 C 9.91 g/m*3 19.8 C 8.1 km/h
1624 01-09-2020 15:15:00 19.8 C 10.25 g/m*3 19.8 C 6.4 km/h
1625 01-09-2020 15:20:00 19.8 C 10.08 g/m*3 19.8 C 8.1 km/h
Sensor: Nr:Datum:Temp:Abs-Feuchte:Windchill:Wind:
Aussen-T/F 1626 01-09-2020 15:25:00 19.9 C 10.65 g/m*3 19.9 C 3.2 km/h
1627 01-09-2020 15:30:00 19.9 C 10.48 g/m*3 19.9 C 4.8 km/h
1628 01-09-2020 15:35:00 20.1 C 10.78 g/m*3 20.1 C 8.1 km/h
1629 01-09-2020 15:40:00 20.3 C 10.9 g/m*3 20.3 C 0 km/h
1630 01-09-2020 15:45:00 20.4 C 10.79 g/m*3 20.4 C 4.8 km/h
1631 01-09-2020 15:50:00 20.3 C 10.73 g/m*3 20.3 C 1.6 km/h
1632 01-09-2020 15:55:00 20.2 C 10.67 g/m*3 20.2 C 8.1 km/h
1633 01-09-2020 16:00:00 19.9 C 11.34 g/m*3 19.9 C 3.2 km/h
1634 01-09-2020 16:05:00 19.7 C 11.72 g/m*3 19.7 C 0 km/h
1635 01-09-2020 16:10:00 19.5 C 11.41 g/m*3 19.5 C 9.7 km/h
1636 01-09-2020 16:15:00 19.1 C 11.8 g/m*3 19.1 C 4.8 km/h
1637 01-09-2020 16:20:00 18.8 C 11.92 g/m*3 18.8 C 3.2 km/h
1638 01-09-2020 16:25:00 18.7 C 12.65 g/m*3 18.7 C 0 km/h
1639 01-09-2020 16:30:00 18.6 C 13.05 g/m*3 18.6 C 0 km/h
1640 01-09-2020 16:35:00 18.2 C 11.66 g/m*3 18.2 C 6.4 km/h
1641 01-09-2020 16:40:00 17.9 C 11.3 g/m*3 17.9 C 8.1 km/h
1642 01-09-2020 16:45:00 17.8 C 11.69 g/m*3 17.8 C 8.1 km/h
1643 01-09-2020 16:50:00 17.6 C 11.4 g/m*3 17.6 C 12.9 km/h
1644 01-09-2020 16:55:00 17.5 C 11.48 g/m*3 17.5 C 11.3 km/h
1645 01-09-2020 17:00:00 17.4 C 11.41 g/m*3 17.4 C 9.7 km/h
1646 01-09-2020 17:05:00 17.3 C 11.34 g/m*3 17.3 C 8.1 km/h
1647 01-09-2020 17:10:00 17.3 C 11.34 g/m*3 17.3 C 11.3 km/h
1648 01-09-2020 17:15:00 17.3 C 11.49 g/m*3 17.3 C 4.8 km/h
1649 01-09-2020 17:20:00 17.2 C 11.42 g/m*3 17.2 C 8.1 km/h
1650 01-09-2020 17:25:00 17.2 C 11.42 g/m*3 17.2 C 3.2 km/h
Sensor: Nr:Datum:Temp:Abs-Feuchte:Windchill:Wind:
Aussen-T/F 1651 01-09-2020 17:30:00 17.2 C 11.72 g/m*3 17.2 C 1.6 km/h
1652 01-09-2020 17:35:00 17.2 C 11.72 g/m*3 17.2 C 4.8 km/h
1653 01-09-2020 17:40:00 17.1 C 11.79 g/m*3 17.1 C 0 km/h
1654 01-09-2020 17:45:00 17.1 C 11.94 g/m*3 17.1 C 0 km/h
1655 01-09-2020 17:50:00 17 C 11.87 g/m*3 17 C 0 km/h
1656 01-09-2020 17:55:00 16.9 C 11.94 g/m*3 16.9 C 1.6 km/h
1657 01-09-2020 18:00:00 16.9 C 12.08 g/m*3 16.9 C 0 km/h
1658 01-09-2020 18:05:00 16.8 C 12.01 g/m*3 16.8 C 0 km/h
1659 01-09-2020 18:10:00 16.7 C 11.8 g/m*3 16.7 C 0 km/h
1660 01-09-2020 18:15:00 16.6 C 11.72 g/m*3 16.6 C 0 km/h
1661 01-09-2020 18:20:00 16.4 C 11.86 g/m*3 16.4 C 0 km/h
1662 01-09-2020 18:25:00 16.4 C 11.86 g/m*3 16.4 C 0 km/h
1663 01-09-2020 18:30:00 16.3 C 11.79 g/m*3 16.3 C 0 km/h
1664 01-09-2020 18:35:00 16.2 C 11.58 g/m*3 16.2 C 0 km/h
1665 01-09-2020 18:40:00 16.2 C 11.72 g/m*3 16.2 C 1.6 km/h
1666 01-09-2020 18:45:00 16.1 C 11.65 g/m*3 16.1 C 3.2 km/h
1667 01-09-2020 18:50:00 16 C 11.58 g/m*3 16 C 3.2 km/h
1668 01-09-2020 18:55:00 15.9 C 11.51 g/m*3 15.9 C 1.6 km/h
1669 01-09-2020 19:00:00 15.9 C 11.51 g/m*3 15.9 C 1.6 km/h
1670 01-09-2020 19:05:00 15.9 C 11.78 g/m*3 15.9 C 0 km/h
1671 01-09-2020 19:10:00 16.1 C 11.93 g/m*3 16.1 C 1.6 km/h
1672 01-09-2020 19:15:00 16.3 C 11.93 g/m*3 16.3 C 4.8 km/h
1673 01-09-2020 19:20:00 16.5 C 12.08 g/m*3 16.5 C 3.2 km/h
1674 01-09-2020 19:25:00 16.7 C 12.08 g/m*3 16.7 C 1.6 km/h
1675 01-09-2020 19:30:00 16.8 C 12.15 g/m*3 16.8 C 1.6 km/h
Sensor: Nr:Datum:Temp:Abs-Feuchte:Windchill:Wind:
Aussen-T/F 1676 01-09-2020 19:35:00 16.8 C 12.15 g/m*3 16.8 C 3.2 km/h
1677 01-09-2020 19:40:00 16.8 C 12.15 g/m*3 16.8 C 0 km/h
1678 01-09-2020 19:45:00 16.8 C 12.15 g/m*3 16.8 C 0 km/h
1679 01-09-2020 19:50:00 16.8 C 12.15 g/m*3 16.8 C 0 km/h
1680 01-09-2020 19:55:00 16.6 C 11.87 g/m*3 16.6 C 0 km/h
1681 01-09-2020 20:00:00 16.4 C 11.72 g/m*3 16.4 C 1.6 km/h
1682 01-09-2020 20:05:00 16.2 C 11.58 g/m*3 16.2 C 0 km/h
1683 01-09-2020 20:10:00 15.9 C 11.38 g/m*3 15.9 C 3.2 km/h
1684 01-09-2020 20:15:00 15.6 C 11.17 g/m*3 15.6 C 4.8 km/h
1685 01-09-2020 20:20:00 15.4 C 11.17 g/m*3 15.4 C 3.2 km/h
1686 01-09-2020 20:25:00 15.2 C 11.16 g/m*3 15.2 C 3.2 km/h
1687 01-09-2020 20:30:00 15.1 C 11.09 g/m*3 15.1 C 3.2 km/h
1688 01-09-2020 20:35:00 14.9 C 11.09 g/m*3 14.9 C 1.6 km/h
1689 01-09-2020 20:40:00 14.8 C 11.02 g/m*3 14.8 C 3.2 km/h
1690 01-09-2020 20:45:00 14.7 C 10.83 g/m*3 14.7 C 4.8 km/h
1691 01-09-2020 20:50:00 14.6 C 10.89 g/m*3 14.6 C 0 km/h
1692 01-09-2020 20:55:00 14.4 C 10.75 g/m*3 14.4 C 1.6 km/h
1693 01-09-2020 21:00:00 14.3 C 10.81 g/m*3 14.3 C 4.8 km/h
1694 01-09-2020 21:05:00 14.3 C 10.81 g/m*3 14.3 C 4.8 km/h
1695 01-09-2020 21:10:00 14.2 C 10.75 g/m*3 14.2 C 1.6 km/h
1696 01-09-2020 21:15:00 14.2 C 10.75 g/m*3 14.2 C 1.6 km/h
1697 01-09-2020 21:20:00 14.2 C 10.87 g/m*3 14.2 C 3.2 km/h
1698 01-09-2020 21:25:00 14.2 C 10.87 g/m*3 14.2 C 3.2 km/h
1699 01-09-2020 21:30:00 14.1 C 10.8 g/m*3 14.1 C 0 km/h
1700 01-09-2020 21:35:00 14.1 C 10.8 g/m*3 14.1 C 1.6 km/h
Sensor: Nr:Datum:Temp:Abs-Feuchte:Windchill:Wind:
Aussen-T/F 1701 01-09-2020 21:40:00 14.1 C 10.8 g/m*3 14.1 C 3.2 km/h
1702 01-09-2020 21:45:00 14 C 10.74 g/m*3 14 C 0 km/h
1703 01-09-2020 21:50:00 14 C 10.74 g/m*3 14 C 0 km/h
1704 01-09-2020 21:55:00 14.1 C 10.92 g/m*3 14.1 C 0 km/h
1705 01-09-2020 22:00:00 14.1 C 10.92 g/m*3 14.1 C 0 km/h
1706 01-09-2020 22:05:00 14.1 C 10.92 g/m*3 14.1 C 0 km/h
1707 01-09-2020 22:10:00 13.9 C 10.79 g/m*3 13.9 C 0 km/h
1708 01-09-2020 22:15:00 13.9 C 10.79 g/m*3 13.9 C 0 km/h
1709 01-09-2020 22:20:00 13.8 C 10.72 g/m*3 13.8 C 0 km/h
1710 01-09-2020 22:25:00 13.8 C 10.72 g/m*3 13.8 C 0 km/h
1711 01-09-2020 22:30:00 13.7 C 10.66 g/m*3 13.7 C 0 km/h
1712 01-09-2020 22:35:00 13.6 C 10.59 g/m*3 13.6 C 0 km/h
1713 01-09-2020 22:40:00 13.5 C 10.53 g/m*3 13.5 C 0 km/h
1714 01-09-2020 22:45:00 13.4 C 10.46 g/m*3 13.4 C 0 km/h
1715 01-09-2020 22:50:00 13.3 C 10.51 g/m*3 13.3 C 1.6 km/h
1716 01-09-2020 22:55:00 13.3 C 10.51 g/m*3 13.3 C 1.6 km/h
1717 01-09-2020 23:00:00 13.3 C 10.51 g/m*3 13.3 C 0 km/h
1718 01-09-2020 23:05:00 13.3 C 10.51 g/m*3 13.3 C 0 km/h
1719 01-09-2020 23:10:00 13.3 C 10.51 g/m*3 13.3 C 0 km/h
1720 01-09-2020 23:15:00 13.3 C 10.63 g/m*3 13.3 C 0 km/h
1721 01-09-2020 23:20:00 13.3 C 10.63 g/m*3 13.3 C 0 km/h
1722 01-09-2020 23:25:00 13.3 C 10.63 g/m*3 13.3 C 0 km/h
1723 01-09-2020 23:30:00 13.3 C 10.63 g/m*3 13.3 C 0 km/h
1724 01-09-2020 23:35:00 13.3 C 10.63 g/m*3 13.3 C 0 km/h
1725 01-09-2020 23:40:00 13.3 C 10.63 g/m*3 13.3 C 0 km/h
Sensor: Nr:Datum:Temp:Abs-Feuchte:Windchill:Wind:
Aussen-T/F 1726 01-09-2020 23:45:00 13.3 C 10.63 g/m*3 13.3 C 0 km/h
1727 01-09-2020 23:50:00 13.3 C 10.63 g/m*3 13.3 C 0 km/h
1728 01-09-2020 23:55:00 13.4 C 10.69 g/m*3 13.4 C 0 km/h
1729 02-09-2020 00:00:00 13.4 C 10.69 g/m*3 13.4 C 0 km/h
1730 02-09-2020 00:05:00 13.3 C 10.63 g/m*3 13.3 C 0 km/h
1731 02-09-2020 00:10:00 13.3 C 10.63 g/m*3 13.3 C 0 km/h
1732 02-09-2020 00:15:00 13.3 C 10.74 g/m*3 13.3 C 0 km/h
1733 02-09-2020 00:20:00 13.3 C 10.74 g/m*3 13.3 C 0 km/h
1734 02-09-2020 00:25:00 13.3 C 10.74 g/m*3 13.3 C 0 km/h
1735 02-09-2020 00:30:00 13.3 C 10.74 g/m*3 13.3 C 0 km/h
1736 02-09-2020 00:35:00 13.3 C 10.74 g/m*3 13.3 C 0 km/h
1737 02-09-2020 00:40:00 13.3 C 10.74 g/m*3 13.3 C 0 km/h
1738 02-09-2020 00:45:00 13.3 C 10.74 g/m*3 13.3 C 0 km/h
1739 02-09-2020 00:50:00 13.3 C 10.74 g/m*3 13.3 C 0 km/h
1740 02-09-2020 00:55:00 13.3 C 10.74 g/m*3 13.3 C 0 km/h
1741 02-09-2020 01:00:00 13.2 C 10.68 g/m*3 13.2 C 0 km/h
1742 02-09-2020 01:05:00 13.3 C 10.74 g/m*3 13.3 C 1.6 km/h
1743 02-09-2020 01:10:00 13.3 C 10.74 g/m*3 13.3 C 0 km/h
1744 02-09-2020 01:15:00 13.2 C 10.68 g/m*3 13.2 C 0 km/h
1745 02-09-2020 01:20:00 13.2 C 10.68 g/m*3 13.2 C 0 km/h
1746 02-09-2020 01:25:00 13.2 C 10.68 g/m*3 13.2 C 0 km/h
1747 02-09-2020 01:30:00 13.2 C 10.68 g/m*3 13.2 C 0 km/h
1748 02-09-2020 01:35:00 13.2 C 10.68 g/m*3 13.2 C 0 km/h
1749 02-09-2020 01:40:00 13.2 C 10.68 g/m*3 13.2 C 0 km/h
1750 02-09-2020 01:45:00 13.2 C 10.68 g/m*3 13.2 C 0 km/h
Sensor: Nr:Datum:Temp:Abs-Feuchte:Windchill:Wind:
Aussen-T/F 1751 02-09-2020 01:50:00 13.1 C 10.61 g/m*3 13.1 C 0 km/h
1752 02-09-2020 01:55:00 13.1 C 10.61 g/m*3 13.1 C 3.2 km/h
1753 02-09-2020 02:00:00 13.1 C 10.61 g/m*3 13.1 C 0 km/h
1754 02-09-2020 02:05:00 13.1 C 10.61 g/m*3 13.1 C 0 km/h
1755 02-09-2020 02:10:00 13 C 10.55 g/m*3 13 C 0 km/h
1756 02-09-2020 02:15:00 13 C 10.55 g/m*3 13 C 0 km/h
1757 02-09-2020 02:20:00 12.9 C 10.48 g/m*3 12.9 C 0 km/h
1758 02-09-2020 02:25:00 12.9 C 10.48 g/m*3 12.9 C 0 km/h
1759 02-09-2020 02:30:00 12.9 C 10.48 g/m*3 12.9 C 0 km/h
1760 02-09-2020 02:35:00 12.8 C 10.42 g/m*3 12.8 C 0 km/h
1761 02-09-2020 02:40:00 12.8 C 10.42 g/m*3 12.8 C 0 km/h
1762 02-09-2020 02:45:00 12.8 C 10.42 g/m*3 12.8 C 1.6 km/h
1763 02-09-2020 02:50:00 12.8 C 10.53 g/m*3 12.8 C 0 km/h
1764 02-09-2020 02:55:00 12.8 C 10.53 g/m*3 12.8 C 1.6 km/h
1765 02-09-2020 03:00:00 12.8 C 10.53 g/m*3 12.8 C 0 km/h
1766 02-09-2020 03:05:00 12.8 C 10.53 g/m*3 12.8 C 0 km/h
1767 02-09-2020 03:10:00 12.8 C 10.53 g/m*3 12.8 C 1.6 km/h
1768 02-09-2020 03:15:00 12.8 C 10.53 g/m*3 12.8 C 0 km/h
1769 02-09-2020 03:20:00 12.8 C 10.53 g/m*3 12.8 C 0 km/h
1770 02-09-2020 03:25:00 12.8 C 10.53 g/m*3 12.8 C 0 km/h
1771 02-09-2020 03:30:00 12.8 C 10.53 g/m*3 12.8 C 0 km/h
1772 02-09-2020 03:35:00 12.8 C 10.53 g/m*3 12.8 C 0 km/h
1773 02-09-2020 03:40:00 12.8 C 10.53 g/m*3 12.8 C 1.6 km/h
1774 02-09-2020 03:45:00 12.8 C 10.53 g/m*3 12.8 C 1.6 km/h
1775 02-09-2020 03:50:00 12.8 C 10.53 g/m*3 12.8 C 0 km/h
Sensor: Nr:Datum:Temp:Abs-Feuchte:Windchill:Wind:
Aussen-T/F 1776 02-09-2020 03:55:00 12.9 C 10.59 g/m*3 12.9 C 0 km/h
1777 02-09-2020 04:00:00 12.9 C 10.59 g/m*3 12.9 C 0 km/h
1778 02-09-2020 04:05:00 12.8 C 10.53 g/m*3 12.8 C 0 km/h
1779 02-09-2020 04:10:00 12.8 C 10.53 g/m*3 12.8 C 0 km/h
1780 02-09-2020 04:15:00 12.8 C 10.53 g/m*3 12.8 C 0 km/h
1781 02-09-2020 04:20:00 12.7 C 10.46 g/m*3 12.7 C 0 km/h
1782 02-09-2020 04:25:00 12.7 C 10.46 g/m*3 12.7 C 0 km/h
1783 02-09-2020 04:30:00 12.7 C 10.46 g/m*3 12.7 C 0 km/h
1784 02-09-2020 04:35:00 12.7 C 10.46 g/m*3 12.7 C 0 km/h
1785 02-09-2020 04:40:00 12.6 C 10.4 g/m*3 12.6 C 0 km/h
1786 02-09-2020 04:45:00 12.6 C 10.4 g/m*3 12.6 C 0 km/h
1787 02-09-2020 04:50:00 12.6 C 10.4 g/m*3 12.6 C 0 km/h
1788 02-09-2020 04:55:00 12.6 C 10.4 g/m*3 12.6 C 0 km/h
1789 02-09-2020 05:00:00 12.6 C 10.4 g/m*3 12.6 C 0 km/h
1790 02-09-2020 05:05:00 12.6 C 10.4 g/m*3 12.6 C 0 km/h
1791 02-09-2020 05:10:00 12.5 C 10.33 g/m*3 12.5 C 0 km/h
1792 02-09-2020 05:15:00 12.5 C 10.33 g/m*3 12.5 C 0 km/h
1793 02-09-2020 05:20:00 12.5 C 10.33 g/m*3 12.5 C 0 km/h
1794 02-09-2020 05:25:00 12.5 C 10.44 g/m*3 12.5 C 0 km/h
1795 02-09-2020 05:30:00 12.5 C 10.44 g/m*3 12.5 C 0 km/h
1796 02-09-2020 05:35:00 12.5 C 10.44 g/m*3 12.5 C 0 km/h
1797 02-09-2020 05:40:00 12.5 C 10.44 g/m*3 12.5 C 0 km/h
1798 02-09-2020 05:45:00 12.5 C 10.44 g/m*3 12.5 C 0 km/h
1799 02-09-2020 05:50:00 12.5 C 10.44 g/m*3 12.5 C 0 km/h
1800 02-09-2020 05:55:00 12.5 C 10.44 g/m*3 12.5 C 0 km/h
Sensor: Nr:Datum:Temp:Abs-Feuchte:Windchill:Wind:
Aussen-T/F 1801 02-09-2020 06:00:00 12.5 C 10.44 g/m*3 12.5 C 1.6 km/h
1802 02-09-2020 06:05:00 12.5 C 10.44 g/m*3 12.5 C 1.6 km/h
1803 02-09-2020 06:10:00 12.4 C 10.38 g/m*3 12.4 C 0 km/h
1804 02-09-2020 06:15:00 12.4 C 10.38 g/m*3 12.4 C 0 km/h
1805 02-09-2020 06:20:00 12.4 C 10.38 g/m*3 12.4 C 0 km/h
1806 02-09-2020 06:25:00 12.4 C 10.38 g/m*3 12.4 C 0 km/h
1807 02-09-2020 06:30:00 12.3 C 10.32 g/m*3 12.3 C 0 km/h
1808 02-09-2020 06:35:00 12.3 C 10.32 g/m*3 12.3 C 0 km/h
1809 02-09-2020 06:40:00 12.2 C 10.25 g/m*3 12.2 C 0 km/h
1810 02-09-2020 06:45:00 12.1 C 10.19 g/m*3 12.1 C 0 km/h
1811 02-09-2020 06:50:00 12.1 C 10.19 g/m*3 12.1 C 0 km/h
1812 02-09-2020 06:55:00 12 C 10.12 g/m*3 12 C 0 km/h
1813 02-09-2020 07:00:00 11.9 C 10.06 g/m*3 11.9 C 0 km/h
1814 02-09-2020 07:05:00 11.8 C 10 g/m*3 11.8 C 3.2 km/h
1815 02-09-2020 07:10:00 11.7 C 9.94 g/m*3 11.7 C 3.2 km/h
1816 02-09-2020 07:15:00 11.7 C 9.94 g/m*3 11.7 C 1.6 km/h
1817 02-09-2020 07:20:00 11.7 C 9.94 g/m*3 11.7 C 0 km/h
1818 02-09-2020 07:25:00 11.6 C 9.87 g/m*3 11.6 C 0 km/h
1819 02-09-2020 07:30:00 11.6 C 9.87 g/m*3 11.6 C 0 km/h
1820 02-09-2020 07:35:00 11.5 C 9.81 g/m*3 11.5 C 0 km/h
1821 02-09-2020 07:40:00 11.4 C 9.75 g/m*3 11.4 C 0 km/h
1822 02-09-2020 07:45:00 11.4 C 9.75 g/m*3 11.4 C 0 km/h
1823 02-09-2020 07:50:00 11.4 C 9.75 g/m*3 11.4 C 3.2 km/h
1824 02-09-2020 07:55:00 11.4 C 9.75 g/m*3 11.4 C 0 km/h
1825 02-09-2020 08:00:00 11.4 C 9.75 g/m*3 11.4 C 3.2 km/h
Sensor: Nr:Datum:Temp:Abs-Feuchte:Windchill:Wind:
Aussen-T/F 1826 02-09-2020 08:05:00 11.3 C 9.69 g/m*3 11.3 C 0 km/h
1827 02-09-2020 08:10:00 11.4 C 9.75 g/m*3 11.4 C 0 km/h
1828 02-09-2020 08:15:00 11.4 C 9.75 g/m*3 11.4 C 0 km/h
1829 02-09-2020 08:20:00 11.4 C 9.75 g/m*3 11.4 C 0 km/h
1830 02-09-2020 08:25:00 11.4 C 9.75 g/m*3 11.4 C 0 km/h
1831 02-09-2020 08:30:00 11.4 C 9.75 g/m*3 11.4 C 0 km/h
1832 02-09-2020 08:35:00 11.5 C 9.92 g/m*3 11.5 C 0 km/h
1833 02-09-2020 08:40:00 11.6 C 9.98 g/m*3 11.6 C 0 km/h
1834 02-09-2020 08:45:00 11.6 C 9.98 g/m*3 11.6 C 0 km/h
1835 02-09-2020 08:50:00 11.7 C 10.04 g/m*3 11.7 C 0 km/h
1836 02-09-2020 08:55:00 11.8 C 10.1 g/m*3 11.8 C 0 km/h
1837 02-09-2020 09:00:00 12.1 C 10.29 g/m*3 12.1 C 0 km/h
1838 02-09-2020 09:05:00 12.2 C 10.36 g/m*3 12.2 C 0 km/h
1839 02-09-2020 09:10:00 12.3 C 10.42 g/m*3 12.3 C 0 km/h
1840 02-09-2020 09:15:00 12.4 C 10.49 g/m*3 12.4 C 0 km/h
1841 02-09-2020 09:20:00 12.6 C 10.62 g/m*3 12.6 C 0 km/h
1842 02-09-2020 09:25:00 12.7 C 10.69 g/m*3 12.7 C 0 km/h
1843 02-09-2020 09:30:00 12.9 C 10.82 g/m*3 12.9 C 0 km/h
1844 02-09-2020 09:35:00 13.1 C 10.95 g/m*3 13.1 C 0 km/h
1845 02-09-2020 09:40:00 13.2 C 10.91 g/m*3 13.2 C 0 km/h
1846 02-09-2020 09:45:00 13.3 C 10.98 g/m*3 13.3 C 3.2 km/h
1847 02-09-2020 09:50:00 13.5 C 10.88 g/m*3 13.5 C 0 km/h
1848 02-09-2020 09:55:00 13.7 C 11.01 g/m*3 13.7 C 0 km/h
1849 02-09-2020 10:00:00 13.9 C 11.03 g/m*3 13.9 C 0 km/h
1850 02-09-2020 10:05:00 14.1 C 11.04 g/m*3 14.1 C 1.6 km/h
Sensor: Nr:Datum:Temp:Abs-Feuchte:Windchill:Wind:
Aussen-T/F 1851 02-09-2020 10:10:00 14.2 C 10.87 g/m*3 14.2 C 1.6 km/h
1852 02-09-2020 10:15:00 14.3 C 10.93 g/m*3 14.3 C 0 km/h
1853 02-09-2020 10:20:00 14.4 C 11 g/m*3 14.4 C 0 km/h
1854 02-09-2020 10:25:00 14.6 C 11.01 g/m*3 14.6 C 0 km/h
1855 02-09-2020 10:30:00 14.7 C 11.08 g/m*3 14.7 C 1.6 km/h
1856 02-09-2020 10:35:00 14.8 C 11.15 g/m*3 14.8 C 1.6 km/h
1857 02-09-2020 10:40:00 14.9 C 10.96 g/m*3 14.9 C 0 km/h
1858 02-09-2020 10:45:00 15.1 C 11.09 g/m*3 15.1 C 4.8 km/h
1859 02-09-2020 10:50:00 15.2 C 11.03 g/m*3 15.2 C 1.6 km/h
1860 02-09-2020 10:55:00 15.4 C 11.04 g/m*3 15.4 C 3.2 km/h
1861 02-09-2020 11:00:00 15.6 C 11.04 g/m*3 15.6 C 3.2 km/h
1862 02-09-2020 11:05:00 15.8 C 11.17 g/m*3 15.8 C 1.6 km/h
1863 02-09-2020 11:10:00 15.9 C 11.1 g/m*3 15.9 C 3.2 km/h
1864 02-09-2020 11:15:00 16.1 C 11.24 g/m*3 16.1 C 0 km/h
1865 02-09-2020 11:20:00 16.3 C 11.24 g/m*3 16.3 C 3.2 km/h
1866 02-09-2020 11:25:00 16.4 C 11.31 g/m*3 16.4 C 1.6 km/h
1867 02-09-2020 11:30:00 16.5 C 10.95 g/m*3 16.5 C 3.2 km/h
1868 02-09-2020 11:35:00 16.6 C 11.16 g/m*3 16.6 C 0 km/h
1869 02-09-2020 11:40:00 16.7 C 11.23 g/m*3 16.7 C 0 km/h
1870 02-09-2020 11:45:00 16.8 C 11.01 g/m*3 16.8 C 0 km/h
1871 02-09-2020 11:50:00 16.8 C 10.72 g/m*3 16.8 C 3.2 km/h
1872 02-09-2020 11:55:00 16.9 C 10.79 g/m*3 16.9 C 0 km/h
1873 02-09-2020 12:00:00 17.1 C 10.92 g/m*3 17.1 C 6.4 km/h
1874 02-09-2020 12:05:00 17.2 C 10.54 g/m*3 17.2 C 3.2 km/h
1875 02-09-2020 12:10:00 17.3 C 11.34 g/m*3 17.3 C 0 km/h
Sensor: Nr:Datum:Temp:Abs-Feuchte:Windchill:Wind:
Aussen-T/F 1876 02-09-2020 12:15:00 17.3 C 11.64 g/m*3 17.3 C 0 km/h
1877 02-09-2020 12:20:00 17.3 C 11.79 g/m*3 17.3 C 0 km/h
1878 02-09-2020 12:25:00 17.2 C 11.86 g/m*3 17.2 C 0 km/h
1879 02-09-2020 12:30:00 17.1 C 11.65 g/m*3 17.1 C 0 km/h
1880 02-09-2020 12:35:00 17 C 11.87 g/m*3 17 C 0 km/h
1881 02-09-2020 12:40:00 16.9 C 11.08 g/m*3 16.9 C 0 km/h
1882 02-09-2020 12:45:00 17.1 C 11.35 g/m*3 17.1 C 0 km/h
1883 02-09-2020 12:50:00 17.3 C 11.64 g/m*3 17.3 C 0 km/h
1884 02-09-2020 12:55:00 17.5 C 10.88 g/m*3 17.5 C 6.4 km/h
1885 02-09-2020 13:00:00 17.9 C 10.23 g/m*3 17.9 C 4.8 km/h
1886 02-09-2020 13:05:00 18.2 C 10.41 g/m*3 18.2 C 3.2 km/h
1887 02-09-2020 13:10:00 18.4 C 10.22 g/m*3 18.4 C 4.8 km/h
1888 02-09-2020 13:15:00 18.7 C 10.57 g/m*3 18.7 C 3.2 km/h
1889 02-09-2020 13:20:00 18.8 C 10.15 g/m*3 18.8 C 8.1 km/h
1890 02-09-2020 13:25:00 18.8 C 9.99 g/m*3 18.8 C 8.1 km/h
1891 02-09-2020 13:30:00 18.9 C 10.04 g/m*3 18.9 C 4.8 km/h
1892 02-09-2020 13:35:00 18.9 C 10.21 g/m*3 18.9 C 6.4 km/h
1893 02-09-2020 13:40:00 18.9 C 11.18 g/m*3 18.9 C 1.6 km/h
1894 02-09-2020 13:45:00 19 C 11.9 g/m*3 19 C 1.6 km/h
1895 02-09-2020 13:50:00 18.9 C 11.5 g/m*3 18.9 C 0 km/h
1896 02-09-2020 13:55:00 18.8 C 10.15 g/m*3 18.8 C 0 km/h
1897 02-09-2020 14:00:00 18.9 C 10.04 g/m*3 18.9 C 4.8 km/h
1898 02-09-2020 14:05:00 19.2 C 9.89 g/m*3 19.2 C 6.4 km/h
1899 02-09-2020 14:10:00 19.3 C 9.45 g/m*3 19.3 C 3.2 km/h
1900 02-09-2020 14:15:00 19.4 C 9.68 g/m*3 19.4 C 0 km/h
Sensor: Nr:Datum:Temp:Abs-Feuchte:Windchill:Wind:
Aussen-T/F 1901 02-09-2020 14:20:00 19.6 C 9.96 g/m*3 19.6 C 4.8 km/h
1902 02-09-2020 14:25:00 19.7 C 9.51 g/m*3 19.7 C 6.4 km/h
1903 02-09-2020 14:30:00 19.9 C 9.62 g/m*3 19.9 C 8.1 km/h
1904 02-09-2020 14:35:00 20 C 9.33 g/m*3 20 C 4.8 km/h
1905 02-09-2020 14:40:00 20.1 C 9.56 g/m*3 20.1 C 1.6 km/h
1906 02-09-2020 14:45:00 20.3 C 9.32 g/m*3 20.3 C 8.1 km/h
1907 02-09-2020 14:50:00 20.6 C 9.49 g/m*3 20.6 C 11.3 km/h
1908 02-09-2020 14:55:00 20.9 C 9.83 g/m*3 20.9 C 9.7 km/h
1909 02-09-2020 15:00:00 21 C 9.34 g/m*3 21 C 8.1 km/h
1910 02-09-2020 15:05:00 20.9 C 9.47 g/m*3 20.9 C 4.8 km/h
1911 02-09-2020 15:10:00 20.9 C 9.47 g/m*3 20.9 C 6.4 km/h
1912 02-09-2020 15:15:00 20.9 C 9.47 g/m*3 20.9 C 9.7 km/h
1913 02-09-2020 15:20:00 21 C 9.89 g/m*3 21 C 6.4 km/h
1914 02-09-2020 15:25:00 21 C 9.71 g/m*3 21 C 1.6 km/h
1915 02-09-2020 15:30:00 21 C 9.53 g/m*3 21 C 6.4 km/h
1916 02-09-2020 15:35:00 21 C 9.16 g/m*3 21 C 4.8 km/h
1917 02-09-2020 15:40:00 21.2 C 9.27 g/m*3 21.2 C 9.7 km/h
1918 02-09-2020 15:45:00 21.3 C 9.13 g/m*3 21.3 C 8.1 km/h
1919 02-09-2020 15:50:00 21.4 C 9.19 g/m*3 21.4 C 4.8 km/h
1920 02-09-2020 15:55:00 21.6 C 9.67 g/m*3 21.6 C 6.4 km/h
1921 02-09-2020 16:00:00 21.6 C 8.91 g/m*3 21.6 C 11.3 km/h
1922 02-09-2020 16:05:00 21.7 C 9.16 g/m*3 21.7 C 8.1 km/h
1923 02-09-2020 16:10:00 21.7 C 8.77 g/m*3 21.7 C 14.5 km/h
1924 02-09-2020 16:15:00 21.7 C 8.77 g/m*3 21.7 C 8.1 km/h
1925 02-09-2020 16:20:00 21.8 C 9.21 g/m*3 21.8 C 0 km/h
Sensor: Nr:Datum:Temp:Abs-Feuchte:Windchill:Wind:
Aussen-T/F 1926 02-09-2020 16:25:00 21.9 C 9.07 g/m*3 21.9 C 3.2 km/h
1927 02-09-2020 16:30:00 21.9 C 10.42 g/m*3 21.9 C 0 km/h
1928 02-09-2020 16:35:00 21.9 C 9.65 g/m*3 21.9 C 0 km/h
1929 02-09-2020 16:40:00 21.9 C 9.65 g/m*3 21.9 C 0 km/h
1930 02-09-2020 16:45:00 22.3 C 9.87 g/m*3 22.3 C 3.2 km/h
1931 02-09-2020 16:50:00 22.7 C 10.3 g/m*3 22.7 C 0 km/h
1932 02-09-2020 16:55:00 23.2 C 9.36 g/m*3 23.2 C 1.6 km/h
1933 02-09-2020 17:00:00 23.4 C 10.51 g/m*3 23.4 C 0 km/h
1934 02-09-2020 17:05:00 23.3 C 11.71 g/m*3 23.3 C 0 km/h
1935 02-09-2020 17:10:00 23.2 C 11.85 g/m*3 23.2 C 0 km/h
1936 02-09-2020 17:15:00 23.4 C 10.3 g/m*3 23.4 C 0 km/h
1937 02-09-2020 17:20:00 23.7 C 8.98 g/m*3 23.7 C 4.8 km/h
1938 02-09-2020 17:25:00 23.8 C 8.6 g/m*3 23.8 C 1.6 km/h
1939 02-09-2020 17:30:00 23.8 C 9.03 g/m*3 23.8 C 9.7 km/h
1940 02-09-2020 17:35:00 23.4 C 9.04 g/m*3 23.4 C 11.3 km/h
1941 02-09-2020 17:40:00 22.8 C 8.94 g/m*3 22.8 C 9.7 km/h
1942 02-09-2020 17:45:00 22.3 C 9.28 g/m*3 22.3 C 3.2 km/h
1943 02-09-2020 17:50:00 21.9 C 9.65 g/m*3 21.9 C 4.8 km/h
1944 02-09-2020 17:55:00 21.6 C 10.81 g/m*3 21.6 C 1.6 km/h
1945 02-09-2020 18:00:00 21.2 C 10.75 g/m*3 21.2 C 3.2 km/h
1946 02-09-2020 18:05:00 20.7 C 10.98 g/m*3 20.7 C 1.6 km/h
1947 02-09-2020 18:10:00 20.2 C 11.02 g/m*3 20.2 C 0 km/h
1948 02-09-2020 18:15:00 19.9 C 11.17 g/m*3 19.9 C 0 km/h
1949 02-09-2020 18:20:00 19.7 C 11.21 g/m*3 19.7 C 4.8 km/h
1950 02-09-2020 18:25:00 19.6 C 11.48 g/m*3 19.6 C 0 km/h
Sensor: Nr:Datum:Temp:Abs-Feuchte:Windchill:Wind:
Aussen-T/F 1951 02-09-2020 18:30:00 19.6 C 11.65 g/m*3 19.6 C 0 km/h
1952 02-09-2020 18:35:00 19.7 C 11.38 g/m*3 19.7 C 0 km/h
1953 02-09-2020 18:40:00 19.8 C 11.61 g/m*3 19.8 C 0 km/h
1954 02-09-2020 18:45:00 19.9 C 11.51 g/m*3 19.9 C 0 km/h
1955 02-09-2020 18:50:00 19.8 C 11.44 g/m*3 19.8 C 0 km/h
1956 02-09-2020 18:55:00 19.7 C 11.38 g/m*3 19.7 C 0 km/h
1957 02-09-2020 19:00:00 19.4 C 11.35 g/m*3 19.4 C 0 km/h
1958 02-09-2020 19:05:00 19.2 C 9.73 g/m*3 19.2 C 0 km/h
1959 02-09-2020 19:10:00 19.3 C 11.28 g/m*3 19.3 C 1.6 km/h
1960 02-09-2020 19:15:00 19.2 C 11.21 g/m*3 19.2 C 3.2 km/h
1961 02-09-2020 19:20:00 19.1 C 10.98 g/m*3 19.1 C 4.8 km/h
1962 02-09-2020 19:25:00 18.8 C 10.79 g/m*3 18.8 C 4.8 km/h
1963 02-09-2020 19:30:00 18.6 C 10.66 g/m*3 18.6 C 0 km/h
1964 02-09-2020 19:35:00 18.3 C 10.48 g/m*3 18.3 C 0 km/h
1965 02-09-2020 19:40:00 18.1 C 10.66 g/m*3 18.1 C 6.4 km/h
1966 02-09-2020 19:45:00 17.8 C 10.32 g/m*3 17.8 C 8.1 km/h
1967 02-09-2020 19:50:00 17.6 C 10.2 g/m*3 17.6 C 8.1 km/h
1968 02-09-2020 19:55:00 17.3 C 10.02 g/m*3 17.3 C 8.1 km/h
1969 02-09-2020 20:00:00 17.1 C 9.9 g/m*3 17.1 C 8.1 km/h
1970 02-09-2020 20:05:00 16.9 C 9.64 g/m*3 16.9 C 8.1 km/h
1971 02-09-2020 20:10:00 16.7 C 9.66 g/m*3 16.7 C 8.1 km/h
1972 02-09-2020 20:15:00 16.5 C 9.69 g/m*3 16.5 C 8.1 km/h
1973 02-09-2020 20:20:00 16.3 C 9.43 g/m*3 16.3 C 8.1 km/h
1974 02-09-2020 20:25:00 16.2 C 9.38 g/m*3 16.2 C 8.1 km/h
1975 02-09-2020 20:30:00 16.1 C 9.46 g/m*3 16.1 C 6.4 km/h
Sensor: Nr:Datum:Temp:Abs-Feuchte:Windchill:Wind:
Aussen-T/F 1976 02-09-2020 20:35:00 16.1 C 9.46 g/m*3 16.1 C 8.1 km/h
1977 02-09-2020 20:40:00 15.9 C 9.34 g/m*3 15.9 C 6.4 km/h
1978 02-09-2020 20:45:00 15.8 C 9.56 g/m*3 15.8 C 6.4 km/h
1979 02-09-2020 20:50:00 15.7 C 9.5 g/m*3 15.7 C 6.4 km/h
1980 02-09-2020 20:55:00 15.7 C 9.77 g/m*3 15.7 C 6.4 km/h
1981 02-09-2020 21:00:00 15.5 C 9.52 g/m*3 15.5 C 0 km/h
1982 02-09-2020 21:05:00 15.4 C 9.46 g/m*3 15.4 C 0 km/h
1983 02-09-2020 21:10:00 15.3 C 9.66 g/m*3 15.3 C 0 km/h
1984 02-09-2020 21:15:00 15.2 C 9.73 g/m*3 15.2 C 0 km/h
1985 02-09-2020 21:20:00 15.1 C 9.8 g/m*3 15.1 C 0 km/h
1986 02-09-2020 21:25:00 14.8 C 9.63 g/m*3 14.8 C 0 km/h
1987 02-09-2020 21:30:00 14.7 C 9.69 g/m*3 14.7 C 0 km/h
1988 02-09-2020 21:35:00 14.5 C 9.58 g/m*3 14.5 C 0 km/h
1989 02-09-2020 21:40:00 14.4 C 9.77 g/m*3 14.4 C 0 km/h
1990 02-09-2020 21:45:00 14.3 C 9.71 g/m*3 14.3 C 0 km/h
1991 02-09-2020 21:50:00 14.2 C 9.89 g/m*3 14.2 C 0 km/h
1992 02-09-2020 21:55:00 14.2 C 9.89 g/m*3 14.2 C 0 km/h
1993 02-09-2020 22:00:00 14.2 C 9.89 g/m*3 14.2 C 0 km/h
1994 02-09-2020 22:05:00 14.1 C 9.95 g/m*3 14.1 C 0 km/h
1995 02-09-2020 22:10:00 14.1 C 9.95 g/m*3 14.1 C 0 km/h
1996 02-09-2020 22:15:00 14.2 C 10.14 g/m*3 14.2 C 0 km/h
1997 02-09-2020 22:20:00 14.2 C 10.01 g/m*3 14.2 C 0 km/h
1998 02-09-2020 22:25:00 14.2 C 10.01 g/m*3 14.2 C 0 km/h
1999 02-09-2020 22:30:00 14.2 C 10.14 g/m*3 14.2 C 0 km/h
2000 02-09-2020 22:35:00 14.2 C 10.14 g/m*3 14.2 C 0 km/h
Sensor: Nr:Datum:Temp:Abs-Feuchte:Windchill:Wind:
Aussen-T/F 2001 02-09-2020 22:40:00 14.2 C 10.14 g/m*3 14.2 C 0 km/h
2002 02-09-2020 22:45:00 14.2 C 10.14 g/m*3 14.2 C 0 km/h
2003 02-09-2020 22:50:00 14.1 C 9.95 g/m*3 14.1 C 0 km/h
2004 02-09-2020 22:55:00 14.1 C 10.07 g/m*3 14.1 C 0 km/h
2005 02-09-2020 23:00:00 14 C 10.01 g/m*3 14 C 0 km/h
2006 02-09-2020 23:05:00 13.9 C 9.95 g/m*3 13.9 C 0 km/h
2007 02-09-2020 23:10:00 13.9 C 9.95 g/m*3 13.9 C 0 km/h
2008 02-09-2020 23:15:00 13.8 C 9.89 g/m*3 13.8 C 0 km/h
2009 02-09-2020 23:20:00 13.7 C 9.71 g/m*3 13.7 C 0 km/h
2010 02-09-2020 23:25:00 13.6 C 9.77 g/m*3 13.6 C 0 km/h
2011 02-09-2020 23:30:00 13.5 C 9.59 g/m*3 13.5 C 0 km/h
2012 02-09-2020 23:35:00 13.3 C 9.47 g/m*3 13.3 C 0 km/h
2013 02-09-2020 23:40:00 13.2 C 9.53 g/m*3 13.2 C 0 km/h
2014 02-09-2020 23:45:00 13.2 C 9.53 g/m*3 13.2 C 0 km/h
2015 02-09-2020 23:50:00 13 C 9.3 g/m*3 13 C 0 km/h
2016 02-09-2020 23:55:00 12.9 C 9.35 g/m*3 12.9 C 0 km/h
2017 03-09-2020 00:00:00 12.8 C 9.41 g/m*3 12.8 C 0 km/h
2018 03-09-2020 00:05:00 12.8 C 9.41 g/m*3 12.8 C 0 km/h
2019 03-09-2020 00:10:00 12.7 C 9.35 g/m*3 12.7 C 0 km/h
2020 03-09-2020 00:15:00 12.6 C 9.29 g/m*3 12.6 C 0 km/h
2021 03-09-2020 00:20:00 12.4 C 9.29 g/m*3 12.4 C 0 km/h
2022 03-09-2020 00:25:00 12.4 C 9.29 g/m*3 12.4 C 0 km/h
2023 03-09-2020 00:30:00 12.3 C 9.23 g/m*3 12.3 C 0 km/h
2024 03-09-2020 00:35:00 12.2 C 9.17 g/m*3 12.2 C 0 km/h
2025 03-09-2020 00:40:00 12.1 C 9.22 g/m*3 12.1 C 0 km/h
Sensor: Nr:Datum:Temp:Abs-Feuchte:Windchill:Wind:
Aussen-T/F 2026 03-09-2020 00:45:00 11.9 C 9.11 g/m*3 11.9 C 0 km/h
2027 03-09-2020 00:50:00 11.9 C 9.11 g/m*3 11.9 C 0 km/h
2028 03-09-2020 00:55:00 11.8 C 9.05 g/m*3 11.8 C 0 km/h
2029 03-09-2020 01:00:00 11.8 C 9.16 g/m*3 11.8 C 0 km/h
2030 03-09-2020 01:05:00 11.7 C 9.1 g/m*3 11.7 C 0 km/h
2031 03-09-2020 01:10:00 11.6 C 9.04 g/m*3 11.6 C 0 km/h
2032 03-09-2020 01:15:00 11.6 C 9.04 g/m*3 11.6 C 0 km/h
2033 03-09-2020 01:20:00 11.5 C 8.99 g/m*3 11.5 C 0 km/h
2034 03-09-2020 01:25:00 11.4 C 9.03 g/m*3 11.4 C 0 km/h
2035 03-09-2020 01:30:00 11.3 C 8.98 g/m*3 11.3 C 0 km/h
2036 03-09-2020 01:35:00 11.3 C 8.98 g/m*3 11.3 C 0 km/h
2037 03-09-2020 01:40:00 11.2 C 8.92 g/m*3 11.2 C 0 km/h
2038 03-09-2020 01:45:00 11.2 C 8.92 g/m*3 11.2 C 0 km/h
2039 03-09-2020 01:50:00 11.1 C 8.96 g/m*3 11.1 C 0 km/h
2040 03-09-2020 01:55:00 10.9 C 8.85 g/m*3 10.9 C 0 km/h
2041 03-09-2020 02:00:00 10.8 C 8.8 g/m*3 10.8 C 0 km/h
2042 03-09-2020 02:05:00 10.8 C 8.8 g/m*3 10.8 C 0 km/h
2043 03-09-2020 02:10:00 10.7 C 8.74 g/m*3 10.7 C 0 km/h
2044 03-09-2020 02:15:00 10.7 C 8.74 g/m*3 10.7 C 0 km/h
2045 03-09-2020 02:20:00 10.6 C 8.78 g/m*3 10.6 C 0 km/h
2046 03-09-2020 02:25:00 10.6 C 8.78 g/m*3 10.6 C 0 km/h
2047 03-09-2020 02:30:00 10.5 C 8.73 g/m*3 10.5 C 0 km/h
2048 03-09-2020 02:35:00 10.4 C 8.67 g/m*3 10.4 C 0 km/h
2049 03-09-2020 02:40:00 10.4 C 8.67 g/m*3 10.4 C 0 km/h
2050 03-09-2020 02:45:00 10.4 C 8.77 g/m*3 10.4 C 0 km/h
Sensor: Nr:Datum:Temp:Abs-Feuchte:Windchill:Wind:
Aussen-T/F 2051 03-09-2020 02:50:00 10.4 C 8.77 g/m*3 10.4 C 0 km/h
2052 03-09-2020 02:55:00 10.4 C 8.77 g/m*3 10.4 C 0 km/h
2053 03-09-2020 03:00:00 10.4 C 8.77 g/m*3 10.4 C 0 km/h
2054 03-09-2020 03:05:00 10.4 C 8.77 g/m*3 10.4 C 0 km/h
2055 03-09-2020 03:10:00 10.4 C 8.77 g/m*3 10.4 C 0 km/h
2056 03-09-2020 03:15:00 10.3 C 8.71 g/m*3 10.3 C 0 km/h
2057 03-09-2020 03:20:00 10.3 C 8.71 g/m*3 10.3 C 0 km/h
2058 03-09-2020 03:25:00 10.3 C 8.81 g/m*3 10.3 C 0 km/h
2059 03-09-2020 03:30:00 10.2 C 8.76 g/m*3 10.2 C 0 km/h
2060 03-09-2020 03:35:00 10.2 C 8.76 g/m*3 10.2 C 0 km/h
2061 03-09-2020 03:40:00 10.2 C 8.76 g/m*3 10.2 C 0 km/h
2062 03-09-2020 03:45:00 10.2 C 8.76 g/m*3 10.2 C 0 km/h
2063 03-09-2020 03:50:00 10.2 C 8.76 g/m*3 10.2 C 0 km/h
2064 03-09-2020 03:55:00 10.2 C 8.76 g/m*3 10.2 C 0 km/h
2065 03-09-2020 04:00:00 10.1 C 8.7 g/m*3 10.1 C 0 km/h
2066 03-09-2020 04:05:00 10.1 C 8.7 g/m*3 10.1 C 0 km/h
2067 03-09-2020 04:10:00 10.1 C 8.7 g/m*3 10.1 C 0 km/h
2068 03-09-2020 04:15:00 10 C 8.64 g/m*3 10 C 0 km/h
2069 03-09-2020 04:20:00 10 C 8.64 g/m*3 10 C 0 km/h
2070 03-09-2020 04:25:00 10.1 C 8.79 g/m*3 10.1 C 0 km/h
2071 03-09-2020 04:30:00 10.1 C 8.79 g/m*3 10.1 C 0 km/h
2072 03-09-2020 04:35:00 10.1 C 8.79 g/m*3 10.1 C 0 km/h
2073 03-09-2020 04:40:00 10.1 C 8.79 g/m*3 10.1 C 0 km/h
2074 03-09-2020 04:45:00 10.1 C 8.79 g/m*3 10.1 C 0 km/h
2075 03-09-2020 04:50:00 10 C 8.74 g/m*3 10 C 0 km/h
Sensor: Nr:Datum:Temp:Abs-Feuchte:Windchill:Wind:
Aussen-T/F 2076 03-09-2020 04:55:00 9.9 C 8.68 g/m*3 9.9 C 0 km/h
2077 03-09-2020 05:00:00 9.9 C 8.68 g/m*3 9.9 C 0 km/h
2078 03-09-2020 05:05:00 9.9 C 8.68 g/m*3 9.9 C 0 km/h
2079 03-09-2020 05:10:00 9.8 C 8.63 g/m*3 9.8 C 0 km/h
2080 03-09-2020 05:15:00 9.8 C 8.63 g/m*3 9.8 C 0 km/h
2081 03-09-2020 05:20:00 9.7 C 8.57 g/m*3 9.7 C 0 km/h
2082 03-09-2020 05:25:00 9.7 C 8.57 g/m*3 9.7 C 0 km/h
2083 03-09-2020 05:30:00 9.7 C 8.57 g/m*3 9.7 C 0 km/h
2084 03-09-2020 05:35:00 9.8 C 8.72 g/m*3 9.8 C 0 km/h
2085 03-09-2020 05:40:00 9.8 C 8.72 g/m*3 9.8 C 0 km/h
2086 03-09-2020 05:45:00 9.9 C 8.78 g/m*3 9.9 C 1.6 km/h
2087 03-09-2020 05:50:00 10 C 8.83 g/m*3 10 C 1.6 km/h
2088 03-09-2020 05:55:00 10.1 C 8.89 g/m*3 10.1 C 0 km/h
2089 03-09-2020 06:00:00 10.1 C 8.89 g/m*3 10.1 C 0 km/h
2090 03-09-2020 06:05:00 10.1 C 8.89 g/m*3 10.1 C 0 km/h
2091 03-09-2020 06:10:00 10.1 C 8.89 g/m*3 10.1 C 0 km/h
2092 03-09-2020 06:15:00 10.1 C 8.89 g/m*3 10.1 C 0 km/h
2093 03-09-2020 06:20:00 10.1 C 8.89 g/m*3 10.1 C 0 km/h
2094 03-09-2020 06:25:00 10.1 C 8.89 g/m*3 10.1 C 1.6 km/h
2095 03-09-2020 06:30:00 10.2 C 8.95 g/m*3 10.2 C 0 km/h
2096 03-09-2020 06:35:00 10.2 C 8.95 g/m*3 10.2 C 0 km/h
2097 03-09-2020 06:40:00 10.2 C 8.95 g/m*3 10.2 C 0 km/h
2098 03-09-2020 06:45:00 10.2 C 8.95 g/m*3 10.2 C 0 km/h
2099 03-09-2020 06:50:00 10.2 C 8.95 g/m*3 10.2 C 0 km/h
2100 03-09-2020 06:55:00 10.1 C 8.89 g/m*3 10.1 C 0 km/h
Sensor: Nr:Datum:Temp:Abs-Feuchte:Windchill:Wind:
Aussen-T/F 2101 03-09-2020 07:00:00 10.2 C 8.95 g/m*3 10.2 C 1.6 km/h
2102 03-09-2020 07:05:00 10.2 C 8.95 g/m*3 10.2 C 0 km/h
2103 03-09-2020 07:10:00 10.2 C 8.95 g/m*3 10.2 C 0 km/h
2104 03-09-2020 07:15:00 10.3 C 9 g/m*3 10.3 C 0 km/h
2105 03-09-2020 07:20:00 10.3 C 9 g/m*3 10.3 C 0 km/h
2106 03-09-2020 07:25:00 10.3 C 9 g/m*3 10.3 C 0 km/h
2107 03-09-2020 07:30:00 10.4 C 9.06 g/m*3 10.4 C 0 km/h
2108 03-09-2020 07:35:00 10.4 C 9.06 g/m*3 10.4 C 0 km/h
2109 03-09-2020 07:40:00 10.4 C 9.06 g/m*3 10.4 C 0 km/h
2110 03-09-2020 07:45:00 10.5 C 9.12 g/m*3 10.5 C 0 km/h
2111 03-09-2020 07:50:00 10.5 C 9.12 g/m*3 10.5 C 0 km/h
2112 03-09-2020 07:55:00 10.6 C 9.17 g/m*3 10.6 C 0 km/h
2113 03-09-2020 08:00:00 10.7 C 9.23 g/m*3 10.7 C 0 km/h
2114 03-09-2020 08:05:00 10.7 C 9.23 g/m*3 10.7 C 0 km/h
2115 03-09-2020 08:10:00 10.8 C 9.29 g/m*3 10.8 C 0 km/h
2116 03-09-2020 08:15:00 10.9 C 9.35 g/m*3 10.9 C 0 km/h
2117 03-09-2020 08:20:00 11.1 C 9.47 g/m*3 11.1 C 0 km/h
2118 03-09-2020 08:25:00 11.2 C 9.53 g/m*3 11.2 C 1.6 km/h
2119 03-09-2020 08:30:00 11.3 C 9.49 g/m*3 11.3 C 0 km/h
2120 03-09-2020 08:35:00 11.4 C 9.55 g/m*3 11.4 C 0 km/h
2121 03-09-2020 08:40:00 11.6 C 9.67 g/m*3 11.6 C 0 km/h
2122 03-09-2020 08:45:00 11.7 C 9.62 g/m*3 11.7 C 1.6 km/h
2123 03-09-2020 08:50:00 11.8 C 9.58 g/m*3 11.8 C 4.8 km/h
2124 03-09-2020 08:55:00 11.9 C 9.64 g/m*3 11.9 C 1.6 km/h
2125 03-09-2020 09:00:00 12 C 9.59 g/m*3 12 C 3.2 km/h
Sensor: Nr:Datum:Temp:Abs-Feuchte:Windchill:Wind:
Aussen-T/F 2126 03-09-2020 09:05:00 12.1 C 9.65 g/m*3 12.1 C 1.6 km/h
2127 03-09-2020 09:10:00 12.2 C 9.71 g/m*3 12.2 C 0 km/h
2128 03-09-2020 09:15:00 12.3 C 9.66 g/m*3 12.3 C 1.6 km/h
2129 03-09-2020 09:20:00 12.5 C 9.78 g/m*3 12.5 C 1.6 km/h
2130 03-09-2020 09:25:00 12.7 C 9.91 g/m*3 12.7 C 0 km/h
2131 03-09-2020 09:30:00 12.9 C 10.03 g/m*3 12.9 C 1.6 km/h
2132 03-09-2020 09:35:00 13 C 9.98 g/m*3 13 C 1.6 km/h
2133 03-09-2020 09:40:00 13.2 C 10.1 g/m*3 13.2 C 3.2 km/h
2134 03-09-2020 09:45:00 13.3 C 10.17 g/m*3 13.3 C 1.6 km/h
2135 03-09-2020 09:50:00 13.4 C 10.11 g/m*3 13.4 C 0 km/h
2136 03-09-2020 09:55:00 13.6 C 10.24 g/m*3 13.6 C 0 km/h
2137 03-09-2020 10:00:00 13.7 C 10.18 g/m*3 13.7 C 1.6 km/h
2138 03-09-2020 10:05:00 13.8 C 10.13 g/m*3 13.8 C 3.2 km/h
2139 03-09-2020 10:10:00 13.9 C 10.31 g/m*3 13.9 C 0 km/h
2140 03-09-2020 10:15:00 14.1 C 10.32 g/m*3 14.1 C 1.6 km/h
2141 03-09-2020 10:20:00 14.2 C 10.26 g/m*3 14.2 C 0 km/h
2142 03-09-2020 10:25:00 14.4 C 10.38 g/m*3 14.4 C 0 km/h
2143 03-09-2020 10:30:00 14.7 C 10.58 g/m*3 14.7 C 0 km/h
2144 03-09-2020 10:35:00 14.9 C 10.58 g/m*3 14.9 C 0 km/h
2145 03-09-2020 10:40:00 15.1 C 10.71 g/m*3 15.1 C 0 km/h
2146 03-09-2020 10:45:00 15.3 C 10.71 g/m*3 15.3 C 0 km/h
2147 03-09-2020 10:50:00 15.5 C 10.84 g/m*3 15.5 C 0 km/h
2148 03-09-2020 10:55:00 15.7 C 10.97 g/m*3 15.7 C 0 km/h
2149 03-09-2020 11:00:00 16 C 11.04 g/m*3 16 C 0 km/h
2150 03-09-2020 11:05:00 16.3 C 11.1 g/m*3 16.3 C 1.6 km/h
Sensor: Nr:Datum:Temp:Abs-Feuchte:Windchill:Wind:
Aussen-T/F 2151 03-09-2020 11:10:00 16.7 C 11.08 g/m*3 16.7 C 4.8 km/h
2152 03-09-2020 11:15:00 17.1 C 11.21 g/m*3 17.1 C 4.8 km/h
2153 03-09-2020 11:20:00 17.4 C 11.12 g/m*3 17.4 C 9.7 km/h
2154 03-09-2020 11:25:00 17.7 C 11.16 g/m*3 17.7 C 11.3 km/h
2155 03-09-2020 11:30:00 18 C 11.06 g/m*3 18 C 9.7 km/h
2156 03-09-2020 11:35:00 18.2 C 11.19 g/m*3 18.2 C 8.1 km/h
2157 03-09-2020 11:40:00 18.4 C 11.17 g/m*3 18.4 C 8.1 km/h
2158 03-09-2020 11:45:00 18.5 C 10.92 g/m*3 18.5 C 8.1 km/h
2159 03-09-2020 11:50:00 18.6 C 11.14 g/m*3 18.6 C 6.4 km/h
2160 03-09-2020 11:55:00 18.7 C 11.21 g/m*3 18.7 C 9.7 km/h
2161 03-09-2020 12:00:00 18.8 C 11.11 g/m*3 18.8 C 8.1 km/h
2162 03-09-2020 12:05:00 18.8 C 10.95 g/m*3 18.8 C 6.4 km/h
2163 03-09-2020 12:10:00 19.1 C 11.31 g/m*3 19.1 C 4.8 km/h
2164 03-09-2020 12:15:00 19.2 C 11.21 g/m*3 19.2 C 4.8 km/h
2165 03-09-2020 12:20:00 19.2 C 11.21 g/m*3 19.2 C 11.3 km/h
2166 03-09-2020 12:25:00 19.3 C 11.11 g/m*3 19.3 C 8.1 km/h
2167 03-09-2020 12:30:00 19.4 C 11.01 g/m*3 19.4 C 11.3 km/h
2168 03-09-2020 12:35:00 19.5 C 11.08 g/m*3 19.5 C 8.1 km/h
2169 03-09-2020 12:40:00 19.6 C 11.14 g/m*3 19.6 C 9.7 km/h
2170 03-09-2020 12:45:00 19.7 C 11.04 g/m*3 19.7 C 8.1 km/h
2171 03-09-2020 12:50:00 19.7 C 11.21 g/m*3 19.7 C 9.7 km/h
2172 03-09-2020 12:55:00 19.7 C 11.04 g/m*3 19.7 C 11.3 km/h
2173 03-09-2020 13:00:00 19.7 C 10.87 g/m*3 19.7 C 11.3 km/h
2174 03-09-2020 13:05:00 19.6 C 11.14 g/m*3 19.6 C 9.7 km/h
2175 03-09-2020 13:10:00 19.5 C 11.08 g/m*3 19.5 C 8.1 km/h
Sensor: Nr:Datum:Temp:Abs-Feuchte:Windchill:Wind:
Aussen-T/F 2176 03-09-2020 13:15:00 19.5 C 11.08 g/m*3 19.5 C 9.7 km/h
2177 03-09-2020 13:20:00 19.3 C 10.95 g/m*3 19.3 C 11.3 km/h
2178 03-09-2020 13:25:00 19.3 C 11.11 g/m*3 19.3 C 9.7 km/h
2179 03-09-2020 13:30:00 19.1 C 11.31 g/m*3 19.1 C 6.4 km/h
2180 03-09-2020 13:35:00 18.9 C 11.83 g/m*3 18.9 C 3.2 km/h
2181 03-09-2020 13:40:00 18.8 C 12.24 g/m*3 18.8 C 8.1 km/h
2182 03-09-2020 13:45:00 18.6 C 12.26 g/m*3 18.6 C 4.8 km/h
2183 03-09-2020 13:50:00 18.4 C 12.43 g/m*3 18.4 C 1.6 km/h
2184 03-09-2020 13:55:00 18.3 C 12.35 g/m*3 18.3 C 4.8 km/h
2185 03-09-2020 14:00:00 18.1 C 12.21 g/m*3 18.1 C 8.1 km/h
2186 03-09-2020 14:05:00 17.9 C 11.91 g/m*3 17.9 C 6.4 km/h
2187 03-09-2020 14:10:00 17.8 C 11.99 g/m*3 17.8 C 8.1 km/h
2188 03-09-2020 14:15:00 17.7 C 11.77 g/m*3 17.7 C 6.4 km/h
2189 03-09-2020 14:20:00 17.6 C 11.85 g/m*3 17.6 C 8.1 km/h
2190 03-09-2020 14:25:00 17.6 C 11.85 g/m*3 17.6 C 8.1 km/h
2191 03-09-2020 14:30:00 17.5 C 11.63 g/m*3 17.5 C 3.2 km/h
2192 03-09-2020 14:35:00 17.6 C 11.85 g/m*3 17.6 C 0 km/h
2193 03-09-2020 14:40:00 17.7 C 11.92 g/m*3 17.7 C 0 km/h
2194 03-09-2020 14:45:00 17.7 C 11.92 g/m*3 17.7 C 0 km/h
2195 03-09-2020 14:50:00 17.8 C 11.84 g/m*3 17.8 C 3.2 km/h
2196 03-09-2020 14:55:00 17.8 C 11.99 g/m*3 17.8 C 0 km/h
2197 03-09-2020 15:00:00 17.9 C 12.06 g/m*3 17.9 C 1.6 km/h
2198 03-09-2020 15:05:00 17.9 C 12.06 g/m*3 17.9 C 4.8 km/h
2199 03-09-2020 15:10:00 17.9 C 12.21 g/m*3 17.9 C 1.6 km/h
2200 03-09-2020 15:15:00 18.1 C 12.67 g/m*3 18.1 C 0 km/h
Sensor: Nr:Datum:Temp:Abs-Feuchte:Windchill:Wind:
Aussen-T/F 2201 03-09-2020 15:20:00 18.1 C 12.67 g/m*3 18.1 C 0 km/h
2202 03-09-2020 15:25:00 18.2 C 12.75 g/m*3 18.2 C 3.2 km/h
2203 03-09-2020 15:30:00 18.1 C 12.21 g/m*3 18.1 C 1.6 km/h
2204 03-09-2020 15:35:00 18.1 C 12.36 g/m*3 18.1 C 3.2 km/h
2205 03-09-2020 15:40:00 18.1 C 12.21 g/m*3 18.1 C 1.6 km/h
2206 03-09-2020 15:45:00 18.1 C 12.05 g/m*3 18.1 C 12.9 km/h
2207 03-09-2020 15:50:00 17.9 C 12.21 g/m*3 17.9 C 16.1 km/h
2208 03-09-2020 15:55:00 17.5 C 12.23 g/m*3 17.5 C 16.1 km/h
2209 03-09-2020 16:00:00 17.2 C 12.3 g/m*3 17.2 C 6.4 km/h
2210 03-09-2020 16:05:00 16.7 C 12.08 g/m*3 16.7 C 9.7 km/h
2211 03-09-2020 16:10:00 16.4 C 12.14 g/m*3 16.4 C 6.4 km/h
2212 03-09-2020 16:15:00 16.2 C 12.27 g/m*3 16.2 C 4.8 km/h
2213 03-09-2020 16:20:00 16.1 C 12.2 g/m*3 16.1 C 1.6 km/h
2214 03-09-2020 16:25:00 16.1 C 12.34 g/m*3 16.1 C 0 km/h
2215 03-09-2020 16:30:00 16.1 C 12.47 g/m*3 16.1 C 1.6 km/h
2216 03-09-2020 16:35:00 16.1 C 12.47 g/m*3 16.1 C 1.6 km/h
2217 03-09-2020 16:40:00 16 C 12.4 g/m*3 16 C 4.8 km/h
2218 03-09-2020 16:45:00 15.8 C 12.25 g/m*3 15.8 C 1.6 km/h
2219 03-09-2020 16:50:00 15.8 C 12.38 g/m*3 15.8 C 3.2 km/h
2220 03-09-2020 16:55:00 15.9 C 12.46 g/m*3 15.9 C 0 km/h
2221 03-09-2020 17:00:00 15.9 C 12.59 g/m*3 15.9 C 0 km/h
2222 03-09-2020 17:05:00 15.9 C 12.59 g/m*3 15.9 C 1.6 km/h
2223 03-09-2020 17:10:00 15.9 C 12.46 g/m*3 15.9 C 0 km/h
2224 03-09-2020 17:15:00 15.9 C 12.46 g/m*3 15.9 C 3.2 km/h
2225 03-09-2020 17:20:00 15.8 C 12.38 g/m*3 15.8 C 0 km/h
Sensor: Nr:Datum:Temp:Abs-Feuchte:Windchill:Wind:
Aussen-T/F 2226 03-09-2020 17:25:00 15.8 C 12.38 g/m*3 15.8 C 0 km/h
2227 03-09-2020 17:30:00 15.8 C 12.52 g/m*3 15.8 C 1.6 km/h
2228 03-09-2020 17:35:00 15.8 C 12.52 g/m*3 15.8 C 0 km/h
2229 03-09-2020 17:40:00 15.9 C 12.59 g/m*3 15.9 C 0 km/h
2230 03-09-2020 17:45:00 15.8 C 12.52 g/m*3 15.8 C 3.2 km/h
2231 03-09-2020 17:50:00 15.9 C 12.59 g/m*3 15.9 C 3.2 km/h
2232 03-09-2020 17:55:00 15.9 C 12.59 g/m*3 15.9 C 1.6 km/h
2233 03-09-2020 18:00:00 15.9 C 12.59 g/m*3 15.9 C 1.6 km/h
2234 03-09-2020 18:05:00 15.9 C 12.59 g/m*3 15.9 C 0 km/h
2235 03-09-2020 18:10:00 15.9 C 12.59 g/m*3 15.9 C 0 km/h
2236 03-09-2020 18:15:00 15.9 C 12.59 g/m*3 15.9 C 0 km/h
2237 03-09-2020 18:20:00 16.1 C 12.88 g/m*3 16.1 C 0 km/h
2238 03-09-2020 18:25:00 16.2 C 12.96 g/m*3 16.2 C 1.6 km/h
2239 03-09-2020 18:30:00 16.3 C 13.04 g/m*3 16.3 C 1.6 km/h
2240 03-09-2020 18:35:00 16.3 C 13.04 g/m*3 16.3 C 0 km/h
2241 03-09-2020 18:40:00 16.3 C 13.04 g/m*3 16.3 C 3.2 km/h
2242 03-09-2020 18:45:00 16.2 C 12.82 g/m*3 16.2 C 3.2 km/h
2243 03-09-2020 18:50:00 16.2 C 12.82 g/m*3 16.2 C 1.6 km/h
2244 03-09-2020 18:55:00 16.2 C 12.82 g/m*3 16.2 C 3.2 km/h
2245 03-09-2020 19:00:00 16.1 C 12.75 g/m*3 16.1 C 3.2 km/h
2246 03-09-2020 19:05:00 16.1 C 12.75 g/m*3 16.1 C 0 km/h
2247 03-09-2020 19:10:00 16.1 C 12.88 g/m*3 16.1 C 0 km/h
2248 03-09-2020 19:15:00 16.1 C 12.88 g/m*3 16.1 C 1.6 km/h
2249 03-09-2020 19:20:00 16.1 C 12.88 g/m*3 16.1 C 3.2 km/h
2250 03-09-2020 19:25:00 16 C 12.81 g/m*3 16 C 3.2 km/h
Sensor: Nr:Datum:Temp:Abs-Feuchte:Windchill:Wind:
Aussen-T/F 2251 03-09-2020 19:30:00 15.9 C 12.73 g/m*3 15.9 C 3.2 km/h
2252 03-09-2020 19:35:00 15.9 C 12.73 g/m*3 15.9 C 3.2 km/h
2253 03-09-2020 19:40:00 15.8 C 12.65 g/m*3 15.8 C 3.2 km/h
2254 03-09-2020 19:45:00 15.8 C 12.65 g/m*3 15.8 C 3.2 km/h
2255 03-09-2020 19:50:00 15.8 C 12.65 g/m*3 15.8 C 3.2 km/h
2256 03-09-2020 19:55:00 15.7 C 12.58 g/m*3 15.7 C 3.2 km/h
2257 03-09-2020 20:00:00 15.7 C 12.58 g/m*3 15.7 C 1.6 km/h
2258 03-09-2020 20:05:00 15.7 C 12.58 g/m*3 15.7 C 3.2 km/h
2259 03-09-2020 20:10:00 15.6 C 12.5 g/m*3 15.6 C 0 km/h
2260 03-09-2020 20:15:00 15.6 C 12.5 g/m*3 15.6 C 3.2 km/h
2261 03-09-2020 20:20:00 15.6 C 12.5 g/m*3 15.6 C 4.8 km/h
2262 03-09-2020 20:25:00 15.6 C 12.5 g/m*3 15.6 C 0 km/h
2263 03-09-2020 20:30:00 15.5 C 12.43 g/m*3 15.5 C 0 km/h
2264 03-09-2020 20:35:00 15.4 C 12.35 g/m*3 15.4 C 0 km/h
2265 03-09-2020 20:40:00 15.4 C 12.35 g/m*3 15.4 C 1.6 km/h
2266 03-09-2020 20:45:00 15.3 C 12.28 g/m*3 15.3 C 0 km/h
2267 03-09-2020 20:50:00 15.3 C 12.28 g/m*3 15.3 C 1.6 km/h
2268 03-09-2020 20:55:00 15.3 C 12.28 g/m*3 15.3 C 4.8 km/h
2269 03-09-2020 21:00:00 15.3 C 12.28 g/m*3 15.3 C 4.8 km/h
2270 03-09-2020 21:05:00 15.3 C 12.28 g/m*3 15.3 C 4.8 km/h
2271 03-09-2020 21:10:00 15.2 C 12.2 g/m*3 15.2 C 3.2 km/h
2272 03-09-2020 21:15:00 15.2 C 12.2 g/m*3 15.2 C 3.2 km/h
2273 03-09-2020 21:20:00 15.2 C 12.2 g/m*3 15.2 C 1.6 km/h
2274 03-09-2020 21:25:00 15.3 C 12.41 g/m*3 15.3 C 0 km/h
2275 03-09-2020 21:30:00 15.3 C 12.41 g/m*3 15.3 C 1.6 km/h
Sensor: Nr:Datum:Temp:Abs-Feuchte:Windchill:Wind:
Aussen-T/F 2276 03-09-2020 21:35:00 15.3 C 12.41 g/m*3 15.3 C 0 km/h
2277 03-09-2020 21:40:00 15.3 C 12.41 g/m*3 15.3 C 3.2 km/h
2278 03-09-2020 21:45:00 15.3 C 12.41 g/m*3 15.3 C 1.6 km/h
2279 03-09-2020 21:50:00 15.3 C 12.41 g/m*3 15.3 C 0 km/h
2280 03-09-2020 21:55:00 15.4 C 12.48 g/m*3 15.4 C 0 km/h
2281 03-09-2020 22:00:00 15.4 C 12.48 g/m*3 15.4 C 0 km/h
2282 03-09-2020 22:05:00 15.5 C 12.56 g/m*3 15.5 C 1.6 km/h
2283 03-09-2020 22:10:00 15.6 C 12.5 g/m*3 15.6 C 1.6 km/h
2284 03-09-2020 22:15:00 15.6 C 12.5 g/m*3 15.6 C 0 km/h
2285 03-09-2020 22:20:00 15.6 C 12.63 g/m*3 15.6 C 0 km/h
2286 03-09-2020 22:25:00 15.7 C 12.71 g/m*3 15.7 C 0 km/h
2287 03-09-2020 22:30:00 15.7 C 12.58 g/m*3 15.7 C 1.6 km/h
2288 03-09-2020 22:35:00 15.7 C 12.58 g/m*3 15.7 C 1.6 km/h
2289 03-09-2020 22:40:00 15.7 C 12.58 g/m*3 15.7 C 0 km/h
2290 03-09-2020 22:45:00 15.7 C 12.58 g/m*3 15.7 C 1.6 km/h
2291 03-09-2020 22:50:00 15.7 C 12.58 g/m*3 15.7 C 0 km/h
2292 03-09-2020 22:55:00 15.7 C 12.58 g/m*3 15.7 C 0 km/h
2293 03-09-2020 23:00:00 15.7 C 12.58 g/m*3 15.7 C 0 km/h
2294 03-09-2020 23:05:00 15.7 C 12.58 g/m*3 15.7 C 0 km/h
2295 03-09-2020 23:10:00 15.7 C 12.58 g/m*3 15.7 C 0 km/h
2296 03-09-2020 23:15:00 15.7 C 12.58 g/m*3 15.7 C 0 km/h
2297 03-09-2020 23:20:00 15.7 C 12.58 g/m*3 15.7 C 0 km/h
2298 03-09-2020 23:25:00 15.7 C 12.58 g/m*3 15.7 C 0 km/h
2299 03-09-2020 23:30:00 15.7 C 12.58 g/m*3 15.7 C 0 km/h
2300 03-09-2020 23:35:00 15.8 C 12.65 g/m*3 15.8 C 0 km/h
Sensor: Nr:Datum:Temp:Abs-Feuchte:Windchill:Wind:
Aussen-T/F 2301 03-09-2020 23:40:00 15.8 C 12.65 g/m*3 15.8 C 1.6 km/h
2302 03-09-2020 23:45:00 15.8 C 12.65 g/m*3 15.8 C 0 km/h
2303 03-09-2020 23:50:00 15.9 C 12.73 g/m*3 15.9 C 0 km/h
2304 03-09-2020 23:55:00 15.9 C 12.73 g/m*3 15.9 C 0 km/h
2305 04-09-2020 00:00:00 15.8 C 12.65 g/m*3 15.8 C 0 km/h
2306 04-09-2020 00:05:00 15.8 C 12.65 g/m*3 15.8 C 0 km/h
2307 04-09-2020 00:10:00 15.8 C 12.65 g/m*3 15.8 C 0 km/h
2308 04-09-2020 00:15:00 15.8 C 12.65 g/m*3 15.8 C 0 km/h
2309 04-09-2020 00:20:00 15.8 C 12.65 g/m*3 15.8 C 0 km/h
2310 04-09-2020 00:25:00 15.8 C 12.65 g/m*3 15.8 C 0 km/h
2311 04-09-2020 00:30:00 15.8 C 12.65 g/m*3 15.8 C 0 km/h
2312 04-09-2020 00:35:00 15.8 C 12.65 g/m*3 15.8 C 0 km/h
2313 04-09-2020 00:40:00 15.8 C 12.65 g/m*3 15.8 C 0 km/h
2314 04-09-2020 00:45:00 15.9 C 12.73 g/m*3 15.9 C 0 km/h
2315 04-09-2020 00:50:00 15.9 C 12.73 g/m*3 15.9 C 0 km/h
2316 04-09-2020 00:55:00 15.9 C 12.73 g/m*3 15.9 C 0 km/h
2317 04-09-2020 01:00:00 15.9 C 12.73 g/m*3 15.9 C 0 km/h
2318 04-09-2020 01:05:00 15.8 C 12.65 g/m*3 15.8 C 0 km/h
2319 04-09-2020 01:10:00 15.8 C 12.65 g/m*3 15.8 C 0 km/h
2320 04-09-2020 01:15:00 15.8 C 12.65 g/m*3 15.8 C 0 km/h
2321 04-09-2020 01:20:00 15.8 C 12.65 g/m*3 15.8 C 0 km/h
2322 04-09-2020 01:25:00 15.7 C 12.58 g/m*3 15.7 C 0 km/h
2323 04-09-2020 01:30:00 15.7 C 12.58 g/m*3 15.7 C 0 km/h
2324 04-09-2020 01:35:00 15.7 C 12.58 g/m*3 15.7 C 1.6 km/h
2325 04-09-2020 01:40:00 15.8 C 12.65 g/m*3 15.8 C 1.6 km/h
Sensor: Nr:Datum:Temp:Abs-Feuchte:Windchill:Wind:
Aussen-T/F 2326 04-09-2020 01:45:00 15.8 C 12.65 g/m*3 15.8 C 0 km/h
2327 04-09-2020 01:50:00 15.8 C 12.65 g/m*3 15.8 C 1.6 km/h
2328 04-09-2020 01:55:00 15.8 C 12.65 g/m*3 15.8 C 0 km/h
2329 04-09-2020 02:00:00 15.8 C 12.52 g/m*3 15.8 C 3.2 km/h
2330 04-09-2020 02:05:00 15.7 C 12.44 g/m*3 15.7 C 1.6 km/h
2331 04-09-2020 02:10:00 15.7 C 12.44 g/m*3 15.7 C 1.6 km/h
2332 04-09-2020 02:15:00 15.7 C 12.44 g/m*3 15.7 C 0 km/h
2333 04-09-2020 02:20:00 15.7 C 12.44 g/m*3 15.7 C 0 km/h
2334 04-09-2020 02:25:00 15.7 C 12.44 g/m*3 15.7 C 1.6 km/h
2335 04-09-2020 02:30:00 15.8 C 12.52 g/m*3 15.8 C 1.6 km/h
2336 04-09-2020 02:35:00 15.8 C 12.52 g/m*3 15.8 C 1.6 km/h
2337 04-09-2020 02:40:00 15.9 C 12.59 g/m*3 15.9 C 1.6 km/h
2338 04-09-2020 02:45:00 16 C 12.67 g/m*3 16 C 0 km/h
2339 04-09-2020 02:50:00 16.1 C 12.61 g/m*3 16.1 C 0 km/h
2340 04-09-2020 02:55:00 16.2 C 12.82 g/m*3 16.2 C 0 km/h
2341 04-09-2020 03:00:00 16.3 C 12.9 g/m*3 16.3 C 0 km/h
2342 04-09-2020 03:05:00 16.4 C 12.98 g/m*3 16.4 C 1.6 km/h
2343 04-09-2020 03:10:00 16.4 C 12.84 g/m*3 16.4 C 3.2 km/h
2344 04-09-2020 03:15:00 16.4 C 12.84 g/m*3 16.4 C 4.8 km/h
2345 04-09-2020 03:20:00 16.4 C 12.84 g/m*3 16.4 C 0 km/h
2346 04-09-2020 03:25:00 16.4 C 12.84 g/m*3 16.4 C 0 km/h
2347 04-09-2020 03:30:00 16.4 C 12.7 g/m*3 16.4 C 0 km/h
2348 04-09-2020 03:35:00 16.5 C 12.78 g/m*3 16.5 C 0 km/h
2349 04-09-2020 03:40:00 16.6 C 12.86 g/m*3 16.6 C 0 km/h
2350 04-09-2020 03:45:00 16.6 C 12.86 g/m*3 16.6 C 0 km/h
Sensor: Nr:Datum:Temp:Abs-Feuchte:Windchill:Wind:
Aussen-T/F 2351 04-09-2020 03:50:00 16.6 C 12.86 g/m*3 16.6 C 0 km/h
2352 04-09-2020 03:55:00 16.6 C 12.86 g/m*3 16.6 C 0 km/h
2353 04-09-2020 04:00:00 16.6 C 12.86 g/m*3 16.6 C 0 km/h
2354 04-09-2020 04:05:00 16.6 C 12.71 g/m*3 16.6 C 0 km/h
2355 04-09-2020 04:10:00 16.6 C 12.71 g/m*3 16.6 C 0 km/h
2356 04-09-2020 04:15:00 16.6 C 12.71 g/m*3 16.6 C 0 km/h
2357 04-09-2020 04:20:00 16.7 C 12.79 g/m*3 16.7 C 0 km/h
2358 04-09-2020 04:25:00 16.8 C 13.01 g/m*3 16.8 C 0 km/h
2359 04-09-2020 04:30:00 16.8 C 12.87 g/m*3 16.8 C 0 km/h
2360 04-09-2020 04:35:00 16.8 C 12.87 g/m*3 16.8 C 0 km/h
2361 04-09-2020 04:40:00 16.8 C 12.87 g/m*3 16.8 C 0 km/h
2362 04-09-2020 04:45:00 16.7 C 12.79 g/m*3 16.7 C 0 km/h
2363 04-09-2020 04:50:00 16.7 C 12.79 g/m*3 16.7 C 0 km/h
2364 04-09-2020 04:55:00 16.7 C 12.79 g/m*3 16.7 C 0 km/h
2365 04-09-2020 05:00:00 16.7 C 12.79 g/m*3 16.7 C 0 km/h
2366 04-09-2020 05:05:00 16.7 C 12.79 g/m*3 16.7 C 0 km/h
2367 04-09-2020 05:10:00 16.7 C 12.79 g/m*3 16.7 C 0 km/h
2368 04-09-2020 05:15:00 16.7 C 12.79 g/m*3 16.7 C 0 km/h
2369 04-09-2020 05:20:00 16.7 C 12.79 g/m*3 16.7 C 0 km/h
2370 04-09-2020 05:25:00 16.7 C 12.79 g/m*3 16.7 C 0 km/h
2371 04-09-2020 05:30:00 16.7 C 12.79 g/m*3 16.7 C 0 km/h
2372 04-09-2020 05:35:00 16.7 C 12.93 g/m*3 16.7 C 0 km/h
2373 04-09-2020 05:40:00 16.7 C 12.93 g/m*3 16.7 C 0 km/h
2374 04-09-2020 05:45:00 16.7 C 12.93 g/m*3 16.7 C 0 km/h
2375 04-09-2020 05:50:00 16.7 C 12.93 g/m*3 16.7 C 0 km/h
Sensor: Nr:Datum:Temp:Abs-Feuchte:Windchill:Wind:
Aussen-T/F 2376 04-09-2020 05:55:00 16.7 C 12.93 g/m*3 16.7 C 0 km/h
2377 04-09-2020 06:00:00 16.6 C 12.86 g/m*3 16.6 C 0 km/h
2378 04-09-2020 06:05:00 16.6 C 12.71 g/m*3 16.6 C 0 km/h
2379 04-09-2020 06:10:00 16.6 C 12.71 g/m*3 16.6 C 4.8 km/h
2380 04-09-2020 06:15:00 16.5 C 12.64 g/m*3 16.5 C 4.8 km/h
2381 04-09-2020 06:20:00 16.5 C 12.64 g/m*3 16.5 C 3.2 km/h
2382 04-09-2020 06:25:00 16.5 C 12.64 g/m*3 16.5 C 0 km/h
2383 04-09-2020 06:30:00 16.6 C 12.71 g/m*3 16.6 C 0 km/h
2384 04-09-2020 06:35:00 16.6 C 12.71 g/m*3 16.6 C 3.2 km/h
2385 04-09-2020 06:40:00 16.6 C 12.57 g/m*3 16.6 C 1.6 km/h
2386 04-09-2020 06:45:00 16.6 C 12.71 g/m*3 16.6 C 0 km/h
2387 04-09-2020 06:50:00 16.6 C 12.71 g/m*3 16.6 C 0 km/h
2388 04-09-2020 06:55:00 16.7 C 12.79 g/m*3 16.7 C 3.2 km/h
2389 04-09-2020 07:00:00 16.7 C 12.65 g/m*3 16.7 C 3.2 km/h
2390 04-09-2020 07:05:00 16.7 C 12.65 g/m*3 16.7 C 3.2 km/h
2391 04-09-2020 07:10:00 16.7 C 12.65 g/m*3 16.7 C 0 km/h
2392 04-09-2020 07:15:00 16.7 C 12.65 g/m*3 16.7 C 0 km/h
2393 04-09-2020 07:20:00 16.8 C 12.72 g/m*3 16.8 C 0 km/h
2394 04-09-2020 07:25:00 16.8 C 12.72 g/m*3 16.8 C 0 km/h
2395 04-09-2020 07:30:00 16.8 C 12.72 g/m*3 16.8 C 3.2 km/h
2396 04-09-2020 07:35:00 16.8 C 12.72 g/m*3 16.8 C 0 km/h
2397 04-09-2020 07:40:00 16.8 C 12.58 g/m*3 16.8 C 0 km/h
2398 04-09-2020 07:45:00 16.8 C 12.72 g/m*3 16.8 C 0 km/h
2399 04-09-2020 07:50:00 16.9 C 12.8 g/m*3 16.9 C 0 km/h
2400 04-09-2020 07:55:00 16.9 C 12.8 g/m*3 16.9 C 0 km/h
Sensor: Nr:Datum:Temp:Abs-Feuchte:Windchill:Wind:
Aussen-T/F 2401 04-09-2020 08:00:00 17 C 13.02 g/m*3 17 C 0 km/h
2402 04-09-2020 08:05:00 17 C 13.02 g/m*3 17 C 0 km/h
2403 04-09-2020 08:10:00 17.1 C 12.96 g/m*3 17.1 C 0 km/h
2404 04-09-2020 08:15:00 17.1 C 12.96 g/m*3 17.1 C 3.2 km/h
2405 04-09-2020 08:20:00 17.1 C 12.96 g/m*3 17.1 C 1.6 km/h
2406 04-09-2020 08:25:00 17.1 C 12.96 g/m*3 17.1 C 0 km/h
2407 04-09-2020 08:30:00 17.2 C 13.03 g/m*3 17.2 C 0 km/h
2408 04-09-2020 08:35:00 17.2 C 13.03 g/m*3 17.2 C 0 km/h
2409 04-09-2020 08:40:00 17.2 C 12.89 g/m*3 17.2 C 0 km/h
2410 04-09-2020 08:45:00 17.3 C 12.96 g/m*3 17.3 C 0 km/h
2411 04-09-2020 08:50:00 17.4 C 13.19 g/m*3 17.4 C 0 km/h
2412 04-09-2020 08:55:00 17.4 C 13.04 g/m*3 17.4 C 0 km/h
2413 04-09-2020 09:00:00 17.6 C 13.2 g/m*3 17.6 C 0 km/h
2414 04-09-2020 09:05:00 17.7 C 13.28 g/m*3 17.7 C 0 km/h
2415 04-09-2020 09:10:00 17.9 C 12.98 g/m*3 17.9 C 4.8 km/h
2416 04-09-2020 09:15:00 18.1 C 13.29 g/m*3 18.1 C 1.6 km/h
2417 04-09-2020 09:20:00 18.3 C 13.45 g/m*3 18.3 C 1.6 km/h
2418 04-09-2020 09:25:00 18.4 C 13.37 g/m*3 18.4 C 1.6 km/h
2419 04-09-2020 09:30:00 18.6 C 13.53 g/m*3 18.6 C 1.6 km/h
2420 04-09-2020 09:35:00 18.6 C 13.53 g/m*3 18.6 C 0 km/h
2421 04-09-2020 09:40:00 18.7 C 13.61 g/m*3 18.7 C 0 km/h
2422 04-09-2020 09:45:00 18.7 C 13.61 g/m*3 18.7 C 1.6 km/h
2423 04-09-2020 09:50:00 18.8 C 13.53 g/m*3 18.8 C 1.6 km/h
2424 04-09-2020 09:55:00 18.8 C 13.53 g/m*3 18.8 C 0 km/h
2425 04-09-2020 10:00:00 18.9 C 13.61 g/m*3 18.9 C 0 km/h
Sensor: Nr:Datum:Temp:Abs-Feuchte:Windchill:Wind:
Aussen-T/F 2426 04-09-2020 10:05:00 18.9 C 13.61 g/m*3 18.9 C 0 km/h
2427 04-09-2020 10:10:00 18.9 C 13.28 g/m*3 18.9 C 0 km/h
2428 04-09-2020 10:15:00 19.1 C 13.61 g/m*3 19.1 C 0 km/h
2429 04-09-2020 10:20:00 19.1 C 13.61 g/m*3 19.1 C 0 km/h
2430 04-09-2020 10:25:00 19.2 C 13.52 g/m*3 19.2 C 0 km/h
2431 04-09-2020 10:30:00 19.3 C 13.77 g/m*3 19.3 C 0 km/h
2432 04-09-2020 10:35:00 19.4 C 13.85 g/m*3 19.4 C 0 km/h
2433 04-09-2020 10:40:00 19.4 C 13.68 g/m*3 19.4 C 0 km/h
2434 04-09-2020 10:45:00 19.6 C 13.84 g/m*3 19.6 C 0 km/h
2435 04-09-2020 10:50:00 19.6 C 13.84 g/m*3 19.6 C 0 km/h
2436 04-09-2020 10:55:00 19.7 C 13.92 g/m*3 19.7 C 1.6 km/h
2437 04-09-2020 11:00:00 19.7 C 13.58 g/m*3 19.7 C 4.8 km/h
2438 04-09-2020 11:05:00 19.7 C 13.75 g/m*3 19.7 C 1.6 km/h
2439 04-09-2020 11:10:00 19.8 C 13.66 g/m*3 19.8 C 1.6 km/h
2440 04-09-2020 11:15:00 19.9 C 13.92 g/m*3 19.9 C 0 km/h
2441 04-09-2020 11:20:00 20.1 C 13.91 g/m*3 20.1 C 0 km/h
2442 04-09-2020 11:25:00 20.3 C 14.07 g/m*3 20.3 C 0 km/h
2443 04-09-2020 11:30:00 20.4 C 13.8 g/m*3 20.4 C 3.2 km/h
2444 04-09-2020 11:35:00 20.6 C 13.78 g/m*3 20.6 C 0 km/h
2445 04-09-2020 11:40:00 20.7 C 14.04 g/m*3 20.7 C 0 km/h
2446 04-09-2020 11:45:00 20.9 C 13.66 g/m*3 20.9 C 4.8 km/h
2447 04-09-2020 11:50:00 21.1 C 13.45 g/m*3 21.1 C 3.2 km/h
2448 04-09-2020 11:55:00 21.3 C 13.98 g/m*3 21.3 C 3.2 km/h
2449 04-09-2020 12:00:00 21.5 C 13.77 g/m*3 21.5 C 4.8 km/h
2450 04-09-2020 12:05:00 21.7 C 13.54 g/m*3 21.7 C 12.9 km/h
Sensor: Nr:Datum:Temp:Abs-Feuchte:Windchill:Wind:
Aussen-T/F 2451 04-09-2020 12:10:00 21.9 C 13.89 g/m*3 21.9 C 12.9 km/h
2452 04-09-2020 12:15:00 22.1 C 13.86 g/m*3 22.1 C 9.7 km/h
2453 04-09-2020 12:20:00 22.3 C 14.02 g/m*3 22.3 C 11.3 km/h
2454 04-09-2020 12:25:00 22.4 C 14.1 g/m*3 22.4 C 9.7 km/h
2455 04-09-2020 12:30:00 22.6 C 13.86 g/m*3 22.6 C 9.7 km/h
2456 04-09-2020 12:35:00 22.8 C 14.02 g/m*3 22.8 C 11.3 km/h
2457 04-09-2020 12:40:00 22.9 C 14.51 g/m*3 22.9 C 11.3 km/h
2458 04-09-2020 12:45:00 22.9 C 14.31 g/m*3 22.9 C 9.7 km/h
2459 04-09-2020 12:50:00 23.1 C 14.47 g/m*3 23.1 C 9.7 km/h
2460 04-09-2020 12:55:00 23.2 C 14.34 g/m*3 23.2 C 12.9 km/h
2461 04-09-2020 13:00:00 23.3 C 14.64 g/m*3 23.3 C 11.3 km/h
2462 04-09-2020 13:05:00 23.6 C 14.68 g/m*3 23.6 C 14.5 km/h
2463 04-09-2020 13:10:00 23.8 C 14.41 g/m*3 23.8 C 16.1 km/h
2464 04-09-2020 13:15:00 23.9 C 14.49 g/m*3 23.9 C 12.9 km/h
2465 04-09-2020 13:20:00 24.2 C 14.52 g/m*3 24.2 C 12.9 km/h
2466 04-09-2020 13:25:00 24.4 C 14.47 g/m*3 24.4 C 12.9 km/h
2467 04-09-2020 13:30:00 24.7 C 14.49 g/m*3 24.7 C 19.3 km/h
2468 04-09-2020 13:35:00 24.8 C 14.57 g/m*3 24.8 C 19.3 km/h
2469 04-09-2020 13:40:00 25.1 C 14.35 g/m*3 25.1 C 14.5 km/h
2470 04-09-2020 13:45:00 25.3 C 14.98 g/m*3 25.3 C 11.3 km/h
2471 04-09-2020 13:50:00 25.4 C 14.83 g/m*3 25.4 C 11.3 km/h
2472 04-09-2020 13:55:00 25.5 C 14.91 g/m*3 25.5 C 14.5 km/h
2473 04-09-2020 14:00:00 25.6 C 14.52 g/m*3 25.6 C 12.9 km/h
2474 04-09-2020 14:05:00 25.7 C 14.6 g/m*3 25.7 C 14.5 km/h
2475 04-09-2020 14:10:00 25.6 C 14.76 g/m*3 25.6 C 11.3 km/h
Sensor: Nr:Datum:Temp:Abs-Feuchte:Windchill:Wind:
Aussen-T/F 2476 04-09-2020 14:15:00 25.6 C 14.52 g/m*3 25.6 C 12.9 km/h
2477 04-09-2020 14:20:00 25.5 C 14.44 g/m*3 25.5 C 12.9 km/h
2478 04-09-2020 14:25:00 25.5 C 14.68 g/m*3 25.5 C 12.9 km/h
2479 04-09-2020 14:30:00 25.6 C 14.76 g/m*3 25.6 C 6.4 km/h
2480 04-09-2020 14:35:00 25.7 C 14.6 g/m*3 25.7 C 9.7 km/h
2481 04-09-2020 14:40:00 25.7 C 14.36 g/m*3 25.7 C 9.7 km/h
2482 04-09-2020 14:45:00 25.8 C 14.93 g/m*3 25.8 C 4.8 km/h
2483 04-09-2020 14:50:00 25.9 C 15.49 g/m*3 25.9 C 3.2 km/h
2484 04-09-2020 14:55:00 25.9 C 14.28 g/m*3 25.9 C 11.3 km/h
2485 04-09-2020 15:00:00 25.7 C 14.6 g/m*3 25.7 C 4.8 km/h
2486 04-09-2020 15:05:00 25.7 C 14.6 g/m*3 25.7 C 9.7 km/h
2487 04-09-2020 15:10:00 25.6 C 14.52 g/m*3 25.6 C 3.2 km/h
2488 04-09-2020 15:15:00 25.6 C 14.52 g/m*3 25.6 C 6.4 km/h
2489 04-09-2020 15:20:00 25.6 C 14.52 g/m*3 25.6 C 4.8 km/h
2490 04-09-2020 15:25:00 25.6 C 14.52 g/m*3 25.6 C 6.4 km/h
2491 04-09-2020 15:30:00 25.7 C 14.6 g/m*3 25.7 C 6.4 km/h
2492 04-09-2020 15:35:00 25.8 C 14.93 g/m*3 25.8 C 3.2 km/h
2493 04-09-2020 15:40:00 25.8 C 14.69 g/m*3 25.8 C 6.4 km/h
2494 04-09-2020 15:45:00 25.8 C 14.93 g/m*3 25.8 C 0 km/h
2495 04-09-2020 15:50:00 25.8 C 14.69 g/m*3 25.8 C 3.2 km/h
2496 04-09-2020 15:55:00 25.9 C 14.53 g/m*3 25.9 C 4.8 km/h
2497 04-09-2020 16:00:00 25.9 C 14.53 g/m*3 25.9 C 3.2 km/h
2498 04-09-2020 16:05:00 26 C 14.61 g/m*3 26 C 6.4 km/h
2499 04-09-2020 16:10:00 26.1 C 14.44 g/m*3 26.1 C 3.2 km/h
2500 04-09-2020 16:15:00 26.2 C 14.52 g/m*3 26.2 C 3.2 km/h
Sensor: Nr:Datum:Temp:Abs-Feuchte:Windchill:Wind:
Aussen-T/F 2501 04-09-2020 16:20:00 26.3 C 14.85 g/m*3 26.3 C 3.2 km/h
2502 04-09-2020 16:25:00 26.2 C 14.28 g/m*3 26.2 C 4.8 km/h
2503 04-09-2020 16:30:00 26.2 C 14.52 g/m*3 26.2 C 1.6 km/h
2504 04-09-2020 16:35:00 26.3 C 14.61 g/m*3 26.3 C 3.2 km/h
2505 04-09-2020 16:40:00 26.4 C 14.44 g/m*3 26.4 C 3.2 km/h
2506 04-09-2020 16:45:00 26.5 C 14.77 g/m*3 26.5 C 0 km/h
2507 04-09-2020 16:50:00 26.9 C 15.36 g/m*3 26.9 C 0 km/h
2508 04-09-2020 16:55:00 27.1 C 14.49 g/m*3 27.1 C 3.2 km/h
2509 04-09-2020 17:00:00 27.3 C 14.91 g/m*3 27.3 C 0 km/h
2510 04-09-2020 17:05:00 27.6 C 14.63 g/m*3 27.6 C 1.6 km/h
2511 04-09-2020 17:10:00 28.1 C 15.04 g/m*3 28.1 C 4.8 km/h
2512 04-09-2020 17:15:00 28.4 C 14.73 g/m*3 28.4 C 6.4 km/h
2513 04-09-2020 17:20:00 28.8 C 14.77 g/m*3 28.8 C 6.4 km/h
2514 04-09-2020 17:25:00 28.8 C 14.77 g/m*3 28.8 C 8.1 km/h
2515 04-09-2020 17:30:00 28.7 C 15.26 g/m*3 28.7 C 0 km/h
2516 04-09-2020 17:35:00 28.6 C 16.02 g/m*3 28.6 C 1.6 km/h
2517 04-09-2020 17:40:00 28.3 C 16.59 g/m*3 28.3 C 0 km/h
2518 04-09-2020 17:45:00 28.1 C 15.59 g/m*3 28.1 C 0 km/h
2519 04-09-2020 17:50:00 27.8 C 16.41 g/m*3 27.8 C 0 km/h
2520 04-09-2020 17:55:00 27.4 C 15.79 g/m*3 27.4 C 0 km/h
2521 04-09-2020 18:00:00 27.1 C 16.04 g/m*3 27.1 C 0 km/h
2522 04-09-2020 18:05:00 26.7 C 15.44 g/m*3 26.7 C 9.7 km/h
2523 04-09-2020 18:10:00 26.2 C 15.51 g/m*3 26.2 C 8.1 km/h
2524 04-09-2020 18:15:00 25.8 C 15.41 g/m*3 25.8 C 9.7 km/h
2525 04-09-2020 18:20:00 25.4 C 15.54 g/m*3 25.4 C 9.7 km/h
Sensor: Nr:Datum:Temp:Abs-Feuchte:Windchill:Wind:
Aussen-T/F 2526 04-09-2020 18:25:00 25.4 C 15.77 g/m*3 25.4 C 8.1 km/h
2527 04-09-2020 18:30:00 25.4 C 16.01 g/m*3 25.4 C 6.4 km/h
2528 04-09-2020 18:35:00 25.4 C 16.01 g/m*3 25.4 C 11.3 km/h
2529 04-09-2020 18:40:00 25.2 C 15.83 g/m*3 25.2 C 6.4 km/h
2530 04-09-2020 18:45:00 24.9 C 15.79 g/m*3 24.9 C 8.1 km/h
2531 04-09-2020 18:50:00 24.6 C 15.75 g/m*3 24.6 C 8.1 km/h
2532 04-09-2020 18:55:00 24.4 C 16.02 g/m*3 24.4 C 8.1 km/h
2533 04-09-2020 19:00:00 24.2 C 15.84 g/m*3 24.2 C 6.4 km/h
2534 04-09-2020 19:05:00 24 C 15.88 g/m*3 24 C 3.2 km/h
2535 04-09-2020 19:10:00 23.9 C 15.79 g/m*3 23.9 C 3.2 km/h
2536 04-09-2020 19:15:00 23.8 C 15.92 g/m*3 23.8 C 3.2 km/h
2537 04-09-2020 19:20:00 23.6 C 15.95 g/m*3 23.6 C 4.8 km/h
2538 04-09-2020 19:25:00 23.4 C 15.77 g/m*3 23.4 C 4.8 km/h
2539 04-09-2020 19:30:00 23.3 C 15.68 g/m*3 23.3 C 1.6 km/h
2540 04-09-2020 19:35:00 23.2 C 15.8 g/m*3 23.2 C 4.8 km/h
2541 04-09-2020 19:40:00 23.1 C 15.71 g/m*3 23.1 C 4.8 km/h
2542 04-09-2020 19:45:00 22.9 C 15.74 g/m*3 22.9 C 6.4 km/h
2543 04-09-2020 19:50:00 22.8 C 15.85 g/m*3 22.8 C 4.8 km/h
2544 04-09-2020 19:55:00 22.7 C 15.96 g/m*3 22.7 C 4.8 km/h
2545 04-09-2020 20:00:00 22.5 C 15.78 g/m*3 22.5 C 4.8 km/h
2546 04-09-2020 20:05:00 22.3 C 15.8 g/m*3 22.3 C 8.1 km/h
2547 04-09-2020 20:10:00 22.2 C 15.71 g/m*3 22.2 C 0 km/h
2548 04-09-2020 20:15:00 22 C 15.53 g/m*3 22 C 0 km/h
2549 04-09-2020 20:20:00 21.7 C 15.45 g/m*3 21.7 C 0 km/h
2550 04-09-2020 20:25:00 21.4 C 15.37 g/m*3 21.4 C 0 km/h
Sensor: Nr:Datum:Temp:Abs-Feuchte:Windchill:Wind:
Aussen-T/F 2551 04-09-2020 20:30:00 21.2 C 15.2 g/m*3 21.2 C 0 km/h
2552 04-09-2020 20:35:00 20.9 C 15.12 g/m*3 20.9 C 0 km/h
2553 04-09-2020 20:40:00 20.7 C 15.12 g/m*3 20.7 C 0 km/h
2554 04-09-2020 20:45:00 20.4 C 15.04 g/m*3 20.4 C 0 km/h
2555 04-09-2020 20:50:00 20.3 C 15.3 g/m*3 20.3 C 4.8 km/h
2556 04-09-2020 20:55:00 20.3 C 15.3 g/m*3 20.3 C 0 km/h
2557 04-09-2020 21:00:00 20.2 C 15.21 g/m*3 20.2 C 1.6 km/h
2558 04-09-2020 21:05:00 20.1 C 15.3 g/m*3 20.1 C 4.8 km/h
2559 04-09-2020 21:10:00 20.1 C 15.3 g/m*3 20.1 C 3.2 km/h
2560 04-09-2020 21:15:00 20.1 C 15.3 g/m*3 20.1 C 3.2 km/h
2561 04-09-2020 21:20:00 20.1 C 15.12 g/m*3 20.1 C 3.2 km/h
2562 04-09-2020 21:25:00 20.1 C 15.12 g/m*3 20.1 C 3.2 km/h
2563 04-09-2020 21:30:00 20.1 C 15.12 g/m*3 20.1 C 1.6 km/h
2564 04-09-2020 21:35:00 20.1 C 15.12 g/m*3 20.1 C 1.6 km/h
2565 04-09-2020 21:40:00 20.1 C 15.12 g/m*3 20.1 C 1.6 km/h
2566 04-09-2020 21:45:00 20 C 15.04 g/m*3 20 C 1.6 km/h
2567 04-09-2020 21:50:00 20 C 15.04 g/m*3 20 C 0 km/h
2568 04-09-2020 21:55:00 19.9 C 14.95 g/m*3 19.9 C 0 km/h
2569 04-09-2020 22:00:00 19.9 C 14.95 g/m*3 19.9 C 0 km/h
2570 04-09-2020 22:05:00 19.9 C 14.95 g/m*3 19.9 C 1.6 km/h
2571 04-09-2020 22:10:00 19.8 C 14.86 g/m*3 19.8 C 1.6 km/h
2572 04-09-2020 22:15:00 19.8 C 14.86 g/m*3 19.8 C 1.6 km/h
2573 04-09-2020 22:20:00 19.8 C 14.86 g/m*3 19.8 C 1.6 km/h
2574 04-09-2020 22:25:00 19.7 C 14.77 g/m*3 19.7 C 0 km/h
2575 04-09-2020 22:30:00 19.6 C 14.69 g/m*3 19.6 C 0 km/h
Sensor: Nr:Datum:Temp:Abs-Feuchte:Windchill:Wind:
Aussen-T/F 2576 04-09-2020 22:35:00 19.4 C 14.35 g/m*3 19.4 C 0 km/h
2577 04-09-2020 22:40:00 19.2 C 14.35 g/m*3 19.2 C 0 km/h
2578 04-09-2020 22:45:00 19.1 C 14.26 g/m*3 19.1 C 0 km/h
2579 04-09-2020 22:50:00 19 C 14.34 g/m*3 19 C 0 km/h
2580 04-09-2020 22:55:00 18.9 C 14.42 g/m*3 18.9 C 0 km/h
2581 04-09-2020 23:00:00 18.9 C 14.42 g/m*3 18.9 C 0 km/h
2582 04-09-2020 23:05:00 18.8 C 14.33 g/m*3 18.8 C 0 km/h
2583 04-09-2020 23:10:00 18.8 C 14.49 g/m*3 18.8 C 0 km/h
2584 04-09-2020 23:15:00 18.8 C 14.49 g/m*3 18.8 C 0 km/h
2585 04-09-2020 23:20:00 18.8 C 14.49 g/m*3 18.8 C 0 km/h
2586 04-09-2020 23:25:00 18.8 C 14.49 g/m*3 18.8 C 0 km/h
2587 04-09-2020 23:30:00 18.7 C 14.41 g/m*3 18.7 C 0 km/h
2588 04-09-2020 23:35:00 18.7 C 14.57 g/m*3 18.7 C 0 km/h
2589 04-09-2020 23:40:00 18.7 C 14.57 g/m*3 18.7 C 0 km/h
2590 04-09-2020 23:45:00 18.6 C 14.48 g/m*3 18.6 C 0 km/h
2591 04-09-2020 23:50:00 18.6 C 14.48 g/m*3 18.6 C 0 km/h
2592 04-09-2020 23:55:00 18.5 C 14.4 g/m*3 18.5 C 0 km/h
2593 05-09-2020 00:00:00 18.4 C 14.16 g/m*3 18.4 C 0 km/h
2594 05-09-2020 00:05:00 18.3 C 14.23 g/m*3 18.3 C 1.6 km/h
2595 05-09-2020 00:10:00 18.2 C 13.99 g/m*3 18.2 C 4.8 km/h
2596 05-09-2020 00:15:00 18.1 C 14.06 g/m*3 18.1 C 0 km/h
2597 05-09-2020 00:20:00 17.9 C 13.89 g/m*3 17.9 C 3.2 km/h
2598 05-09-2020 00:25:00 17.8 C 13.81 g/m*3 17.8 C 4.8 km/h
2599 05-09-2020 00:30:00 17.7 C 13.73 g/m*3 17.7 C 3.2 km/h
2600 05-09-2020 00:35:00 17.6 C 13.65 g/m*3 17.6 C 3.2 km/h
Sensor: Nr:Datum:Temp:Abs-Feuchte:Windchill:Wind:
Aussen-T/F 2601 05-09-2020 00:40:00 17.6 C 13.8 g/m*3 17.6 C 3.2 km/h
2602 05-09-2020 00:45:00 17.4 C 13.49 g/m*3 17.4 C 0 km/h
2603 05-09-2020 00:50:00 17.3 C 13.41 g/m*3 17.3 C 0 km/h
2604 05-09-2020 00:55:00 17.2 C 13.47 g/m*3 17.2 C 0 km/h
2605 05-09-2020 01:00:00 17.2 C 13.47 g/m*3 17.2 C 0 km/h
2606 05-09-2020 01:05:00 17.1 C 13.39 g/m*3 17.1 C 0 km/h
2607 05-09-2020 01:10:00 16.9 C 13.23 g/m*3 16.9 C 0 km/h
2608 05-09-2020 01:15:00 16.8 C 13.15 g/m*3 16.8 C 0 km/h
2609 05-09-2020 01:20:00 16.8 C 13.15 g/m*3 16.8 C 0 km/h
2610 05-09-2020 01:25:00 16.7 C 13.07 g/m*3 16.7 C 0 km/h
2611 05-09-2020 01:30:00 16.6 C 13 g/m*3 16.6 C 0 km/h
2612 05-09-2020 01:35:00 16.4 C 12.84 g/m*3 16.4 C 0 km/h
2613 05-09-2020 01:40:00 16.3 C 12.9 g/m*3 16.3 C 0 km/h
2614 05-09-2020 01:45:00 16.3 C 12.9 g/m*3 16.3 C 0 km/h
2615 05-09-2020 01:50:00 16.2 C 12.82 g/m*3 16.2 C 0 km/h
2616 05-09-2020 01:55:00 16.1 C 12.75 g/m*3 16.1 C 0 km/h
2617 05-09-2020 02:00:00 16 C 12.67 g/m*3 16 C 0 km/h
2618 05-09-2020 02:05:00 15.9 C 12.59 g/m*3 15.9 C 0 km/h
2619 05-09-2020 02:10:00 15.9 C 12.59 g/m*3 15.9 C 0 km/h
2620 05-09-2020 02:15:00 15.8 C 12.65 g/m*3 15.8 C 0 km/h
2621 05-09-2020 02:20:00 15.8 C 12.65 g/m*3 15.8 C 0 km/h
2622 05-09-2020 02:25:00 15.8 C 12.65 g/m*3 15.8 C 0 km/h
2623 05-09-2020 02:30:00 15.8 C 12.65 g/m*3 15.8 C 0 km/h
2624 05-09-2020 02:35:00 15.9 C 12.73 g/m*3 15.9 C 0 km/h
2625 05-09-2020 02:40:00 15.9 C 12.73 g/m*3 15.9 C 0 km/h
Sensor: Nr:Datum:Temp:Abs-Feuchte:Windchill:Wind:
Aussen-T/F 2626 05-09-2020 02:45:00 15.9 C 12.73 g/m*3 15.9 C 0 km/h
2627 05-09-2020 02:50:00 15.9 C 12.73 g/m*3 15.9 C 0 km/h
2628 05-09-2020 02:55:00 15.9 C 12.73 g/m*3 15.9 C 0 km/h
2629 05-09-2020 03:00:00 15.9 C 12.87 g/m*3 15.9 C 0 km/h
2630 05-09-2020 03:05:00 15.9 C 12.87 g/m*3 15.9 C 0 km/h
2631 05-09-2020 03:10:00 15.9 C 12.87 g/m*3 15.9 C 0 km/h
2632 05-09-2020 03:15:00 16 C 12.94 g/m*3 16 C 0 km/h
2633 05-09-2020 03:20:00 16 C 12.94 g/m*3 16 C 0 km/h
2634 05-09-2020 03:25:00 16 C 12.94 g/m*3 16 C 0 km/h
2635 05-09-2020 03:30:00 16 C 12.94 g/m*3 16 C 0 km/h
2636 05-09-2020 03:35:00 16.1 C 13.02 g/m*3 16.1 C 0 km/h
2637 05-09-2020 03:40:00 16.1 C 13.02 g/m*3 16.1 C 0 km/h
2638 05-09-2020 03:45:00 16.2 C 13.1 g/m*3 16.2 C 0 km/h
2639 05-09-2020 03:50:00 16.2 C 13.1 g/m*3 16.2 C 0 km/h
2640 05-09-2020 03:55:00 16.2 C 13.1 g/m*3 16.2 C 0 km/h
2641 05-09-2020 04:00:00 16.3 C 13.18 g/m*3 16.3 C 0 km/h
2642 05-09-2020 04:05:00 16.3 C 13.18 g/m*3 16.3 C 0 km/h
2643 05-09-2020 04:10:00 16.3 C 13.32 g/m*3 16.3 C 0 km/h
2644 05-09-2020 04:15:00 16.4 C 13.4 g/m*3 16.4 C 0 km/h
2645 05-09-2020 04:20:00 16.5 C 13.48 g/m*3 16.5 C 0 km/h
2646 05-09-2020 04:25:00 16.6 C 13.56 g/m*3 16.6 C 4.8 km/h
2647 05-09-2020 04:30:00 16.6 C 13.56 g/m*3 16.6 C 0 km/h
2648 05-09-2020 04:35:00 16.6 C 13.56 g/m*3 16.6 C 0 km/h
2649 05-09-2020 04:40:00 16.6 C 13.56 g/m*3 16.6 C 0 km/h
2650 05-09-2020 04:45:00 16.6 C 13.56 g/m*3 16.6 C 0 km/h
Sensor: Nr:Datum:Temp:Abs-Feuchte:Windchill:Wind:
Aussen-T/F 2651 05-09-2020 04:50:00 16.6 C 13.56 g/m*3 16.6 C 0 km/h
2652 05-09-2020 04:55:00 16.7 C 13.64 g/m*3 16.7 C 0 km/h
2653 05-09-2020 05:00:00 16.7 C 13.64 g/m*3 16.7 C 0 km/h
2654 05-09-2020 05:05:00 16.7 C 13.64 g/m*3 16.7 C 0 km/h
2655 05-09-2020 05:10:00 16.7 C 13.64 g/m*3 16.7 C 0 km/h
2656 05-09-2020 05:15:00 16.7 C 13.64 g/m*3 16.7 C 0 km/h
2657 05-09-2020 05:20:00 16.7 C 13.64 g/m*3 16.7 C 0 km/h
2658 05-09-2020 05:25:00 16.7 C 13.64 g/m*3 16.7 C 0 km/h
2659 05-09-2020 05:30:00 16.7 C 13.64 g/m*3 16.7 C 0 km/h
2660 05-09-2020 05:35:00 16.7 C 13.5 g/m*3 16.7 C 0 km/h
2661 05-09-2020 05:40:00 16.7 C 13.5 g/m*3 16.7 C 0 km/h
2662 05-09-2020 05:45:00 16.7 C 13.5 g/m*3 16.7 C 0 km/h
2663 05-09-2020 05:50:00 16.7 C 13.5 g/m*3 16.7 C 0 km/h
2664 05-09-2020 05:55:00 16.7 C 13.5 g/m*3 16.7 C 0 km/h
2665 05-09-2020 06:00:00 16.7 C 13.5 g/m*3 16.7 C 0 km/h
2666 05-09-2020 06:05:00 16.7 C 13.5 g/m*3 16.7 C 0 km/h
2667 05-09-2020 06:10:00 16.7 C 13.5 g/m*3 16.7 C 0 km/h
2668 05-09-2020 06:15:00 16.7 C 13.5 g/m*3 16.7 C 8.1 km/h
2669 05-09-2020 06:20:00 16.6 C 13.42 g/m*3 16.6 C 4.8 km/h
2670 05-09-2020 06:25:00 16.4 C 13.12 g/m*3 16.4 C 9.7 km/h
2671 05-09-2020 06:30:00 16 C 12.4 g/m*3 16 C 12.9 km/h
2672 05-09-2020 06:35:00 15.9 C 12.05 g/m*3 15.9 C 4.8 km/h
2673 05-09-2020 06:40:00 15.8 C 11.85 g/m*3 15.8 C 8.1 km/h
2674 05-09-2020 06:45:00 15.8 C 11.58 g/m*3 15.8 C 12.9 km/h
2675 05-09-2020 06:50:00 15.9 C 11.65 g/m*3 15.9 C 6.4 km/h
Sensor: Nr:Datum:Temp:Abs-Feuchte:Windchill:Wind:
Aussen-T/F 2676 05-09-2020 06:55:00 15.9 C 11.51 g/m*3 15.9 C 4.8 km/h
2677 05-09-2020 07:00:00 15.9 C 11.51 g/m*3 15.9 C 3.2 km/h
2678 05-09-2020 07:05:00 15.9 C 11.51 g/m*3 15.9 C 3.2 km/h
2679 05-09-2020 07:10:00 15.9 C 11.38 g/m*3 15.9 C 1.6 km/h
2680 05-09-2020 07:15:00 15.9 C 11.38 g/m*3 15.9 C 6.4 km/h
2681 05-09-2020 07:20:00 15.9 C 11.51 g/m*3 15.9 C 4.8 km/h
2682 05-09-2020 07:25:00 15.9 C 11.38 g/m*3 15.9 C 1.6 km/h
2683 05-09-2020 07:30:00 15.8 C 11.44 g/m*3 15.8 C 3.2 km/h
2684 05-09-2020 07:35:00 15.8 C 11.44 g/m*3 15.8 C 1.6 km/h
2685 05-09-2020 07:40:00 15.8 C 11.44 g/m*3 15.8 C 6.4 km/h
2686 05-09-2020 07:45:00 15.7 C 11.37 g/m*3 15.7 C 6.4 km/h
2687 05-09-2020 07:50:00 15.7 C 11.37 g/m*3 15.7 C 8.1 km/h
2688 05-09-2020 07:55:00 15.6 C 11.3 g/m*3 15.6 C 1.6 km/h
2689 05-09-2020 08:00:00 15.6 C 11.3 g/m*3 15.6 C 4.8 km/h
2690 05-09-2020 08:05:00 15.6 C 11.3 g/m*3 15.6 C 6.4 km/h
2691 05-09-2020 08:10:00 15.6 C 11.3 g/m*3 15.6 C 3.2 km/h
2692 05-09-2020 08:15:00 15.6 C 11.3 g/m*3 15.6 C 1.6 km/h
2693 05-09-2020 08:20:00 15.5 C 11.24 g/m*3 15.5 C 4.8 km/h
2694 05-09-2020 08:25:00 15.5 C 11.24 g/m*3 15.5 C 1.6 km/h
2695 05-09-2020 08:30:00 15.5 C 11.37 g/m*3 15.5 C 0 km/h
2696 05-09-2020 08:35:00 15.5 C 11.37 g/m*3 15.5 C 0 km/h
2697 05-09-2020 08:40:00 15.4 C 11.3 g/m*3 15.4 C 3.2 km/h
2698 05-09-2020 08:45:00 15.4 C 11.3 g/m*3 15.4 C 0 km/h
2699 05-09-2020 08:50:00 15.4 C 11.3 g/m*3 15.4 C 0 km/h
2700 05-09-2020 08:55:00 15.5 C 11.37 g/m*3 15.5 C 1.6 km/h
Sensor: Nr:Datum:Temp:Abs-Feuchte:Windchill:Wind:
Aussen-T/F 2701 05-09-2020 09:00:00 15.6 C 11.44 g/m*3 15.6 C 1.6 km/h
2702 05-09-2020 09:05:00 15.6 C 11.44 g/m*3 15.6 C 1.6 km/h
2703 05-09-2020 09:10:00 15.7 C 11.37 g/m*3 15.7 C 3.2 km/h
2704 05-09-2020 09:15:00 15.8 C 11.44 g/m*3 15.8 C 3.2 km/h
2705 05-09-2020 09:20:00 15.9 C 11.38 g/m*3 15.9 C 3.2 km/h
2706 05-09-2020 09:25:00 15.9 C 11.24 g/m*3 15.9 C 4.8 km/h
2707 05-09-2020 09:30:00 15.9 C 11.38 g/m*3 15.9 C 1.6 km/h
2708 05-09-2020 09:35:00 15.9 C 11.24 g/m*3 15.9 C 0 km/h
2709 05-09-2020 09:40:00 15.9 C 11.24 g/m*3 15.9 C 1.6 km/h
2710 05-09-2020 09:45:00 16 C 11.44 g/m*3 16 C 6.4 km/h
2711 05-09-2020 09:50:00 16.1 C 11.24 g/m*3 16.1 C 4.8 km/h
2712 05-09-2020 09:55:00 16.2 C 11.31 g/m*3 16.2 C 9.7 km/h
2713 05-09-2020 10:00:00 16.2 C 11.31 g/m*3 16.2 C 4.8 km/h
2714 05-09-2020 10:05:00 16.2 C 11.17 g/m*3 16.2 C 6.4 km/h
2715 05-09-2020 10:10:00 16.2 C 11.17 g/m*3 16.2 C 1.6 km/h
2716 05-09-2020 10:15:00 16.3 C 11.24 g/m*3 16.3 C 3.2 km/h
2717 05-09-2020 10:20:00 16.3 C 11.24 g/m*3 16.3 C 1.6 km/h
2718 05-09-2020 10:25:00 16.4 C 11.31 g/m*3 16.4 C 9.7 km/h
2719 05-09-2020 10:30:00 16.6 C 11.3 g/m*3 16.6 C 9.7 km/h
2720 05-09-2020 10:35:00 16.8 C 11.44 g/m*3 16.8 C 6.4 km/h
2721 05-09-2020 10:40:00 17.1 C 11.79 g/m*3 17.1 C 6.4 km/h
2722 05-09-2020 10:45:00 17.2 C 11.86 g/m*3 17.2 C 11.3 km/h
2723 05-09-2020 10:50:00 17.2 C 11.72 g/m*3 17.2 C 9.7 km/h
2724 05-09-2020 10:55:00 17.2 C 11.57 g/m*3 17.2 C 11.3 km/h
2725 05-09-2020 11:00:00 17.2 C 11.72 g/m*3 17.2 C 9.7 km/h
Sensor: Nr:Datum:Temp:Abs-Feuchte:Windchill:Wind:
Aussen-T/F 2726 05-09-2020 11:05:00 17.3 C 11.64 g/m*3 17.3 C 4.8 km/h
2727 05-09-2020 11:10:00 17.4 C 11.56 g/m*3 17.4 C 9.7 km/h
2728 05-09-2020 11:15:00 17.5 C 11.63 g/m*3 17.5 C 8.1 km/h
2729 05-09-2020 11:20:00 17.6 C 11.4 g/m*3 17.6 C 12.9 km/h
2730 05-09-2020 11:25:00 17.8 C 11.54 g/m*3 17.8 C 8.1 km/h
2731 05-09-2020 11:30:00 17.9 C 11.76 g/m*3 17.9 C 0 km/h
2732 05-09-2020 11:35:00 18.2 C 11.66 g/m*3 18.2 C 8.1 km/h
2733 05-09-2020 11:40:00 18.2 C 11.5 g/m*3 18.2 C 6.4 km/h
2734 05-09-2020 11:45:00 18.2 C 11.5 g/m*3 18.2 C 6.4 km/h
2735 05-09-2020 11:50:00 18.1 C 11.43 g/m*3 18.1 C 8.1 km/h
2736 05-09-2020 11:55:00 18.1 C 11.43 g/m*3 18.1 C 12.9 km/h
2737 05-09-2020 12:00:00 18.1 C 11.59 g/m*3 18.1 C 4.8 km/h
2738 05-09-2020 12:05:00 18.1 C 11.43 g/m*3 18.1 C 14.5 km/h
2739 05-09-2020 12:10:00 18.2 C 11.5 g/m*3 18.2 C 11.3 km/h
2740 05-09-2020 12:15:00 18.3 C 11.41 g/m*3 18.3 C 9.7 km/h
2741 05-09-2020 12:20:00 18.3 C 11.41 g/m*3 18.3 C 11.3 km/h
2742 05-09-2020 12:25:00 18.3 C 11.26 g/m*3 18.3 C 11.3 km/h
2743 05-09-2020 12:30:00 18.4 C 11.48 g/m*3 18.4 C 9.7 km/h
2744 05-09-2020 12:35:00 18.5 C 11.39 g/m*3 18.5 C 6.4 km/h
2745 05-09-2020 12:40:00 18.6 C 11.14 g/m*3 18.6 C 12.9 km/h
2746 05-09-2020 12:45:00 18.6 C 11.14 g/m*3 18.6 C 17.7 km/h
2747 05-09-2020 12:50:00 18.5 C 11.23 g/m*3 18.5 C 11.3 km/h
2748 05-09-2020 12:55:00 18.5 C 11.39 g/m*3 18.5 C 12.9 km/h
2749 05-09-2020 13:00:00 18.6 C 11.3 g/m*3 18.6 C 11.3 km/h
2750 05-09-2020 13:05:00 18.6 C 11.3 g/m*3 18.6 C 12.9 km/h
Sensor: Nr:Datum:Temp:Abs-Feuchte:Windchill:Wind:
Aussen-T/F 2751 05-09-2020 13:10:00 18.6 C 11.3 g/m*3 18.6 C 8.1 km/h
2752 05-09-2020 13:15:00 18.6 C 11.3 g/m*3 18.6 C 8.1 km/h
2753 05-09-2020 13:20:00 18.6 C 11.3 g/m*3 18.6 C 17.7 km/h
2754 05-09-2020 13:25:00 18.6 C 11.3 g/m*3 18.6 C 14.5 km/h
2755 05-09-2020 13:30:00 18.7 C 11.53 g/m*3 18.7 C 9.7 km/h
2756 05-09-2020 13:35:00 18.7 C 11.21 g/m*3 18.7 C 12.9 km/h
2757 05-09-2020 13:40:00 18.7 C 11.37 g/m*3 18.7 C 11.3 km/h
2758 05-09-2020 13:45:00 18.6 C 11.3 g/m*3 18.6 C 11.3 km/h
2759 05-09-2020 13:50:00 18.7 C 11.37 g/m*3 18.7 C 8.1 km/h
2760 05-09-2020 13:55:00 18.7 C 11.21 g/m*3 18.7 C 6.4 km/h
2761 05-09-2020 14:00:00 18.8 C 10.95 g/m*3 18.8 C 12.9 km/h
2762 05-09-2020 14:05:00 18.8 C 10.95 g/m*3 18.8 C 14.5 km/h
2763 05-09-2020 14:10:00 18.8 C 11.11 g/m*3 18.8 C 6.4 km/h
2764 05-09-2020 14:15:00 18.9 C 11.18 g/m*3 18.9 C 14.5 km/h
2765 05-09-2020 14:20:00 19 C 11.24 g/m*3 19 C 12.9 km/h
2766 05-09-2020 14:25:00 19.1 C 11.15 g/m*3 19.1 C 12.9 km/h
2767 05-09-2020 14:30:00 19.2 C 11.21 g/m*3 19.2 C 11.3 km/h
2768 05-09-2020 14:35:00 19.1 C 11.15 g/m*3 19.1 C 12.9 km/h
2769 05-09-2020 14:40:00 18.9 C 11.18 g/m*3 18.9 C 12.9 km/h
2770 05-09-2020 14:45:00 18.7 C 11.37 g/m*3 18.7 C 17.7 km/h
2771 05-09-2020 14:50:00 18.4 C 11.32 g/m*3 18.4 C 12.9 km/h
2772 05-09-2020 14:55:00 18.2 C 11.19 g/m*3 18.2 C 12.9 km/h
2773 05-09-2020 15:00:00 18 C 11.21 g/m*3 18 C 16.1 km/h
2774 05-09-2020 15:05:00 17.8 C 11.23 g/m*3 17.8 C 8.1 km/h
2775 05-09-2020 15:10:00 17.7 C 11.32 g/m*3 17.7 C 14.5 km/h
Sensor: Nr:Datum:Temp:Abs-Feuchte:Windchill:Wind:
Aussen-T/F 2776 05-09-2020 15:15:00 17.6 C 11.1 g/m*3 17.6 C 9.7 km/h
2777 05-09-2020 15:20:00 17.6 C 11.1 g/m*3 17.6 C 8.1 km/h
2778 05-09-2020 15:25:00 17.5 C 11.03 g/m*3 17.5 C 8.1 km/h
2779 05-09-2020 15:30:00 17.4 C 10.97 g/m*3 17.4 C 11.3 km/h
2780 05-09-2020 15:35:00 17.5 C 11.03 g/m*3 17.5 C 11.3 km/h
2781 05-09-2020 15:40:00 17.7 C 11.01 g/m*3 17.7 C 11.3 km/h
2782 05-09-2020 15:45:00 18 C 11.21 g/m*3 18 C 9.7 km/h
2783 05-09-2020 15:50:00 18.2 C 10.88 g/m*3 18.2 C 16.1 km/h
2784 05-09-2020 15:55:00 18.2 C 10.72 g/m*3 18.2 C 11.3 km/h
2785 05-09-2020 16:00:00 18.2 C 10.88 g/m*3 18.2 C 11.3 km/h
2786 05-09-2020 16:05:00 18.2 C 10.72 g/m*3 18.2 C 11.3 km/h
2787 05-09-2020 16:10:00 18.2 C 10.57 g/m*3 18.2 C 9.7 km/h
2788 05-09-2020 16:15:00 18.3 C 10.63 g/m*3 18.3 C 11.3 km/h
2789 05-09-2020 16:20:00 18.5 C 10.76 g/m*3 18.5 C 8.1 km/h
2790 05-09-2020 16:25:00 18.7 C 10.73 g/m*3 18.7 C 11.3 km/h
2791 05-09-2020 16:30:00 18.8 C 10.63 g/m*3 18.8 C 8.1 km/h
2792 05-09-2020 16:35:00 18.9 C 10.85 g/m*3 18.9 C 11.3 km/h
2793 05-09-2020 16:40:00 19.1 C 10.66 g/m*3 19.1 C 6.4 km/h
2794 05-09-2020 16:45:00 19.1 C 10.66 g/m*3 19.1 C 8.1 km/h
2795 05-09-2020 16:50:00 19.1 C 10.49 g/m*3 19.1 C 9.7 km/h
2796 05-09-2020 16:55:00 19.1 C 10.49 g/m*3 19.1 C 9.7 km/h
2797 05-09-2020 17:00:00 19 C 10.27 g/m*3 19 C 9.7 km/h
2798 05-09-2020 17:05:00 19 C 10.43 g/m*3 19 C 8.1 km/h
2799 05-09-2020 17:10:00 19.2 C 10.39 g/m*3 19.2 C 9.7 km/h
2800 05-09-2020 17:15:00 19.3 C 10.12 g/m*3 19.3 C 11.3 km/h
Sensor: Nr:Datum:Temp:Abs-Feuchte:Windchill:Wind:
Aussen-T/F 2801 05-09-2020 17:20:00 19.4 C 10.34 g/m*3 19.4 C 9.7 km/h
2802 05-09-2020 17:25:00 19.5 C 10.07 g/m*3 19.5 C 8.1 km/h
2803 05-09-2020 17:30:00 19.6 C 9.96 g/m*3 19.6 C 9.7 km/h
2804 05-09-2020 17:35:00 19.6 C 9.96 g/m*3 19.6 C 11.3 km/h
2805 05-09-2020 17:40:00 19.6 C 9.79 g/m*3 19.6 C 9.7 km/h
2806 05-09-2020 17:45:00 19.7 C 9.68 g/m*3 19.7 C 11.3 km/h
2807 05-09-2020 17:50:00 19.7 C 9.68 g/m*3 19.7 C 6.4 km/h
2808 05-09-2020 17:55:00 19.7 C 9.85 g/m*3 19.7 C 8.1 km/h
2809 05-09-2020 18:00:00 19.7 C 9.51 g/m*3 19.7 C 12.9 km/h
2810 05-09-2020 18:05:00 19.6 C 9.28 g/m*3 19.6 C 9.7 km/h
2811 05-09-2020 18:10:00 19.5 C 9.57 g/m*3 19.5 C 4.8 km/h
2812 05-09-2020 18:15:00 19.5 C 9.57 g/m*3 19.5 C 6.4 km/h
2813 05-09-2020 18:20:00 19.8 C 9.22 g/m*3 19.8 C 8.1 km/h
2814 05-09-2020 18:25:00 20.3 C 9.15 g/m*3 20.3 C 6.4 km/h
2815 05-09-2020 18:30:00 20.7 C 9.36 g/m*3 20.7 C 6.4 km/h
2816 05-09-2020 18:35:00 20.7 C 8.82 g/m*3 20.7 C 11.3 km/h
2817 05-09-2020 18:40:00 20.8 C 8.51 g/m*3 20.8 C 9.7 km/h
2818 05-09-2020 18:45:00 20.8 C 8.33 g/m*3 20.8 C 12.9 km/h
2819 05-09-2020 18:50:00 20.7 C 9 g/m*3 20.7 C 1.6 km/h
2820 05-09-2020 18:55:00 20.3 C 8.44 g/m*3 20.3 C 4.8 km/h
2821 05-09-2020 19:00:00 19.9 C 8.59 g/m*3 19.9 C 3.2 km/h
2822 05-09-2020 19:05:00 19.6 C 8.44 g/m*3 19.6 C 8.1 km/h
2823 05-09-2020 19:10:00 19.5 C 9.57 g/m*3 19.5 C 4.8 km/h
2824 05-09-2020 19:15:00 19.4 C 10.01 g/m*3 19.4 C 0 km/h
2825 05-09-2020 19:20:00 19.1 C 9.34 g/m*3 19.1 C 0 km/h
Sensor: Nr:Datum:Temp:Abs-Feuchte:Windchill:Wind:
Aussen-T/F 2826 05-09-2020 19:25:00 18.8 C 9.18 g/m*3 18.8 C 0 km/h
2827 05-09-2020 19:30:00 18.6 C 9.23 g/m*3 18.6 C 0 km/h
2828 05-09-2020 19:35:00 18.3 C 9.69 g/m*3 18.3 C 0 km/h
2829 05-09-2020 19:40:00 18 C 9.68 g/m*3 18 C 3.2 km/h
2830 05-09-2020 19:45:00 17.6 C 9.15 g/m*3 17.6 C 1.6 km/h
2831 05-09-2020 19:50:00 17.3 C 8.69 g/m*3 17.3 C 0 km/h
2832 05-09-2020 19:55:00 17.1 C 9.03 g/m*3 17.1 C 0 km/h
2833 05-09-2020 20:00:00 16.8 C 9.29 g/m*3 16.8 C 0 km/h
2834 05-09-2020 20:05:00 16.7 C 8.81 g/m*3 16.7 C 6.4 km/h
2835 05-09-2020 20:10:00 16.7 C 8.81 g/m*3 16.7 C 8.1 km/h
2836 05-09-2020 20:15:00 16.7 C 8.95 g/m*3 16.7 C 4.8 km/h
2837 05-09-2020 20:20:00 16.7 C 8.95 g/m*3 16.7 C 0 km/h
2838 05-09-2020 20:25:00 16.7 C 9.38 g/m*3 16.7 C 0 km/h
2839 05-09-2020 20:30:00 16.6 C 9.18 g/m*3 16.6 C 6.4 km/h
2840 05-09-2020 20:35:00 16.5 C 9.27 g/m*3 16.5 C 4.8 km/h
2841 05-09-2020 20:40:00 16.3 C 9.3 g/m*3 16.3 C 3.2 km/h
2842 05-09-2020 20:45:00 16.1 C 9.46 g/m*3 16.1 C 4.8 km/h
2843 05-09-2020 20:50:00 15.7 C 9.37 g/m*3 15.7 C 4.8 km/h
2844 05-09-2020 20:55:00 15.4 C 9.46 g/m*3 15.4 C 0 km/h
2845 05-09-2020 21:00:00 15.1 C 9.42 g/m*3 15.1 C 6.4 km/h
2846 05-09-2020 21:05:00 14.9 C 9.43 g/m*3 14.9 C 4.8 km/h
2847 05-09-2020 21:10:00 14.7 C 9.44 g/m*3 14.7 C 0 km/h
2848 05-09-2020 21:15:00 14.5 C 9.33 g/m*3 14.5 C 0 km/h
2849 05-09-2020 21:20:00 14.4 C 9.39 g/m*3 14.4 C 3.2 km/h
2850 05-09-2020 21:25:00 14.3 C 9.46 g/m*3 14.3 C 3.2 km/h
Sensor: Nr:Datum:Temp:Abs-Feuchte:Windchill:Wind:
Aussen-T/F 2851 05-09-2020 21:30:00 14.2 C 9.28 g/m*3 14.2 C 3.2 km/h
2852 05-09-2020 21:35:00 14.2 C 9.28 g/m*3 14.2 C 0 km/h
2853 05-09-2020 21:40:00 14.2 C 9.4 g/m*3 14.2 C 4.8 km/h
2854 05-09-2020 21:45:00 14.1 C 9.22 g/m*3 14.1 C 1.6 km/h
2855 05-09-2020 21:50:00 13.9 C 9.23 g/m*3 13.9 C 4.8 km/h
2856 05-09-2020 21:55:00 13.8 C 9.29 g/m*3 13.8 C 4.8 km/h
2857 05-09-2020 22:00:00 13.8 C 9.29 g/m*3 13.8 C 3.2 km/h
2858 05-09-2020 22:05:00 13.7 C 9.12 g/m*3 13.7 C 6.4 km/h
2859 05-09-2020 22:10:00 13.7 C 9.24 g/m*3 13.7 C 4.8 km/h
2860 05-09-2020 22:15:00 13.7 C 9.24 g/m*3 13.7 C 4.8 km/h
2861 05-09-2020 22:20:00 13.7 C 9.24 g/m*3 13.7 C 4.8 km/h
2862 05-09-2020 22:25:00 13.7 C 9.24 g/m*3 13.7 C 4.8 km/h
2863 05-09-2020 22:30:00 13.6 C 9.18 g/m*3 13.6 C 4.8 km/h
2864 05-09-2020 22:35:00 13.7 C 9.24 g/m*3 13.7 C 6.4 km/h
2865 05-09-2020 22:40:00 13.8 C 9.29 g/m*3 13.8 C 3.2 km/h
2866 05-09-2020 22:45:00 13.8 C 9.41 g/m*3 13.8 C 0 km/h
2867 05-09-2020 22:50:00 13.8 C 9.41 g/m*3 13.8 C 0 km/h
2868 05-09-2020 22:55:00 13.7 C 9.35 g/m*3 13.7 C 0 km/h
2869 05-09-2020 23:00:00 13.6 C 9.3 g/m*3 13.6 C 0 km/h
2870 05-09-2020 23:05:00 13.4 C 9.18 g/m*3 13.4 C 4.8 km/h
2871 05-09-2020 23:10:00 13.3 C 9.24 g/m*3 13.3 C 4.8 km/h
2872 05-09-2020 23:15:00 13.2 C 9.19 g/m*3 13.2 C 3.2 km/h
2873 05-09-2020 23:20:00 13.1 C 9.24 g/m*3 13.1 C 6.4 km/h
2874 05-09-2020 23:25:00 13.1 C 9.24 g/m*3 13.1 C 4.8 km/h
2875 05-09-2020 23:30:00 13.1 C 9.36 g/m*3 13.1 C 6.4 km/h
Sensor: Nr:Datum:Temp:Abs-Feuchte:Windchill:Wind:
Aussen-T/F 2876 05-09-2020 23:35:00 12.9 C 9.24 g/m*3 12.9 C 4.8 km/h
2877 05-09-2020 23:40:00 12.9 C 9.24 g/m*3 12.9 C 4.8 km/h
2878 05-09-2020 23:45:00 12.8 C 9.07 g/m*3 12.8 C 4.8 km/h
2879 05-09-2020 23:50:00 12.8 C 9.18 g/m*3 12.8 C 4.8 km/h
2880 05-09-2020 23:55:00 12.8 C 9.18 g/m*3 12.8 C 4.8 km/h
2881 06-09-2020 00:00:00 12.8 C 9.18 g/m*3 12.8 C 3.2 km/h
2882 06-09-2020 00:05:00 12.8 C 9.18 g/m*3 12.8 C 3.2 km/h
2883 06-09-2020 00:10:00 12.7 C 9.24 g/m*3 12.7 C 3.2 km/h
2884 06-09-2020 00:15:00 12.7 C 9.24 g/m*3 12.7 C 4.8 km/h
2885 06-09-2020 00:20:00 12.7 C 9.24 g/m*3 12.7 C 4.8 km/h
2886 06-09-2020 00:25:00 12.6 C 9.18 g/m*3 12.6 C 3.2 km/h
2887 06-09-2020 00:30:00 12.6 C 9.18 g/m*3 12.6 C 0 km/h
2888 06-09-2020 00:35:00 12.5 C 9.13 g/m*3 12.5 C 3.2 km/h
2889 06-09-2020 00:40:00 12.4 C 9.18 g/m*3 12.4 C 1.6 km/h
2890 06-09-2020 00:45:00 12.3 C 9.12 g/m*3 12.3 C 4.8 km/h
2891 06-09-2020 00:50:00 12.3 C 9.23 g/m*3 12.3 C 1.6 km/h
2892 06-09-2020 00:55:00 12.2 C 9.17 g/m*3 12.2 C 0 km/h
2893 06-09-2020 01:00:00 12.2 C 9.17 g/m*3 12.2 C 0 km/h
2894 06-09-2020 01:05:00 12.1 C 9.22 g/m*3 12.1 C 0 km/h
2895 06-09-2020 01:10:00 11.9 C 9.11 g/m*3 11.9 C 0 km/h
2896 06-09-2020 01:15:00 11.9 C 9.11 g/m*3 11.9 C 0 km/h
2897 06-09-2020 01:20:00 11.8 C 9.16 g/m*3 11.8 C 0 km/h
2898 06-09-2020 01:25:00 11.8 C 9.16 g/m*3 11.8 C 0 km/h
2899 06-09-2020 01:30:00 11.8 C 9.16 g/m*3 11.8 C 0 km/h
2900 06-09-2020 01:35:00 11.7 C 9.1 g/m*3 11.7 C 0 km/h
Sensor: Nr:Datum:Temp:Abs-Feuchte:Windchill:Wind:
Aussen-T/F 2901 06-09-2020 01:40:00 11.6 C 9.04 g/m*3 11.6 C 0 km/h
2902 06-09-2020 01:45:00 11.4 C 8.93 g/m*3 11.4 C 0 km/h
2903 06-09-2020 01:50:00 11.3 C 8.87 g/m*3 11.3 C 0 km/h
2904 06-09-2020 01:55:00 11.2 C 8.92 g/m*3 11.2 C 0 km/h
2905 06-09-2020 02:00:00 11.1 C 8.76 g/m*3 11.1 C 0 km/h
2906 06-09-2020 02:05:00 10.9 C 8.75 g/m*3 10.9 C 0 km/h
2907 06-09-2020 02:10:00 10.8 C 8.7 g/m*3 10.8 C 0 km/h
2908 06-09-2020 02:15:00 10.7 C 8.64 g/m*3 10.7 C 1.6 km/h
2909 06-09-2020 02:20:00 10.6 C 8.69 g/m*3 10.6 C 0 km/h
2910 06-09-2020 02:25:00 10.5 C 8.63 g/m*3 10.5 C 0 km/h
2911 06-09-2020 02:30:00 10.4 C 8.58 g/m*3 10.4 C 0 km/h
2912 06-09-2020 02:35:00 10.4 C 8.58 g/m*3 10.4 C 0 km/h
2913 06-09-2020 02:40:00 10.3 C 8.52 g/m*3 10.3 C 0 km/h
2914 06-09-2020 02:45:00 10.2 C 8.47 g/m*3 10.2 C 0 km/h
2915 06-09-2020 02:50:00 10.2 C 8.56 g/m*3 10.2 C 0 km/h
2916 06-09-2020 02:55:00 10.1 C 8.51 g/m*3 10.1 C 0 km/h
2917 06-09-2020 03:00:00 10 C 8.46 g/m*3 10 C 0 km/h
2918 06-09-2020 03:05:00 9.9 C 8.4 g/m*3 9.9 C 0 km/h
2919 06-09-2020 03:10:00 9.9 C 8.4 g/m*3 9.9 C 0 km/h
2920 06-09-2020 03:15:00 9.8 C 8.35 g/m*3 9.8 C 1.6 km/h
2921 06-09-2020 03:20:00 9.7 C 8.3 g/m*3 9.7 C 0 km/h
2922 06-09-2020 03:25:00 9.7 C 8.39 g/m*3 9.7 C 0 km/h
2923 06-09-2020 03:30:00 9.6 C 8.34 g/m*3 9.6 C 0 km/h
2924 06-09-2020 03:35:00 9.6 C 8.34 g/m*3 9.6 C 0 km/h
2925 06-09-2020 03:40:00 9.5 C 8.28 g/m*3 9.5 C 0 km/h
Sensor: Nr:Datum:Temp:Abs-Feuchte:Windchill:Wind:
Aussen-T/F 2926 06-09-2020 03:45:00 9.4 C 8.23 g/m*3 9.4 C 1.6 km/h
2927 06-09-2020 03:50:00 9.4 C 8.32 g/m*3 9.4 C 0 km/h
2928 06-09-2020 03:55:00 9.3 C 8.27 g/m*3 9.3 C 0 km/h
2929 06-09-2020 04:00:00 9.3 C 8.27 g/m*3 9.3 C 0 km/h
2930 06-09-2020 04:05:00 9.3 C 8.36 g/m*3 9.3 C 0 km/h
2931 06-09-2020 04:10:00 9.3 C 8.27 g/m*3 9.3 C 0 km/h
2932 06-09-2020 04:15:00 9.3 C 8.27 g/m*3 9.3 C 0 km/h
2933 06-09-2020 04:20:00 9.2 C 8.22 g/m*3 9.2 C 0 km/h
2934 06-09-2020 04:25:00 9.1 C 8.16 g/m*3 9.1 C 0 km/h
2935 06-09-2020 04:30:00 9.1 C 8.16 g/m*3 9.1 C 0 km/h
2936 06-09-2020 04:35:00 8.9 C 8.06 g/m*3 8.9 C 0 km/h
2937 06-09-2020 04:40:00 8.9 C 8.06 g/m*3 8.9 C 0 km/h
2938 06-09-2020 04:45:00 8.8 C 8.01 g/m*3 8.8 C 1.6 km/h
2939 06-09-2020 04:50:00 8.8 C 8.09 g/m*3 8.8 C 0 km/h
2940 06-09-2020 04:55:00 8.8 C 8.09 g/m*3 8.8 C 0 km/h
2941 06-09-2020 05:00:00 8.7 C 8.04 g/m*3 8.7 C 1.6 km/h
2942 06-09-2020 05:05:00 8.7 C 8.04 g/m*3 8.7 C 0 km/h
2943 06-09-2020 05:10:00 8.7 C 8.04 g/m*3 8.7 C 0 km/h
2944 06-09-2020 05:15:00 8.7 C 8.04 g/m*3 8.7 C 0 km/h
2945 06-09-2020 05:20:00 8.6 C 7.99 g/m*3 8.6 C 1.6 km/h
2946 06-09-2020 05:25:00 8.6 C 7.99 g/m*3 8.6 C 1.6 km/h
2947 06-09-2020 05:30:00 8.6 C 8.08 g/m*3 8.6 C 0 km/h
2948 06-09-2020 05:35:00 8.7 C 8.13 g/m*3 8.7 C 0 km/h
2949 06-09-2020 05:40:00 8.6 C 8.08 g/m*3 8.6 C 0 km/h
2950 06-09-2020 05:45:00 8.6 C 7.99 g/m*3 8.6 C 0 km/h
Sensor: Nr:Datum:Temp:Abs-Feuchte:Windchill:Wind:
Aussen-T/F 2951 06-09-2020 05:50:00 8.4 C 7.97 g/m*3 8.4 C 0 km/h
2952 06-09-2020 05:55:00 8.4 C 7.97 g/m*3 8.4 C 0 km/h
2953 06-09-2020 06:00:00 8.3 C 7.84 g/m*3 8.3 C 0 km/h
2954 06-09-2020 06:05:00 8.3 C 7.84 g/m*3 8.3 C 0 km/h
2955 06-09-2020 06:10:00 8.2 C 7.87 g/m*3 8.2 C 0 km/h
2956 06-09-2020 06:15:00 8.2 C 7.87 g/m*3 8.2 C 0 km/h
2957 06-09-2020 06:20:00 8.1 C 7.82 g/m*3 8.1 C 0 km/h
2958 06-09-2020 06:25:00 8.1 C 7.82 g/m*3 8.1 C 0 km/h
2959 06-09-2020 06:30:00 8 C 7.77 g/m*3 8 C 0 km/h
2960 06-09-2020 06:35:00 8.1 C 7.82 g/m*3 8.1 C 0 km/h
2961 06-09-2020 06:40:00 8.2 C 7.87 g/m*3 8.2 C 0 km/h
2962 06-09-2020 06:45:00 8.2 C 7.87 g/m*3 8.2 C 0 km/h
2963 06-09-2020 06:50:00 8.2 C 7.87 g/m*3 8.2 C 0 km/h
2964 06-09-2020 06:55:00 8.2 C 7.87 g/m*3 8.2 C 0 km/h
2965 06-09-2020 07:00:00 8.1 C 7.82 g/m*3 8.1 C 0 km/h
2966 06-09-2020 07:05:00 7.9 C 7.72 g/m*3 7.9 C 0 km/h
2967 06-09-2020 07:10:00 7.9 C 7.72 g/m*3 7.9 C 1.6 km/h
2968 06-09-2020 07:15:00 7.9 C 7.8 g/m*3 7.9 C 0 km/h
2969 06-09-2020 07:20:00 8 C 7.85 g/m*3 8 C 0 km/h
2970 06-09-2020 07:25:00 8 C 7.85 g/m*3 8 C 0 km/h
2971 06-09-2020 07:30:00 8.1 C 7.9 g/m*3 8.1 C 0 km/h
2972 06-09-2020 07:35:00 8.1 C 7.9 g/m*3 8.1 C 0 km/h
2973 06-09-2020 07:40:00 8.1 C 7.9 g/m*3 8.1 C 0 km/h
2974 06-09-2020 07:45:00 8.1 C 7.9 g/m*3 8.1 C 0 km/h
2975 06-09-2020 07:50:00 8.1 C 7.9 g/m*3 8.1 C 0 km/h
Sensor: Nr:Datum:Temp:Abs-Feuchte:Windchill:Wind:
Aussen-T/F 2976 06-09-2020 07:55:00 8.1 C 7.9 g/m*3 8.1 C 0 km/h
2977 06-09-2020 08:00:00 8 C 7.85 g/m*3 8 C 0 km/h
2978 06-09-2020 08:05:00 8 C 7.85 g/m*3 8 C 0 km/h
2979 06-09-2020 08:10:00 8 C 7.85 g/m*3 8 C 0 km/h
2980 06-09-2020 08:15:00 8 C 7.85 g/m*3 8 C 0 km/h
2981 06-09-2020 08:20:00 8.1 C 7.9 g/m*3 8.1 C 0 km/h
2982 06-09-2020 08:25:00 8.1 C 7.9 g/m*3 8.1 C 0 km/h
2983 06-09-2020 08:30:00 8.1 C 7.9 g/m*3 8.1 C 0 km/h
2984 06-09-2020 08:35:00 8.1 C 7.9 g/m*3 8.1 C 3.2 km/h
2985 06-09-2020 08:40:00 8.2 C 7.96 g/m*3 8.2 C 3.2 km/h
2986 06-09-2020 08:45:00 8.2 C 7.96 g/m*3 8.2 C 0 km/h
2987 06-09-2020 08:50:00 8.3 C 8.01 g/m*3 8.3 C 0 km/h
2988 06-09-2020 08:55:00 8.4 C 8.06 g/m*3 8.4 C 0 km/h
2989 06-09-2020 09:00:00 8.5 C 8.2 g/m*3 8.5 C 0 km/h
2990 06-09-2020 09:05:00 8.6 C 8.25 g/m*3 8.6 C 1.6 km/h
2991 06-09-2020 09:10:00 8.7 C 8.22 g/m*3 8.7 C 0 km/h
2992 06-09-2020 09:15:00 8.7 C 8.22 g/m*3 8.7 C 0 km/h
2993 06-09-2020 09:20:00 8.8 C 8.27 g/m*3 8.8 C 3.2 km/h
2994 06-09-2020 09:25:00 8.8 C 8.36 g/m*3 8.8 C 3.2 km/h
2995 06-09-2020 09:30:00 8.9 C 8.41 g/m*3 8.9 C 0 km/h
2996 06-09-2020 09:35:00 9.1 C 8.52 g/m*3 9.1 C 0 km/h
2997 06-09-2020 09:40:00 9.2 C 8.57 g/m*3 9.2 C 0 km/h
2998 06-09-2020 09:45:00 9.3 C 8.63 g/m*3 9.3 C 3.2 km/h
2999 06-09-2020 09:50:00 9.4 C 8.68 g/m*3 9.4 C 4.8 km/h
3000 06-09-2020 09:55:00 9.6 C 8.79 g/m*3 9.6 C 0 km/h
Sensor: Nr:Datum:Temp:Abs-Feuchte:Windchill:Wind:
Aussen-T/F 3001 06-09-2020 10:00:00 9.7 C 8.85 g/m*3 9.7 C 0 km/h
3002 06-09-2020 10:05:00 9.8 C 8.91 g/m*3 9.8 C 1.6 km/h
3003 06-09-2020 10:10:00 9.9 C 8.96 g/m*3 9.9 C 1.6 km/h
3004 06-09-2020 10:15:00 10.1 C 9.08 g/m*3 10.1 C 1.6 km/h
3005 06-09-2020 10:20:00 10.3 C 9.19 g/m*3 10.3 C 0 km/h
3006 06-09-2020 10:25:00 10.4 C 9.25 g/m*3 10.4 C 0 km/h
3007 06-09-2020 10:30:00 10.6 C 9.37 g/m*3 10.6 C 0 km/h
3008 06-09-2020 10:35:00 10.8 C 9.39 g/m*3 10.8 C 0 km/h
3009 06-09-2020 10:40:00 11.1 C 9.57 g/m*3 11.1 C 0 km/h
3010 06-09-2020 10:45:00 11.3 C 9.59 g/m*3 11.3 C 0 km/h
3011 06-09-2020 10:50:00 11.6 C 9.77 g/m*3 11.6 C 0 km/h
3012 06-09-2020 10:55:00 11.8 C 9.79 g/m*3 11.8 C 0 km/h
3013 06-09-2020 11:00:00 12.1 C 9.76 g/m*3 12.1 C 0 km/h
3014 06-09-2020 11:05:00 12.4 C 9.83 g/m*3 12.4 C 0 km/h
3015 06-09-2020 11:10:00 12.7 C 9.68 g/m*3 12.7 C 0 km/h
3016 06-09-2020 11:15:00 12.9 C 9.81 g/m*3 12.9 C 0 km/h
3017 06-09-2020 11:20:00 13.3 C 9.82 g/m*3 13.3 C 0 km/h
3018 06-09-2020 11:25:00 13.6 C 9.77 g/m*3 13.6 C 0 km/h
3019 06-09-2020 11:30:00 14 C 9.53 g/m*3 14 C 0 km/h
3020 06-09-2020 11:35:00 14.4 C 9.52 g/m*3 14.4 C 0 km/h
3021 06-09-2020 11:40:00 14.7 C 9.32 g/m*3 14.7 C 0 km/h
3022 06-09-2020 11:45:00 15 C 9.23 g/m*3 15 C 0 km/h
3023 06-09-2020 11:50:00 15.3 C 9.4 g/m*3 15.3 C 0 km/h
3024 06-09-2020 11:55:00 15.7 C 9.5 g/m*3 15.7 C 6.4 km/h
3025 06-09-2020 12:00:00 15.8 C 9.29 g/m*3 15.8 C 4.8 km/h
Sensor: Nr:Datum:Temp:Abs-Feuchte:Windchill:Wind:
Aussen-T/F 3026 06-09-2020 12:05:00 16 C 9.4 g/m*3 16 C 4.8 km/h
3027 06-09-2020 12:10:00 16.1 C 9.32 g/m*3 16.1 C 0 km/h
3028 06-09-2020 12:15:00 16.2 C 9.38 g/m*3 16.2 C 3.2 km/h
3029 06-09-2020 12:20:00 16.3 C 9.3 g/m*3 16.3 C 6.4 km/h
3030 06-09-2020 12:25:00 16.3 C 9.16 g/m*3 16.3 C 3.2 km/h
3031 06-09-2020 12:30:00 16.4 C 9.07 g/m*3 16.4 C 9.7 km/h
3032 06-09-2020 12:35:00 16.6 C 9.04 g/m*3 16.6 C 8.1 km/h
3033 06-09-2020 12:40:00 16.7 C 9.1 g/m*3 16.7 C 3.2 km/h
3034 06-09-2020 12:45:00 16.8 C 9.01 g/m*3 16.8 C 0 km/h
3035 06-09-2020 12:50:00 16.9 C 8.92 g/m*3 16.9 C 6.4 km/h
3036 06-09-2020 12:55:00 17.1 C 9.17 g/m*3 17.1 C 8.1 km/h
3037 06-09-2020 13:00:00 17.2 C 9.23 g/m*3 17.2 C 8.1 km/h
3038 06-09-2020 13:05:00 17.3 C 8.99 g/m*3 17.3 C 8.1 km/h
3039 06-09-2020 13:10:00 17.4 C 8.89 g/m*3 17.4 C 3.2 km/h
3040 06-09-2020 13:15:00 17.4 C 8.89 g/m*3 17.4 C 8.1 km/h
3041 06-09-2020 13:20:00 17.5 C 8.8 g/m*3 17.5 C 6.4 km/h
3042 06-09-2020 13:25:00 17.5 C 8.65 g/m*3 17.5 C 0 km/h
3043 06-09-2020 13:30:00 17.4 C 8.89 g/m*3 17.4 C 0 km/h
3044 06-09-2020 13:35:00 17.4 C 8.74 g/m*3 17.4 C 0 km/h
3045 06-09-2020 13:40:00 17.4 C 8.74 g/m*3 17.4 C 0 km/h
3046 06-09-2020 13:45:00 17.5 C 8.65 g/m*3 17.5 C 0 km/h
3047 06-09-2020 13:50:00 17.6 C 8.85 g/m*3 17.6 C 6.4 km/h
3048 06-09-2020 13:55:00 17.8 C 8.65 g/m*3 17.8 C 8.1 km/h
3049 06-09-2020 14:00:00 17.9 C 8.7 g/m*3 17.9 C 8.1 km/h
3050 06-09-2020 14:05:00 18.1 C 8.65 g/m*3 18.1 C 3.2 km/h
Sensor: Nr:Datum:Temp:Abs-Feuchte:Windchill:Wind:
Aussen-T/F 3051 06-09-2020 14:10:00 18.2 C 8.86 g/m*3 18.2 C 6.4 km/h
3052 06-09-2020 14:15:00 18.4 C 8.81 g/m*3 18.4 C 4.8 km/h
3053 06-09-2020 14:20:00 18.6 C 8.44 g/m*3 18.6 C 4.8 km/h
3054 06-09-2020 14:25:00 18.7 C 8.65 g/m*3 18.7 C 3.2 km/h
3055 06-09-2020 14:30:00 18.8 C 8.86 g/m*3 18.8 C 6.4 km/h
3056 06-09-2020 14:35:00 18.8 C 8.86 g/m*3 18.8 C 8.1 km/h
3057 06-09-2020 14:40:00 18.8 C 8.86 g/m*3 18.8 C 3.2 km/h
3058 06-09-2020 14:45:00 18.9 C 8.91 g/m*3 18.9 C 6.4 km/h
3059 06-09-2020 14:50:00 19.1 C 9.02 g/m*3 19.1 C 0 km/h
3060 06-09-2020 14:55:00 19.1 C 9.02 g/m*3 19.1 C 0 km/h
3061 06-09-2020 15:00:00 19.2 C 8.74 g/m*3 19.2 C 9.7 km/h
3062 06-09-2020 15:05:00 19.1 C 8.52 g/m*3 19.1 C 11.3 km/h
3063 06-09-2020 15:10:00 18.9 C 8.42 g/m*3 18.9 C 4.8 km/h
3064 06-09-2020 15:15:00 18.9 C 8.59 g/m*3 18.9 C 6.4 km/h
3065 06-09-2020 15:20:00 19 C 8.64 g/m*3 19 C 6.4 km/h
3066 06-09-2020 15:25:00 19.1 C 8.52 g/m*3 19.1 C 0 km/h
3067 06-09-2020 15:30:00 19.2 C 8.74 g/m*3 19.2 C 0 km/h
3068 06-09-2020 15:35:00 19.2 C 8.41 g/m*3 19.2 C 6.4 km/h
3069 06-09-2020 15:40:00 19.1 C 8.85 g/m*3 19.1 C 6.4 km/h
3070 06-09-2020 15:45:00 19.1 C 8.69 g/m*3 19.1 C 8.1 km/h
3071 06-09-2020 15:50:00 18.9 C 8.59 g/m*3 18.9 C 8.1 km/h
3072 06-09-2020 15:55:00 18.8 C 8.54 g/m*3 18.8 C 8.1 km/h
3073 06-09-2020 16:00:00 18.7 C 8.49 g/m*3 18.7 C 9.7 km/h
3074 06-09-2020 16:05:00 18.6 C 8.44 g/m*3 18.6 C 4.8 km/h
3075 06-09-2020 16:10:00 18.5 C 8.54 g/m*3 18.5 C 0 km/h
Sensor: Nr:Datum:Temp:Abs-Feuchte:Windchill:Wind:
Aussen-T/F 3076 06-09-2020 16:15:00 18.4 C 8.34 g/m*3 18.4 C 1.6 km/h
3077 06-09-2020 16:20:00 18.4 C 8.34 g/m*3 18.4 C 3.2 km/h
3078 06-09-2020 16:25:00 18.4 C 8.34 g/m*3 18.4 C 0 km/h
3079 06-09-2020 16:30:00 18.4 C 8.34 g/m*3 18.4 C 8.1 km/h
3080 06-09-2020 16:35:00 18.4 C 8.34 g/m*3 18.4 C 6.4 km/h
3081 06-09-2020 16:40:00 18.5 C 8.39 g/m*3 18.5 C 4.8 km/h
3082 06-09-2020 16:45:00 18.5 C 8.39 g/m*3 18.5 C 8.1 km/h
3083 06-09-2020 16:50:00 18.6 C 8.59 g/m*3 18.6 C 11.3 km/h
3084 06-09-2020 16:55:00 18.6 C 8.59 g/m*3 18.6 C 8.1 km/h
3085 06-09-2020 17:00:00 18.6 C 8.59 g/m*3 18.6 C 9.7 km/h
3086 06-09-2020 17:05:00 18.7 C 8.49 g/m*3 18.7 C 8.1 km/h
3087 06-09-2020 17:10:00 18.7 C 8.49 g/m*3 18.7 C 8.1 km/h
3088 06-09-2020 17:15:00 18.7 C 8.65 g/m*3 18.7 C 3.2 km/h
3089 06-09-2020 17:20:00 18.7 C 8.65 g/m*3 18.7 C 6.4 km/h
3090 06-09-2020 17:25:00 18.7 C 8.49 g/m*3 18.7 C 4.8 km/h
3091 06-09-2020 17:30:00 18.6 C 8.59 g/m*3 18.6 C 9.7 km/h
3092 06-09-2020 17:35:00 18.6 C 8.91 g/m*3 18.6 C 8.1 km/h
3093 06-09-2020 17:40:00 18.5 C 8.86 g/m*3 18.5 C 9.7 km/h
3094 06-09-2020 17:45:00 18.4 C 8.97 g/m*3 18.4 C 9.7 km/h
3095 06-09-2020 17:50:00 18.3 C 8.6 g/m*3 18.3 C 8.1 km/h
3096 06-09-2020 17:55:00 18.3 C 8.91 g/m*3 18.3 C 4.8 km/h
3097 06-09-2020 18:00:00 18.3 C 8.76 g/m*3 18.3 C 6.4 km/h
3098 06-09-2020 18:05:00 18.3 C 8.76 g/m*3 18.3 C 4.8 km/h
3099 06-09-2020 18:10:00 18.3 C 8.76 g/m*3 18.3 C 4.8 km/h
3100 06-09-2020 18:15:00 18.4 C 8.81 g/m*3 18.4 C 1.6 km/h
Sensor: Nr:Datum:Temp:Abs-Feuchte:Windchill:Wind:
Aussen-T/F 3101 06-09-2020 18:20:00 18.9 C 8.91 g/m*3 18.9 C 0 km/h
3102 06-09-2020 18:25:00 19.3 C 8.79 g/m*3 19.3 C 0 km/h
3103 06-09-2020 18:30:00 19.6 C 8.78 g/m*3 19.6 C 0 km/h
3104 06-09-2020 18:35:00 19.7 C 8.66 g/m*3 19.7 C 9.7 km/h
3105 06-09-2020 18:40:00 19.6 C 8.61 g/m*3 19.6 C 4.8 km/h
3106 06-09-2020 18:45:00 19.6 C 8.95 g/m*3 19.6 C 1.6 km/h
3107 06-09-2020 18:50:00 19.7 C 8.49 g/m*3 19.7 C 3.2 km/h
3108 06-09-2020 18:55:00 19.7 C 8.83 g/m*3 19.7 C 3.2 km/h
3109 06-09-2020 19:00:00 19.8 C 8.71 g/m*3 19.8 C 0 km/h
3110 06-09-2020 19:05:00 19.8 C 8.37 g/m*3 19.8 C 4.8 km/h
3111 06-09-2020 19:10:00 19.6 C 8.61 g/m*3 19.6 C 6.4 km/h
3112 06-09-2020 19:15:00 19.3 C 8.46 g/m*3 19.3 C 3.2 km/h
3113 06-09-2020 19:20:00 19.2 C 8.74 g/m*3 19.2 C 4.8 km/h
3114 06-09-2020 19:25:00 18.9 C 8.91 g/m*3 18.9 C 4.8 km/h
3115 06-09-2020 19:30:00 18.7 C 8.65 g/m*3 18.7 C 4.8 km/h
3116 06-09-2020 19:35:00 18.4 C 9.28 g/m*3 18.4 C 0 km/h
3117 06-09-2020 19:40:00 18.2 C 9.33 g/m*3 18.2 C 0 km/h
3118 06-09-2020 19:45:00 17.8 C 9.11 g/m*3 17.8 C 0 km/h
3119 06-09-2020 19:50:00 17.3 C 8.99 g/m*3 17.3 C 0 km/h
3120 06-09-2020 19:55:00 16.8 C 9.01 g/m*3 16.8 C 0 km/h
3121 06-09-2020 20:00:00 16.4 C 8.93 g/m*3 16.4 C 0 km/h
3122 06-09-2020 20:05:00 15.9 C 8.8 g/m*3 15.9 C 0 km/h
3123 06-09-2020 20:10:00 15.6 C 8.91 g/m*3 15.6 C 0 km/h
3124 06-09-2020 20:15:00 15.2 C 8.7 g/m*3 15.2 C 0 km/h
3125 06-09-2020 20:20:00 14.9 C 8.54 g/m*3 14.9 C 0 km/h
Sensor: Nr:Datum:Temp:Abs-Feuchte:Windchill:Wind:
Aussen-T/F 3126 06-09-2020 20:25:00 14.7 C 8.56 g/m*3 14.7 C 0 km/h
3127 06-09-2020 20:30:00 14.4 C 8.41 g/m*3 14.4 C 0 km/h
3128 06-09-2020 20:35:00 14.2 C 8.43 g/m*3 14.2 C 0 km/h
3129 06-09-2020 20:40:00 14.1 C 8.37 g/m*3 14.1 C 0 km/h
3130 06-09-2020 20:45:00 13.9 C 8.39 g/m*3 13.9 C 0 km/h
3131 06-09-2020 20:50:00 13.7 C 8.41 g/m*3 13.7 C 0 km/h
3132 06-09-2020 20:55:00 13.6 C 8.47 g/m*3 13.6 C 0 km/h
3133 06-09-2020 21:00:00 13.4 C 8.49 g/m*3 13.4 C 0 km/h
3134 06-09-2020 21:05:00 13.3 C 8.55 g/m*3 13.3 C 0 km/h
3135 06-09-2020 21:10:00 13.2 C 8.5 g/m*3 13.2 C 0 km/h
3136 06-09-2020 21:15:00 13.1 C 8.56 g/m*3 13.1 C 0 km/h
3137 06-09-2020 21:20:00 13 C 8.62 g/m*3 13 C 0 km/h
3138 06-09-2020 21:25:00 12.8 C 8.51 g/m*3 12.8 C 0 km/h
3139 06-09-2020 21:30:00 12.7 C 8.57 g/m*3 12.7 C 0 km/h
3140 06-09-2020 21:35:00 12.6 C 8.63 g/m*3 12.6 C 0 km/h
3141 06-09-2020 21:40:00 12.6 C 8.74 g/m*3 12.6 C 0 km/h
3142 06-09-2020 21:45:00 12.5 C 8.69 g/m*3 12.5 C 0 km/h
3143 06-09-2020 21:50:00 12.4 C 8.74 g/m*3 12.4 C 0 km/h
3144 06-09-2020 21:55:00 12.4 C 8.85 g/m*3 12.4 C 0 km/h
3145 06-09-2020 22:00:00 12.4 C 8.85 g/m*3 12.4 C 0 km/h
3146 06-09-2020 22:05:00 12.4 C 8.85 g/m*3 12.4 C 0 km/h
3147 06-09-2020 22:10:00 12.3 C 8.9 g/m*3 12.3 C 0 km/h
3148 06-09-2020 22:15:00 12.3 C 8.9 g/m*3 12.3 C 0 km/h
3149 06-09-2020 22:20:00 12.3 C 8.8 g/m*3 12.3 C 0 km/h
3150 06-09-2020 22:25:00 12.3 C 8.9 g/m*3 12.3 C 0 km/h
Sensor: Nr:Datum:Temp:Abs-Feuchte:Windchill:Wind:
Aussen-T/F 3151 06-09-2020 22:30:00 12.3 C 8.9 g/m*3 12.3 C 0 km/h
3152 06-09-2020 22:35:00 12.4 C 8.96 g/m*3 12.4 C 0 km/h
3153 06-09-2020 22:40:00 12.3 C 8.8 g/m*3 12.3 C 0 km/h
3154 06-09-2020 22:45:00 12.4 C 8.85 g/m*3 12.4 C 0 km/h
3155 06-09-2020 22:50:00 12.4 C 8.96 g/m*3 12.4 C 0 km/h
3156 06-09-2020 22:55:00 12.4 C 8.96 g/m*3 12.4 C 0 km/h
3157 06-09-2020 23:00:00 12.5 C 9.02 g/m*3 12.5 C 0 km/h
3158 06-09-2020 23:05:00 12.5 C 9.02 g/m*3 12.5 C 0 km/h
3159 06-09-2020 23:10:00 12.5 C 9.02 g/m*3 12.5 C 0 km/h
3160 06-09-2020 23:15:00 12.6 C 9.07 g/m*3 12.6 C 0 km/h
3161 06-09-2020 23:20:00 12.6 C 9.07 g/m*3 12.6 C 0 km/h
3162 06-09-2020 23:25:00 12.6 C 9.07 g/m*3 12.6 C 0 km/h
3163 06-09-2020 23:30:00 12.5 C 8.91 g/m*3 12.5 C 0 km/h
3164 06-09-2020 23:35:00 12.6 C 8.96 g/m*3 12.6 C 3.2 km/h
3165 06-09-2020 23:40:00 12.6 C 8.96 g/m*3 12.6 C 0 km/h
3166 06-09-2020 23:45:00 12.6 C 8.96 g/m*3 12.6 C 0 km/h
3167 06-09-2020 23:50:00 12.6 C 9.07 g/m*3 12.6 C 0 km/h
3168 06-09-2020 23:55:00 12.7 C 9.13 g/m*3 12.7 C 0 km/h
3169 07-09-2020 00:00:00 12.6 C 9.07 g/m*3 12.6 C 0 km/h
3170 07-09-2020 00:05:00 12.6 C 9.07 g/m*3 12.6 C 0 km/h
3171 07-09-2020 00:10:00 12.6 C 8.96 g/m*3 12.6 C 1.6 km/h
3172 07-09-2020 00:15:00 12.6 C 8.96 g/m*3 12.6 C 0 km/h
3173 07-09-2020 00:20:00 12.6 C 8.96 g/m*3 12.6 C 0 km/h
3174 07-09-2020 00:25:00 12.6 C 8.96 g/m*3 12.6 C 0 km/h
3175 07-09-2020 00:30:00 12.6 C 9.07 g/m*3 12.6 C 0 km/h
Sensor: Nr:Datum:Temp:Abs-Feuchte:Windchill:Wind:
Aussen-T/F 3176 07-09-2020 00:35:00 12.6 C 9.07 g/m*3 12.6 C 0 km/h
3177 07-09-2020 00:40:00 12.6 C 9.07 g/m*3 12.6 C 0 km/h
3178 07-09-2020 00:45:00 12.6 C 9.07 g/m*3 12.6 C 0 km/h
3179 07-09-2020 00:50:00 12.6 C 9.07 g/m*3 12.6 C 0 km/h
3180 07-09-2020 00:55:00 12.5 C 9.02 g/m*3 12.5 C 0 km/h
3181 07-09-2020 01:00:00 12.5 C 9.02 g/m*3 12.5 C 0 km/h
3182 07-09-2020 01:05:00 12.5 C 9.02 g/m*3 12.5 C 0 km/h
3183 07-09-2020 01:10:00 12.4 C 9.07 g/m*3 12.4 C 0 km/h
3184 07-09-2020 01:15:00 12.4 C 9.07 g/m*3 12.4 C 0 km/h
3185 07-09-2020 01:20:00 12.4 C 9.07 g/m*3 12.4 C 0 km/h
3186 07-09-2020 01:25:00 12.3 C 9.01 g/m*3 12.3 C 0 km/h
3187 07-09-2020 01:30:00 12.3 C 9.01 g/m*3 12.3 C 0 km/h
3188 07-09-2020 01:35:00 12.2 C 8.96 g/m*3 12.2 C 0 km/h
3189 07-09-2020 01:40:00 12 C 8.85 g/m*3 12 C 0 km/h
3190 07-09-2020 01:45:00 11.9 C 8.79 g/m*3 11.9 C 0 km/h
3191 07-09-2020 01:50:00 11.8 C 8.84 g/m*3 11.8 C 0 km/h
3192 07-09-2020 01:55:00 11.6 C 8.73 g/m*3 11.6 C 0 km/h
3193 07-09-2020 02:00:00 11.5 C 8.68 g/m*3 11.5 C 0 km/h
3194 07-09-2020 02:05:00 11.3 C 8.57 g/m*3 11.3 C 0 km/h
3195 07-09-2020 02:10:00 11.2 C 8.51 g/m*3 11.2 C 0 km/h
3196 07-09-2020 02:15:00 11.1 C 8.56 g/m*3 11.1 C 0 km/h
3197 07-09-2020 02:20:00 10.9 C 8.45 g/m*3 10.9 C 1.6 km/h
3198 07-09-2020 02:25:00 10.8 C 8.5 g/m*3 10.8 C 0 km/h
3199 07-09-2020 02:30:00 10.6 C 8.39 g/m*3 10.6 C 0 km/h
3200 07-09-2020 02:35:00 10.5 C 8.44 g/m*3 10.5 C 0 km/h
Sensor: Nr:Datum:Temp:Abs-Feuchte:Windchill:Wind:
Aussen-T/F 3201 07-09-2020 02:40:00 10.4 C 8.38 g/m*3 10.4 C 0 km/h
3202 07-09-2020 02:45:00 10.3 C 8.33 g/m*3 10.3 C 0 km/h
3203 07-09-2020 02:50:00 10.1 C 8.23 g/m*3 10.1 C 0 km/h
3204 07-09-2020 02:55:00 10 C 8.27 g/m*3 10 C 0 km/h
3205 07-09-2020 03:00:00 9.9 C 8.22 g/m*3 9.9 C 0 km/h
3206 07-09-2020 03:05:00 9.8 C 8.16 g/m*3 9.8 C 0 km/h
3207 07-09-2020 03:10:00 9.7 C 8.11 g/m*3 9.7 C 0 km/h
3208 07-09-2020 03:15:00 9.6 C 8.15 g/m*3 9.6 C 1.6 km/h
3209 07-09-2020 03:20:00 9.6 C 8.15 g/m*3 9.6 C 0 km/h
3210 07-09-2020 03:25:00 9.4 C 8.05 g/m*3 9.4 C 0 km/h